<?xml version="1.0" encoding="UTF-8" standalone="no" ?>
<gpx xmlns="http://www.topografix.com/GPX/1/1" xmlns:xsi="http://www.w3.org/2001/XMLSchema-instance" xsi:schemaLocation="http://www.topografix.com/GPX/1/1 http://www.topografix.com/GPX/1/1/gpx.xsd" version="1.1" creator="VisuGPX - https://www.visugpx.com">
  <metadata>
    <name>Klein Gümmenen. Mühleberg, Süri</name>
  </metadata>
  <trk>
    <name><![CDATA[Klein Gümmenen. Mühleberg, Süri_1]]></name>
    <trkseg>
      <trkpt lat="46.94195" lon="7.23524">
        <ele>488</ele>
        <time>2020-05-07T08:00:00.000Z</time>
      </trkpt>
      <trkpt lat="46.94256" lon="7.23515">
        <ele>482.8</ele>
        <time>2020-05-07T08:00:13.867Z</time>
      </trkpt>
      <trkpt lat="46.94291" lon="7.23521">
        <ele>481</ele>
        <time>2020-05-07T08:00:22.019Z</time>
      </trkpt>
      <trkpt lat="46.94379" lon="7.23519">
        <ele>478.4</ele>
        <time>2020-05-07T08:00:47.267Z</time>
      </trkpt>
      <trkpt lat="46.94379" lon="7.23519">
        <ele>478.4</ele>
        <time>2020-05-07T08:00:47.267Z</time>
      </trkpt>
      <trkpt lat="46.94377" lon="7.2354">
        <ele>478</ele>
        <time>2020-05-07T08:00:51.507Z</time>
      </trkpt>
      <trkpt lat="46.94377" lon="7.23541">
        <ele>478</ele>
        <time>2020-05-07T08:00:52.193Z</time>
      </trkpt>
      <trkpt lat="46.94375" lon="7.23567">
        <ele>477.6</ele>
        <time>2020-05-07T08:00:57.737Z</time>
      </trkpt>
      <trkpt lat="46.94374" lon="7.23583">
        <ele>477.4</ele>
        <time>2020-05-07T08:01:01.312Z</time>
      </trkpt>
      <trkpt lat="46.94374" lon="7.23598">
        <ele>476</ele>
        <time>2020-05-07T08:01:03.617Z</time>
      </trkpt>
      <trkpt lat="46.94374" lon="7.23607">
        <ele>475.9</ele>
        <time>2020-05-07T08:01:05.668Z</time>
      </trkpt>
      <trkpt lat="46.94373" lon="7.23629">
        <ele>475.7</ele>
        <time>2020-05-07T08:01:10.882Z</time>
      </trkpt>
      <trkpt lat="46.94372" lon="7.23641">
        <ele>475.7</ele>
        <time>2020-05-07T08:01:19.166Z</time>
      </trkpt>
      <trkpt lat="46.94371" lon="7.23641">
        <ele>475.7</ele>
        <time>2020-05-07T08:01:20.170Z</time>
      </trkpt>
      <trkpt lat="46.94382" lon="7.23658">
        <ele>475.3</ele>
        <time>2020-05-07T08:01:24.992Z</time>
      </trkpt>
      <trkpt lat="46.9438" lon="7.23657">
        <ele>475.3</ele>
        <time>2020-05-07T08:01:27.122Z</time>
      </trkpt>
      <trkpt lat="46.94379" lon="7.23672">
        <ele>474.6</ele>
        <time>2020-05-07T08:01:29.439Z</time>
      </trkpt>
      <trkpt lat="46.94375" lon="7.23695">
        <ele>474.6</ele>
        <time>2020-05-07T08:01:45.703Z</time>
      </trkpt>
      <trkpt lat="46.9437" lon="7.23716">
        <ele>474.5</ele>
        <time>2020-05-07T08:01:59.547Z</time>
      </trkpt>
      <trkpt lat="46.94364" lon="7.23748">
        <ele>474.3</ele>
        <time>2020-05-07T08:02:07.867Z</time>
      </trkpt>
      <trkpt lat="46.94352" lon="7.23803">
        <ele>472.4</ele>
        <time>2020-05-07T08:02:17.320Z</time>
      </trkpt>
      <trkpt lat="46.94341" lon="7.23856">
        <ele>471.5</ele>
        <time>2020-05-07T08:02:28.875Z</time>
      </trkpt>
      <trkpt lat="46.94334" lon="7.23853">
        <ele>471.4</ele>
        <time>2020-05-07T08:02:31.387Z</time>
      </trkpt>
      <trkpt lat="46.94331" lon="7.23865">
        <ele>471.4</ele>
        <time>2020-05-07T08:02:40.145Z</time>
      </trkpt>
      <trkpt lat="46.94337" lon="7.23874">
        <ele>471.7</ele>
        <time>2020-05-07T08:02:52.821Z</time>
      </trkpt>
      <trkpt lat="46.9434" lon="7.2388">
        <ele>471.7</ele>
        <time>2020-05-07T08:02:57.918Z</time>
      </trkpt>
      <trkpt lat="46.94348" lon="7.23898">
        <ele>471.8</ele>
        <time>2020-05-07T08:03:13.617Z</time>
      </trkpt>
      <trkpt lat="46.94349" lon="7.23901">
        <ele>471.8</ele>
        <time>2020-05-07T08:03:15.905Z</time>
      </trkpt>
      <trkpt lat="46.94349" lon="7.239">
        <ele>471.8</ele>
        <time>2020-05-07T08:03:16.590Z</time>
      </trkpt>
      <trkpt lat="46.9436" lon="7.23922">
        <ele>472.1</ele>
        <time>2020-05-07T08:03:38.513Z</time>
      </trkpt>
      <trkpt lat="46.94365" lon="7.23934">
        <ele>472.2</ele>
        <time>2020-05-07T08:03:49.163Z</time>
      </trkpt>
      <trkpt lat="46.94369" lon="7.23944">
        <ele>472.2</ele>
        <time>2020-05-07T08:03:57.105Z</time>
      </trkpt>
      <trkpt lat="46.94376" lon="7.23961">
        <ele>472.3</ele>
        <time>2020-05-07T08:04:11.696Z</time>
      </trkpt>
      <trkpt lat="46.9438" lon="7.23976">
        <ele>472.3</ele>
        <time>2020-05-07T08:04:22.731Z</time>
      </trkpt>
      <trkpt lat="46.94383" lon="7.23989">
        <ele>472.4</ele>
        <time>2020-05-07T08:04:33.154Z</time>
      </trkpt>
      <trkpt lat="46.94385" lon="7.23998">
        <ele>472.4</ele>
        <time>2020-05-07T08:04:39.640Z</time>
      </trkpt>
      <trkpt lat="46.94387" lon="7.24011">
        <ele>472.9</ele>
        <time>2020-05-07T08:04:56.144Z</time>
      </trkpt>
      <trkpt lat="46.94391" lon="7.24053">
        <ele>473.2</ele>
        <time>2020-05-07T08:05:28.252Z</time>
      </trkpt>
      <trkpt lat="46.94393" lon="7.24067">
        <ele>473.3</ele>
        <time>2020-05-07T08:05:39.068Z</time>
      </trkpt>
      <trkpt lat="46.94395" lon="7.24084">
        <ele>473.7</ele>
        <time>2020-05-07T08:05:56.228Z</time>
      </trkpt>
      <trkpt lat="46.94395" lon="7.24096">
        <ele>473.7</ele>
        <time>2020-05-07T08:06:04.451Z</time>
      </trkpt>
      <trkpt lat="46.94396" lon="7.24107">
        <ele>473.6</ele>
        <time>2020-05-07T08:06:07.078Z</time>
      </trkpt>
      <trkpt lat="46.94395" lon="7.24115">
        <ele>473.6</ele>
        <time>2020-05-07T08:06:12.652Z</time>
      </trkpt>
      <trkpt lat="46.94395" lon="7.24126">
        <ele>473.6</ele>
        <time>2020-05-07T08:06:20.190Z</time>
      </trkpt>
      <trkpt lat="46.94394" lon="7.24135">
        <ele>473.6</ele>
        <time>2020-05-07T08:06:26.438Z</time>
      </trkpt>
      <trkpt lat="46.94392" lon="7.24145">
        <ele>473.6</ele>
        <time>2020-05-07T08:06:33.579Z</time>
      </trkpt>
      <trkpt lat="46.9439" lon="7.24153">
        <ele>473.6</ele>
        <time>2020-05-07T08:06:39.417Z</time>
      </trkpt>
      <trkpt lat="46.94383" lon="7.2418">
        <ele>473.5</ele>
        <time>2020-05-07T08:06:57.782Z</time>
      </trkpt>
      <trkpt lat="46.94381" lon="7.24197">
        <ele>473.5</ele>
        <time>2020-05-07T08:07:09.603Z</time>
      </trkpt>
      <trkpt lat="46.94379" lon="7.24216">
        <ele>473.5</ele>
        <time>2020-05-07T08:07:22.777Z</time>
      </trkpt>
      <trkpt lat="46.94378" lon="7.24229">
        <ele>473.5</ele>
        <time>2020-05-07T08:07:31.742Z</time>
      </trkpt>
      <trkpt lat="46.94379" lon="7.24237">
        <ele>473.5</ele>
        <time>2020-05-07T08:07:37.316Z</time>
      </trkpt>
      <trkpt lat="46.9438" lon="7.24247">
        <ele>473.5</ele>
        <time>2020-05-07T08:07:44.242Z</time>
      </trkpt>
      <trkpt lat="46.94383" lon="7.24257">
        <ele>473.8</ele>
        <time>2020-05-07T08:07:56.095Z</time>
      </trkpt>
      <trkpt lat="46.94385" lon="7.24262">
        <ele>473.8</ele>
        <time>2020-05-07T08:08:00.066Z</time>
      </trkpt>
      <trkpt lat="46.94387" lon="7.24267">
        <ele>473.8</ele>
        <time>2020-05-07T08:08:04.037Z</time>
      </trkpt>
      <trkpt lat="46.944" lon="7.24292">
        <ele>474</ele>
        <time>2020-05-07T08:08:27.583Z</time>
      </trkpt>
      <trkpt lat="46.944" lon="7.24291">
        <ele>474</ele>
        <time>2020-05-07T08:08:28.268Z</time>
      </trkpt>
      <trkpt lat="46.94445" lon="7.24375">
        <ele>478</ele>
        <time>2020-05-07T08:10:40.428Z</time>
      </trkpt>
      <trkpt lat="46.94451" lon="7.24387">
        <ele>478.4</ele>
        <time>2020-05-07T08:10:56.374Z</time>
      </trkpt>
      <trkpt lat="46.94446" lon="7.24394">
        <ele>478.6</ele>
        <time>2020-05-07T08:11:05.818Z</time>
      </trkpt>
      <trkpt lat="46.94451" lon="7.244">
        <ele>478.7</ele>
        <time>2020-05-07T08:11:13.377Z</time>
      </trkpt>
      <trkpt lat="46.94458" lon="7.24409">
        <ele>478.9</ele>
        <time>2020-05-07T08:11:25.015Z</time>
      </trkpt>
      <trkpt lat="46.94463" lon="7.24415">
        <ele>478.9</ele>
        <time>2020-05-07T08:11:31.503Z</time>
      </trkpt>
      <trkpt lat="46.9447" lon="7.24425">
        <ele>486.2</ele>
        <time>2020-05-07T08:12:09.360Z</time>
      </trkpt>
      <trkpt lat="46.94478" lon="7.24438">
        <ele>486.8</ele>
        <time>2020-05-07T08:12:30.360Z</time>
      </trkpt>
      <trkpt lat="46.94485" lon="7.24451">
        <ele>488</ele>
        <time>2020-05-07T08:13:01.750Z</time>
      </trkpt>
      <trkpt lat="46.94492" lon="7.24466">
        <ele>489.5</ele>
        <time>2020-05-07T08:13:42.422Z</time>
      </trkpt>
      <trkpt lat="46.94497" lon="7.2448">
        <ele>490.7</ele>
        <time>2020-05-07T08:14:14.044Z</time>
      </trkpt>
      <trkpt lat="46.94504" lon="7.24503">
        <ele>494</ele>
        <time>2020-05-07T08:15:20.604Z</time>
      </trkpt>
      <trkpt lat="46.94508" lon="7.24517">
        <ele>497.6</ele>
        <time>2020-05-07T08:16:00.718Z</time>
      </trkpt>
      <trkpt lat="46.94508" lon="7.24516">
        <ele>497.4</ele>
        <time>2020-05-07T08:16:00.872Z</time>
      </trkpt>
      <trkpt lat="46.9451" lon="7.24525">
        <ele>498.9</ele>
        <time>2020-05-07T08:16:25.888Z</time>
      </trkpt>
      <trkpt lat="46.94514" lon="7.24546">
        <ele>501</ele>
        <time>2020-05-07T08:17:23.514Z</time>
      </trkpt>
      <trkpt lat="46.94522" lon="7.24583">
        <ele>502.2</ele>
        <time>2020-05-07T08:18:08.626Z</time>
      </trkpt>
      <trkpt lat="46.94527" lon="7.24612">
        <ele>505.6</ele>
        <time>2020-05-07T08:19:27.684Z</time>
      </trkpt>
      <trkpt lat="46.94529" lon="7.24634">
        <ele>506.2</ele>
        <time>2020-05-07T08:19:51.549Z</time>
      </trkpt>
      <trkpt lat="46.9453" lon="7.24657">
        <ele>506.5</ele>
        <time>2020-05-07T08:20:10.684Z</time>
      </trkpt>
      <trkpt lat="46.94531" lon="7.24683">
        <ele>511.5</ele>
        <time>2020-05-07T08:21:19.514Z</time>
      </trkpt>
      <trkpt lat="46.94531" lon="7.24702">
        <ele>512.8</ele>
        <time>2020-05-07T08:21:53.446Z</time>
      </trkpt>
      <trkpt lat="46.94531" lon="7.24717">
        <ele>513.9</ele>
        <time>2020-05-07T08:22:22.259Z</time>
      </trkpt>
      <trkpt lat="46.94531" lon="7.24745">
        <ele>515.1</ele>
        <time>2020-05-07T08:22:58.874Z</time>
      </trkpt>
      <trkpt lat="46.94532" lon="7.24775">
        <ele>519</ele>
        <time>2020-05-07T08:24:18.262Z</time>
      </trkpt>
      <trkpt lat="46.94532" lon="7.24811">
        <ele>518.9</ele>
        <time>2020-05-07T08:24:41.484Z</time>
      </trkpt>
      <trkpt lat="46.94533" lon="7.24834">
        <ele>517.9</ele>
        <time>2020-05-07T08:24:44.807Z</time>
      </trkpt>
      <trkpt lat="46.94534" lon="7.24856">
        <ele>518.1</ele>
        <time>2020-05-07T08:25:02.010Z</time>
      </trkpt>
      <trkpt lat="46.94535" lon="7.24865">
        <ele>518.1</ele>
        <time>2020-05-07T08:25:08.258Z</time>
      </trkpt>
      <trkpt lat="46.94536" lon="7.24876">
        <ele>518.1</ele>
        <time>2020-05-07T08:25:15.862Z</time>
      </trkpt>
      <trkpt lat="46.9454" lon="7.24893">
        <ele>518</ele>
        <time>2020-05-07T08:25:20.412Z</time>
      </trkpt>
      <trkpt lat="46.94545" lon="7.24908">
        <ele>517.9</ele>
        <time>2020-05-07T08:25:24.600Z</time>
      </trkpt>
      <trkpt lat="46.94551" lon="7.24918">
        <ele>517.6</ele>
        <time>2020-05-07T08:25:27.117Z</time>
      </trkpt>
      <trkpt lat="46.94554" lon="7.24914">
        <ele>517.8</ele>
        <time>2020-05-07T08:25:34.204Z</time>
      </trkpt>
      <trkpt lat="46.94555" lon="7.24912">
        <ele>517.9</ele>
        <time>2020-05-07T08:25:37.363Z</time>
      </trkpt>
      <trkpt lat="46.94556" lon="7.24909">
        <ele>517.9</ele>
        <time>2020-05-07T08:25:39.651Z</time>
      </trkpt>
      <trkpt lat="46.94562" lon="7.24881">
        <ele>518.6</ele>
        <time>2020-05-07T08:26:09.226Z</time>
      </trkpt>
      <trkpt lat="46.94563" lon="7.24879">
        <ele>518.7</ele>
        <time>2020-05-07T08:26:12.384Z</time>
      </trkpt>
      <trkpt lat="46.94568" lon="7.2488">
        <ele>518.8</ele>
        <time>2020-05-07T08:26:18.573Z</time>
      </trkpt>
      <trkpt lat="46.94569" lon="7.24879">
        <ele>518.9</ele>
        <time>2020-05-07T08:26:21.275Z</time>
      </trkpt>
      <trkpt lat="46.94573" lon="7.24857">
        <ele>520.4</ele>
        <time>2020-05-07T08:27:00.510Z</time>
      </trkpt>
      <trkpt lat="46.94577" lon="7.24845">
        <ele>522.1</ele>
        <time>2020-05-07T08:27:35.806Z</time>
      </trkpt>
      <trkpt lat="46.94583" lon="7.24833">
        <ele>524.9</ele>
        <time>2020-05-07T08:28:15.121Z</time>
      </trkpt>
      <trkpt lat="46.9459" lon="7.24826">
        <ele>530.8</ele>
        <time>2020-05-07T08:28:47.935Z</time>
      </trkpt>
      <trkpt lat="46.94597" lon="7.24823">
        <ele>533.9</ele>
        <time>2020-05-07T08:29:16.173Z</time>
      </trkpt>
      <trkpt lat="46.946" lon="7.24824">
        <ele>534.8</ele>
        <time>2020-05-07T08:29:28.085Z</time>
      </trkpt>
      <trkpt lat="46.94602" lon="7.24827">
        <ele>535.1</ele>
        <time>2020-05-07T08:29:35.923Z</time>
      </trkpt>
      <trkpt lat="46.94603" lon="7.2485">
        <ele>534.5</ele>
        <time>2020-05-07T08:29:40.064Z</time>
      </trkpt>
      <trkpt lat="46.94604" lon="7.24859">
        <ele>535.3</ele>
        <time>2020-05-07T08:30:02.564Z</time>
      </trkpt>
      <trkpt lat="46.94609" lon="7.2487">
        <ele>536.3</ele>
        <time>2020-05-07T08:30:28.895Z</time>
      </trkpt>
      <trkpt lat="46.94613" lon="7.24877">
        <ele>536.8</ele>
        <time>2020-05-07T08:30:42.535Z</time>
      </trkpt>
      <trkpt lat="46.94613" lon="7.24876">
        <ele>536.8</ele>
        <time>2020-05-07T08:30:43.220Z</time>
      </trkpt>
      <trkpt lat="46.94613" lon="7.24878">
        <ele>536.7</ele>
        <time>2020-05-07T08:30:43.528Z</time>
      </trkpt>
      <trkpt lat="46.94619" lon="7.24887">
        <ele>537.6</ele>
        <time>2020-05-07T08:31:07.044Z</time>
      </trkpt>
      <trkpt lat="46.94631" lon="7.24901">
        <ele>540.5</ele>
        <time>2020-05-07T08:32:06.438Z</time>
      </trkpt>
      <trkpt lat="46.94646" lon="7.24914">
        <ele>545.8</ele>
        <time>2020-05-07T08:33:13.916Z</time>
      </trkpt>
      <trkpt lat="46.94646" lon="7.2489">
        <ele>544</ele>
        <time>2020-05-07T08:33:17.605Z</time>
      </trkpt>
      <trkpt lat="46.94644" lon="7.24869">
        <ele>543.8</ele>
        <time>2020-05-07T08:33:22.585Z</time>
      </trkpt>
      <trkpt lat="46.94644" lon="7.24855">
        <ele>545.2</ele>
        <time>2020-05-07T08:33:59.588Z</time>
      </trkpt>
      <trkpt lat="46.94648" lon="7.24838">
        <ele>548.7</ele>
        <time>2020-05-07T08:34:47.115Z</time>
      </trkpt>
      <trkpt lat="46.94649" lon="7.24818">
        <ele>549.3</ele>
        <time>2020-05-07T08:35:10.072Z</time>
      </trkpt>
      <trkpt lat="46.94647" lon="7.24799">
        <ele>547.1</ele>
        <time>2020-05-07T08:35:13.027Z</time>
      </trkpt>
      <trkpt lat="46.9464" lon="7.24771">
        <ele>546.5</ele>
        <time>2020-05-07T08:35:18.873Z</time>
      </trkpt>
      <trkpt lat="46.94639" lon="7.24759">
        <ele>547</ele>
        <time>2020-05-07T08:35:34.438Z</time>
      </trkpt>
      <trkpt lat="46.9464" lon="7.24749">
        <ele>544.3</ele>
        <time>2020-05-07T08:35:35.991Z</time>
      </trkpt>
      <trkpt lat="46.94644" lon="7.24739">
        <ele>545</ele>
        <time>2020-05-07T08:35:54.558Z</time>
      </trkpt>
      <trkpt lat="46.94652" lon="7.24728">
        <ele>545.3</ele>
        <time>2020-05-07T08:36:09.251Z</time>
      </trkpt>
      <trkpt lat="46.94668" lon="7.24712">
        <ele>560.9</ele>
        <time>2020-05-07T08:37:24.256Z</time>
      </trkpt>
      <trkpt lat="46.94684" lon="7.24696">
        <ele>560.6</ele>
        <time>2020-05-07T08:37:30.784Z</time>
      </trkpt>
      <trkpt lat="46.94689" lon="7.24688">
        <ele>560.5</ele>
        <time>2020-05-07T08:37:33.341Z</time>
      </trkpt>
      <trkpt lat="46.94691" lon="7.24678">
        <ele>560</ele>
        <time>2020-05-07T08:37:34.943Z</time>
      </trkpt>
      <trkpt lat="46.94693" lon="7.24652">
        <ele>560</ele>
        <time>2020-05-07T08:37:52.872Z</time>
      </trkpt>
      <trkpt lat="46.94693" lon="7.24612">
        <ele>561</ele>
        <time>2020-05-07T08:38:34.116Z</time>
      </trkpt>
      <trkpt lat="46.94695" lon="7.24605">
        <ele>561.1</ele>
        <time>2020-05-07T08:38:40.433Z</time>
      </trkpt>
      <trkpt lat="46.94699" lon="7.24601">
        <ele>561.7</ele>
        <time>2020-05-07T08:38:56.910Z</time>
      </trkpt>
      <trkpt lat="46.94708" lon="7.24603">
        <ele>563.3</ele>
        <time>2020-05-07T08:39:32.153Z</time>
      </trkpt>
      <trkpt lat="46.94715" lon="7.24626">
        <ele>563.9</ele>
        <time>2020-05-07T08:39:57.517Z</time>
      </trkpt>
      <trkpt lat="46.94722" lon="7.24652">
        <ele>564.7</ele>
        <time>2020-05-07T08:40:28.610Z</time>
      </trkpt>
      <trkpt lat="46.94731" lon="7.24677">
        <ele>566.2</ele>
        <time>2020-05-07T08:41:09.997Z</time>
      </trkpt>
      <trkpt lat="46.94744" lon="7.24709">
        <ele>566.1</ele>
        <time>2020-05-07T08:41:34.063Z</time>
      </trkpt>
      <trkpt lat="46.9475" lon="7.24726">
        <ele>567.1</ele>
        <time>2020-05-07T08:42:01.820Z</time>
      </trkpt>
      <trkpt lat="46.94756" lon="7.24746">
        <ele>573.2</ele>
        <time>2020-05-07T08:42:59.560Z</time>
      </trkpt>
      <trkpt lat="46.94759" lon="7.24757">
        <ele>574.5</ele>
        <time>2020-05-07T08:43:30.868Z</time>
      </trkpt>
      <trkpt lat="46.94759" lon="7.24756">
        <ele>574.4</ele>
        <time>2020-05-07T08:43:31.021Z</time>
      </trkpt>
      <trkpt lat="46.94761" lon="7.24766">
        <ele>576</ele>
        <time>2020-05-07T08:43:58.562Z</time>
      </trkpt>
      <trkpt lat="46.94768" lon="7.24787">
        <ele>578.2</ele>
        <time>2020-05-07T08:45:00.329Z</time>
      </trkpt>
      <trkpt lat="46.9478" lon="7.24819">
        <ele>579.2</ele>
        <time>2020-05-07T08:45:39.883Z</time>
      </trkpt>
      <trkpt lat="46.94783" lon="7.24831">
        <ele>579.6</ele>
        <time>2020-05-07T08:45:54.789Z</time>
      </trkpt>
      <trkpt lat="46.9479" lon="7.24865">
        <ele>580.6</ele>
        <time>2020-05-07T08:46:33.901Z</time>
      </trkpt>
      <trkpt lat="46.94796" lon="7.24897">
        <ele>581.3</ele>
        <time>2020-05-07T08:47:05.617Z</time>
      </trkpt>
      <trkpt lat="46.94799" lon="7.24922">
        <ele>580.5</ele>
        <time>2020-05-07T08:47:09.848Z</time>
      </trkpt>
      <trkpt lat="46.94804" lon="7.24948">
        <ele>580.4</ele>
        <time>2020-05-07T08:47:26.937Z</time>
      </trkpt>
      <trkpt lat="46.9481" lon="7.2497">
        <ele>580.8</ele>
        <time>2020-05-07T08:47:47.925Z</time>
      </trkpt>
      <trkpt lat="46.94817" lon="7.24994">
        <ele>583.3</ele>
        <time>2020-05-07T08:48:56.904Z</time>
      </trkpt>
      <trkpt lat="46.94825" lon="7.25018">
        <ele>580.6</ele>
        <time>2020-05-07T08:49:01.009Z</time>
      </trkpt>
      <trkpt lat="46.94833" lon="7.25039">
        <ele>578.3</ele>
        <time>2020-05-07T08:49:04.705Z</time>
      </trkpt>
      <trkpt lat="46.94843" lon="7.25059">
        <ele>591.2</ele>
        <time>2020-05-07T08:50:10.227Z</time>
      </trkpt>
      <trkpt lat="46.94856" lon="7.25083">
        <ele>591.2</ele>
        <time>2020-05-07T08:50:31.220Z</time>
      </trkpt>
      <trkpt lat="46.94869" lon="7.25105">
        <ele>589.6</ele>
        <time>2020-05-07T08:50:35.692Z</time>
      </trkpt>
      <trkpt lat="46.94879" lon="7.2512">
        <ele>590.2</ele>
        <time>2020-05-07T08:50:59.013Z</time>
      </trkpt>
      <trkpt lat="46.94883" lon="7.25128">
        <ele>590.4</ele>
        <time>2020-05-07T08:51:08.329Z</time>
      </trkpt>
      <trkpt lat="46.94886" lon="7.25136">
        <ele>590.5</ele>
        <time>2020-05-07T08:51:15.661Z</time>
      </trkpt>
      <trkpt lat="46.94888" lon="7.25146">
        <ele>590.7</ele>
        <time>2020-05-07T08:51:25.278Z</time>
      </trkpt>
      <trkpt lat="46.94891" lon="7.25169">
        <ele>587.5</ele>
        <time>2020-05-07T08:51:28.877Z</time>
      </trkpt>
      <trkpt lat="46.94894" lon="7.25193">
        <ele>586.2</ele>
        <time>2020-05-07T08:51:32.626Z</time>
      </trkpt>
      <trkpt lat="46.94896" lon="7.25211">
        <ele>585.2</ele>
        <time>2020-05-07T08:51:35.429Z</time>
      </trkpt>
      <trkpt lat="46.94899" lon="7.25226">
        <ele>585.4</ele>
        <time>2020-05-07T08:51:48.359Z</time>
      </trkpt>
      <trkpt lat="46.94903" lon="7.25241">
        <ele>586.8</ele>
        <time>2020-05-07T08:52:27.481Z</time>
      </trkpt>
      <trkpt lat="46.94909" lon="7.25256">
        <ele>586.7</ele>
        <time>2020-05-07T08:52:31.863Z</time>
      </trkpt>
      <trkpt lat="46.9492" lon="7.2528">
        <ele>591.3</ele>
        <time>2020-05-07T08:53:48.265Z</time>
      </trkpt>
      <trkpt lat="46.94933" lon="7.253">
        <ele>591.1</ele>
        <time>2020-05-07T08:53:55.025Z</time>
      </trkpt>
      <trkpt lat="46.9494" lon="7.25308">
        <ele>591</ele>
        <time>2020-05-07T08:53:58.182Z</time>
      </trkpt>
      <trkpt lat="46.94961" lon="7.25336">
        <ele>587.7</ele>
        <time>2020-05-07T08:54:04.575Z</time>
      </trkpt>
      <trkpt lat="46.9497" lon="7.25345">
        <ele>587.9</ele>
        <time>2020-05-07T08:54:17.723Z</time>
      </trkpt>
      <trkpt lat="46.94982" lon="7.25354">
        <ele>588</ele>
        <time>2020-05-07T08:54:32.241Z</time>
      </trkpt>
      <trkpt lat="46.94991" lon="7.25358">
        <ele>588.1</ele>
        <time>2020-05-07T08:54:42.700Z</time>
      </trkpt>
      <trkpt lat="46.95" lon="7.25359">
        <ele>585.3</ele>
        <time>2020-05-07T08:54:44.732Z</time>
      </trkpt>
      <trkpt lat="46.9501" lon="7.25357">
        <ele>585.1</ele>
        <time>2020-05-07T08:54:47.960Z</time>
      </trkpt>
      <trkpt lat="46.95035" lon="7.25333">
        <ele>585.6</ele>
        <time>2020-05-07T08:55:23.391Z</time>
      </trkpt>
      <trkpt lat="46.95051" lon="7.25317">
        <ele>583.5</ele>
        <time>2020-05-07T08:55:27.752Z</time>
      </trkpt>
      <trkpt lat="46.95065" lon="7.25304">
        <ele>582.3</ele>
        <time>2020-05-07T08:55:31.484Z</time>
      </trkpt>
      <trkpt lat="46.95079" lon="7.25292">
        <ele>581.6</ele>
        <time>2020-05-07T08:55:35.555Z</time>
      </trkpt>
      <trkpt lat="46.95091" lon="7.25284">
        <ele>573.5</ele>
        <time>2020-05-07T08:55:38.523Z</time>
      </trkpt>
      <trkpt lat="46.95092" lon="7.25283">
        <ele>573.5</ele>
        <time>2020-05-07T08:55:39.738Z</time>
      </trkpt>
      <trkpt lat="46.95092" lon="7.25283">
        <ele>573.5</ele>
        <time>2020-05-07T08:55:39.738Z</time>
      </trkpt>
      <trkpt lat="46.95103" lon="7.25276">
        <ele>573.3</ele>
        <time>2020-05-07T08:55:43.720Z</time>
      </trkpt>
      <trkpt lat="46.95118" lon="7.25267">
        <ele>572.8</ele>
        <time>2020-05-07T08:55:48.309Z</time>
      </trkpt>
      <trkpt lat="46.9517" lon="7.25241">
        <ele>569.1</ele>
        <time>2020-05-07T08:56:00.679Z</time>
      </trkpt>
      <trkpt lat="46.95181" lon="7.25236">
        <ele>568.5</ele>
        <time>2020-05-07T08:56:03.349Z</time>
      </trkpt>
      <trkpt lat="46.95192" lon="7.25233">
        <ele>567.9</ele>
        <time>2020-05-07T08:56:05.910Z</time>
      </trkpt>
      <trkpt lat="46.95201" lon="7.25232">
        <ele>567.4</ele>
        <time>2020-05-07T08:56:07.945Z</time>
      </trkpt>
      <trkpt lat="46.95215" lon="7.25233">
        <ele>566.7</ele>
        <time>2020-05-07T08:56:11.256Z</time>
      </trkpt>
      <trkpt lat="46.95222" lon="7.25235">
        <ele>566.3</ele>
        <time>2020-05-07T08:56:12.855Z</time>
      </trkpt>
      <trkpt lat="46.95234" lon="7.25239">
        <ele>565.3</ele>
        <time>2020-05-07T08:56:15.625Z</time>
      </trkpt>
      <trkpt lat="46.9524" lon="7.25242">
        <ele>564.7</ele>
        <time>2020-05-07T08:56:17.053Z</time>
      </trkpt>
      <trkpt lat="46.95246" lon="7.25245">
        <ele>564</ele>
        <time>2020-05-07T08:56:18.480Z</time>
      </trkpt>
      <trkpt lat="46.95248" lon="7.25248">
        <ele>563.5</ele>
        <time>2020-05-07T08:56:19.124Z</time>
      </trkpt>
      <trkpt lat="46.95253" lon="7.25255">
        <ele>562.2</ele>
        <time>2020-05-07T08:56:20.681Z</time>
      </trkpt>
      <trkpt lat="46.95258" lon="7.25266">
        <ele>561.1</ele>
        <time>2020-05-07T08:56:22.712Z</time>
      </trkpt>
      <trkpt lat="46.95271" lon="7.25301">
        <ele>560</ele>
        <time>2020-05-07T08:56:29.713Z</time>
      </trkpt>
      <trkpt lat="46.95271" lon="7.253">
        <ele>560</ele>
        <time>2020-05-07T08:56:30.399Z</time>
      </trkpt>
      <trkpt lat="46.95274" lon="7.2531">
        <ele>559.9</ele>
        <time>2020-05-07T08:56:32.977Z</time>
      </trkpt>
      <trkpt lat="46.95279" lon="7.25326">
        <ele>559.8</ele>
        <time>2020-05-07T08:56:37.418Z</time>
      </trkpt>
      <trkpt lat="46.95284" lon="7.25339">
        <ele>558.5</ele>
        <time>2020-05-07T08:56:39.711Z</time>
      </trkpt>
      <trkpt lat="46.95289" lon="7.25349">
        <ele>558</ele>
        <time>2020-05-07T08:56:41.563Z</time>
      </trkpt>
      <trkpt lat="46.95302" lon="7.25374">
        <ele>557</ele>
        <time>2020-05-07T08:56:46.780Z</time>
      </trkpt>
      <trkpt lat="46.95306" lon="7.25382">
        <ele>556.6</ele>
        <time>2020-05-07T08:56:48.261Z</time>
      </trkpt>
      <trkpt lat="46.95315" lon="7.25398">
        <ele>555.6</ele>
        <time>2020-05-07T08:56:51.447Z</time>
      </trkpt>
      <trkpt lat="46.95325" lon="7.25415">
        <ele>553.6</ele>
        <time>2020-05-07T08:56:54.896Z</time>
      </trkpt>
      <trkpt lat="46.95331" lon="7.25427">
        <ele>553.7</ele>
        <time>2020-05-07T08:57:06.098Z</time>
      </trkpt>
      <trkpt lat="46.95345" lon="7.25452">
        <ele>550.9</ele>
        <time>2020-05-07T08:57:11.067Z</time>
      </trkpt>
      <trkpt lat="46.95354" lon="7.25469">
        <ele>550.9</ele>
        <time>2020-05-07T08:57:25.807Z</time>
      </trkpt>
      <trkpt lat="46.95379" lon="7.25515">
        <ele>551</ele>
        <time>2020-05-07T08:58:07.035Z</time>
      </trkpt>
      <trkpt lat="46.95396" lon="7.25546">
        <ele>550.8</ele>
        <time>2020-05-07T08:58:17.203Z</time>
      </trkpt>
      <trkpt lat="46.95407" lon="7.25568">
        <ele>550.3</ele>
        <time>2020-05-07T08:58:22.701Z</time>
      </trkpt>
      <trkpt lat="46.95415" lon="7.25585">
        <ele>549.3</ele>
        <time>2020-05-07T08:58:25.874Z</time>
      </trkpt>
      <trkpt lat="46.95423" lon="7.25605">
        <ele>548.8</ele>
        <time>2020-05-07T08:58:30.319Z</time>
      </trkpt>
      <trkpt lat="46.9543" lon="7.25625">
        <ele>548.8</ele>
        <time>2020-05-07T08:58:45.718Z</time>
      </trkpt>
      <trkpt lat="46.95434" lon="7.25641">
        <ele>548.9</ele>
        <time>2020-05-07T08:58:58.390Z</time>
      </trkpt>
      <trkpt lat="46.95438" lon="7.25658">
        <ele>549.1</ele>
        <time>2020-05-07T08:59:12.872Z</time>
      </trkpt>
      <trkpt lat="46.95441" lon="7.25671">
        <ele>548.7</ele>
        <time>2020-05-07T08:59:15.232Z</time>
      </trkpt>
      <trkpt lat="46.95444" lon="7.2569">
        <ele>548.4</ele>
        <time>2020-05-07T08:59:19.358Z</time>
      </trkpt>
      <trkpt lat="46.95451" lon="7.25731">
        <ele>547.8</ele>
        <time>2020-05-07T08:59:28.478Z</time>
      </trkpt>
      <trkpt lat="46.95459" lon="7.25737">
        <ele>547.7</ele>
        <time>2020-05-07T08:59:31.679Z</time>
      </trkpt>
      <trkpt lat="46.95468" lon="7.25747">
        <ele>547.6</ele>
        <time>2020-05-07T08:59:35.826Z</time>
      </trkpt>
      <trkpt lat="46.95478" lon="7.25758">
        <ele>546.3</ele>
        <time>2020-05-07T08:59:38.641Z</time>
      </trkpt>
      <trkpt lat="46.95491" lon="7.25773">
        <ele>546.1</ele>
        <time>2020-05-07T08:59:44.462Z</time>
      </trkpt>
      <trkpt lat="46.95504" lon="7.25789">
        <ele>546</ele>
        <time>2020-05-07T09:00:00.093Z</time>
      </trkpt>
      <trkpt lat="46.95516" lon="7.25805">
        <ele>545.7</ele>
        <time>2020-05-07T09:00:05.365Z</time>
      </trkpt>
      <trkpt lat="46.95539" lon="7.25837">
        <ele>545.1</ele>
        <time>2020-05-07T09:00:15.617Z</time>
      </trkpt>
      <trkpt lat="46.95544" lon="7.25845">
        <ele>545.2</ele>
        <time>2020-05-07T09:00:24.098Z</time>
      </trkpt>
      <trkpt lat="46.95536" lon="7.25857">
        <ele>545</ele>
        <time>2020-05-07T09:00:27.863Z</time>
      </trkpt>
      <trkpt lat="46.95526" lon="7.25872">
        <ele>544.7</ele>
        <time>2020-05-07T09:00:32.379Z</time>
      </trkpt>
      <trkpt lat="46.9551" lon="7.25896">
        <ele>544.2</ele>
        <time>2020-05-07T09:00:39.533Z</time>
      </trkpt>
      <trkpt lat="46.9551" lon="7.25897">
        <ele>544.1</ele>
        <time>2020-05-07T09:00:39.686Z</time>
      </trkpt>
      <trkpt lat="46.9551" lon="7.25897">
        <ele>544.1</ele>
        <time>2020-05-07T09:00:39.686Z</time>
      </trkpt>
      <trkpt lat="46.95494" lon="7.25921">
        <ele>544.1</ele>
        <time>2020-05-07T09:01:02.671Z</time>
      </trkpt>
      <trkpt lat="46.95477" lon="7.25947">
        <ele>546.4</ele>
        <time>2020-05-07T09:02:03.048Z</time>
      </trkpt>
      <trkpt lat="46.95465" lon="7.25965">
        <ele>547.3</ele>
        <time>2020-05-07T09:02:33.673Z</time>
      </trkpt>
      <trkpt lat="46.95458" lon="7.25977">
        <ele>547.8</ele>
        <time>2020-05-07T09:02:52.149Z</time>
      </trkpt>
      <trkpt lat="46.95448" lon="7.25996">
        <ele>548.9</ele>
        <time>2020-05-07T09:03:24.535Z</time>
      </trkpt>
      <trkpt lat="46.95431" lon="7.26032">
        <ele>554</ele>
        <time>2020-05-07T09:05:20.219Z</time>
      </trkpt>
      <trkpt lat="46.95428" lon="7.26039">
        <ele>554.4</ele>
        <time>2020-05-07T09:05:31.692Z</time>
      </trkpt>
      <trkpt lat="46.95424" lon="7.26047">
        <ele>555.1</ele>
        <time>2020-05-07T09:05:49.969Z</time>
      </trkpt>
      <trkpt lat="46.95421" lon="7.26052">
        <ele>555.6</ele>
        <time>2020-05-07T09:06:03.116Z</time>
      </trkpt>
      <trkpt lat="46.95417" lon="7.26057">
        <ele>556.2</ele>
        <time>2020-05-07T09:06:19.029Z</time>
      </trkpt>
      <trkpt lat="46.9541" lon="7.26066">
        <ele>560.4</ele>
        <time>2020-05-07T09:06:55.086Z</time>
      </trkpt>
      <trkpt lat="46.95415" lon="7.26074">
        <ele>560.7</ele>
        <time>2020-05-07T09:07:06.904Z</time>
      </trkpt>
      <trkpt lat="46.95419" lon="7.26081">
        <ele>560</ele>
        <time>2020-05-07T09:07:08.307Z</time>
      </trkpt>
      <trkpt lat="46.95424" lon="7.26091">
        <ele>560.6</ele>
        <time>2020-05-07T09:07:25.515Z</time>
      </trkpt>
      <trkpt lat="46.95434" lon="7.26111">
        <ele>560.6</ele>
        <time>2020-05-07T09:07:42.501Z</time>
      </trkpt>
      <trkpt lat="46.95437" lon="7.2612">
        <ele>560.8</ele>
        <time>2020-05-07T09:07:51.875Z</time>
      </trkpt>
      <trkpt lat="46.95446" lon="7.26143">
        <ele>561.4</ele>
        <time>2020-05-07T09:08:17.962Z</time>
      </trkpt>
      <trkpt lat="46.95452" lon="7.26157">
        <ele>561.4</ele>
        <time>2020-05-07T09:08:29.288Z</time>
      </trkpt>
      <trkpt lat="46.95459" lon="7.26176">
        <ele>562.6</ele>
        <time>2020-05-07T09:09:01.861Z</time>
      </trkpt>
      <trkpt lat="46.95454" lon="7.26179">
        <ele>563.1</ele>
        <time>2020-05-07T09:09:15.008Z</time>
      </trkpt>
      <trkpt lat="46.95451" lon="7.26182">
        <ele>563.4</ele>
        <time>2020-05-07T09:09:23.115Z</time>
      </trkpt>
      <trkpt lat="46.95449" lon="7.26184">
        <ele>563.6</ele>
        <time>2020-05-07T09:09:28.519Z</time>
      </trkpt>
      <trkpt lat="46.95448" lon="7.26186">
        <ele>563.7</ele>
        <time>2020-05-07T09:09:31.677Z</time>
      </trkpt>
      <trkpt lat="46.95446" lon="7.26189">
        <ele>563.8</ele>
        <time>2020-05-07T09:09:35.902Z</time>
      </trkpt>
      <trkpt lat="46.95444" lon="7.26198">
        <ele>563.9</ele>
        <time>2020-05-07T09:09:43.458Z</time>
      </trkpt>
      <trkpt lat="46.95446" lon="7.26205">
        <ele>563.7</ele>
        <time>2020-05-07T09:09:44.815Z</time>
      </trkpt>
      <trkpt lat="46.95437" lon="7.2621">
        <ele>564.4</ele>
        <time>2020-05-07T09:10:04.664Z</time>
      </trkpt>
      <trkpt lat="46.95424" lon="7.26217">
        <ele>565.3</ele>
        <time>2020-05-07T09:10:31.619Z</time>
      </trkpt>
      <trkpt lat="46.95419" lon="7.2622">
        <ele>565.6</ele>
        <time>2020-05-07T09:10:41.458Z</time>
      </trkpt>
      <trkpt lat="46.95415" lon="7.26224">
        <ele>573.9</ele>
        <time>2020-05-07T09:11:00.208Z</time>
      </trkpt>
      <trkpt lat="46.95409" lon="7.26226">
        <ele>574.1</ele>
        <time>2020-05-07T09:11:09.003Z</time>
      </trkpt>
      <trkpt lat="46.95402" lon="7.26223">
        <ele>574.7</ele>
        <time>2020-05-07T09:11:25.235Z</time>
      </trkpt>
      <trkpt lat="46.95394" lon="7.26221">
        <ele>575.4</ele>
        <time>2020-05-07T09:11:43.917Z</time>
      </trkpt>
      <trkpt lat="46.95388" lon="7.26218">
        <ele>575.9</ele>
        <time>2020-05-07T09:11:57.639Z</time>
      </trkpt>
      <trkpt lat="46.95387" lon="7.26218">
        <ele>576</ele>
        <time>2020-05-07T09:12:00.250Z</time>
      </trkpt>
      <trkpt lat="46.95385" lon="7.26218">
        <ele>576.2</ele>
        <time>2020-05-07T09:12:05.470Z</time>
      </trkpt>
      <trkpt lat="46.9538" lon="7.26219">
        <ele>576.7</ele>
        <time>2020-05-07T09:12:18.526Z</time>
      </trkpt>
      <trkpt lat="46.95378" lon="7.26218">
        <ele>576.9</ele>
        <time>2020-05-07T09:12:23.768Z</time>
      </trkpt>
      <trkpt lat="46.95374" lon="7.26217">
        <ele>577.3</ele>
        <time>2020-05-07T09:12:34.215Z</time>
      </trkpt>
      <trkpt lat="46.95371" lon="7.26217">
        <ele>577.5</ele>
        <time>2020-05-07T09:12:40.126Z</time>
      </trkpt>
      <trkpt lat="46.95368" lon="7.26218">
        <ele>577.9</ele>
        <time>2020-05-07T09:12:51.476Z</time>
      </trkpt>
      <trkpt lat="46.95365" lon="7.26218">
        <ele>578.2</ele>
        <time>2020-05-07T09:12:59.306Z</time>
      </trkpt>
      <trkpt lat="46.95364" lon="7.26218">
        <ele>578.3</ele>
        <time>2020-05-07T09:13:01.917Z</time>
      </trkpt>
      <trkpt lat="46.95362" lon="7.26218">
        <ele>578.4</ele>
        <time>2020-05-07T09:13:05.427Z</time>
      </trkpt>
      <trkpt lat="46.95359" lon="7.26217">
        <ele>578.7</ele>
        <time>2020-05-07T09:13:13.267Z</time>
      </trkpt>
      <trkpt lat="46.95356" lon="7.26216">
        <ele>578.9</ele>
        <time>2020-05-07T09:13:19.256Z</time>
      </trkpt>
      <trkpt lat="46.95351" lon="7.26214">
        <ele>579.2</ele>
        <time>2020-05-07T09:13:28.848Z</time>
      </trkpt>
      <trkpt lat="46.95348" lon="7.26213">
        <ele>579.4</ele>
        <time>2020-05-07T09:13:34.837Z</time>
      </trkpt>
      <trkpt lat="46.95348" lon="7.26218">
        <ele>579.7</ele>
        <time>2020-05-07T09:13:42.806Z</time>
      </trkpt>
      <trkpt lat="46.95346" lon="7.26225">
        <ele>580.4</ele>
        <time>2020-05-07T09:14:02.860Z</time>
      </trkpt>
      <trkpt lat="46.95345" lon="7.26232">
        <ele>581.3</ele>
        <time>2020-05-07T09:14:21.760Z</time>
      </trkpt>
      <trkpt lat="46.95342" lon="7.26239">
        <ele>582.7</ele>
        <time>2020-05-07T09:14:43.604Z</time>
      </trkpt>
      <trkpt lat="46.95336" lon="7.26252">
        <ele>586</ele>
        <time>2020-05-07T09:15:25.076Z</time>
      </trkpt>
      <trkpt lat="46.95329" lon="7.26266">
        <ele>589.6</ele>
        <time>2020-05-07T09:16:10.938Z</time>
      </trkpt>
      <trkpt lat="46.95323" lon="7.26281">
        <ele>590.9</ele>
        <time>2020-05-07T09:16:45.091Z</time>
      </trkpt>
      <trkpt lat="46.95323" lon="7.26281">
        <ele>590.9</ele>
        <time>2020-05-07T09:16:45.091Z</time>
      </trkpt>
      <trkpt lat="46.9532" lon="7.26288">
        <ele>591.3</ele>
        <time>2020-05-07T09:16:56.564Z</time>
      </trkpt>
      <trkpt lat="46.95315" lon="7.26301">
        <ele>591.9</ele>
        <time>2020-05-07T09:17:15.549Z</time>
      </trkpt>
      <trkpt lat="46.95314" lon="7.26304">
        <ele>591.9</ele>
        <time>2020-05-07T09:17:17.836Z</time>
      </trkpt>
      <trkpt lat="46.95311" lon="7.26311">
        <ele>592.1</ele>
        <time>2020-05-07T09:17:26.222Z</time>
      </trkpt>
      <trkpt lat="46.95308" lon="7.26318">
        <ele>592.3</ele>
        <time>2020-05-07T09:17:34.608Z</time>
      </trkpt>
      <trkpt lat="46.95304" lon="7.26328">
        <ele>592.7</ele>
        <time>2020-05-07T09:17:48.545Z</time>
      </trkpt>
      <trkpt lat="46.95298" lon="7.26338">
        <ele>596</ele>
        <time>2020-05-07T09:18:23.731Z</time>
      </trkpt>
      <trkpt lat="46.9529" lon="7.26353">
        <ele>597</ele>
        <time>2020-05-07T09:18:51.429Z</time>
      </trkpt>
      <trkpt lat="46.95271" lon="7.26387">
        <ele>598.9</ele>
        <time>2020-05-07T09:19:49.117Z</time>
      </trkpt>
      <trkpt lat="46.95269" lon="7.2639">
        <ele>599.1</ele>
        <time>2020-05-07T09:19:54.893Z</time>
      </trkpt>
      <trkpt lat="46.9526" lon="7.26406">
        <ele>601</ele>
        <time>2020-05-07T09:20:49.684Z</time>
      </trkpt>
      <trkpt lat="46.95253" lon="7.26418">
        <ele>603.7</ele>
        <time>2020-05-07T09:21:31.400Z</time>
      </trkpt>
      <trkpt lat="46.95243" lon="7.26436">
        <ele>609</ele>
        <time>2020-05-07T09:22:32.734Z</time>
      </trkpt>
      <trkpt lat="46.9524" lon="7.26444">
        <ele>610.1</ele>
        <time>2020-05-07T09:22:56.857Z</time>
      </trkpt>
      <trkpt lat="46.95236" lon="7.26451">
        <ele>610.9</ele>
        <time>2020-05-07T09:23:19.340Z</time>
      </trkpt>
      <trkpt lat="46.95235" lon="7.26456">
        <ele>611.2</ele>
        <time>2020-05-07T09:23:27.395Z</time>
      </trkpt>
      <trkpt lat="46.95233" lon="7.2646">
        <ele>611.5</ele>
        <time>2020-05-07T09:23:35.349Z</time>
      </trkpt>
      <trkpt lat="46.95232" lon="7.26466">
        <ele>611.7</ele>
        <time>2020-05-07T09:23:42.627Z</time>
      </trkpt>
      <trkpt lat="46.95231" lon="7.26475">
        <ele>611.9</ele>
        <time>2020-05-07T09:23:51.480Z</time>
      </trkpt>
      <trkpt lat="46.95229" lon="7.26505">
        <ele>614.6</ele>
        <time>2020-05-07T09:25:08.674Z</time>
      </trkpt>
      <trkpt lat="46.95227" lon="7.26551">
        <ele>617.4</ele>
        <time>2020-05-07T09:26:22.846Z</time>
      </trkpt>
      <trkpt lat="46.95225" lon="7.2657">
        <ele>617.7</ele>
        <time>2020-05-07T09:26:39.507Z</time>
      </trkpt>
      <trkpt lat="46.95222" lon="7.26589">
        <ele>620.4</ele>
        <time>2020-05-07T09:27:31.046Z</time>
      </trkpt>
      <trkpt lat="46.95217" lon="7.26608">
        <ele>621.5</ele>
        <time>2020-05-07T09:28:01.198Z</time>
      </trkpt>
      <trkpt lat="46.9521" lon="7.26625">
        <ele>622.4</ele>
        <time>2020-05-07T09:28:27.849Z</time>
      </trkpt>
      <trkpt lat="46.95207" lon="7.26631">
        <ele>622.7</ele>
        <time>2020-05-07T09:28:37.324Z</time>
      </trkpt>
      <trkpt lat="46.95207" lon="7.26638">
        <ele>622.8</ele>
        <time>2020-05-07T09:28:43.258Z</time>
      </trkpt>
      <trkpt lat="46.95204" lon="7.26644">
        <ele>623.2</ele>
        <time>2020-05-07T09:28:54.240Z</time>
      </trkpt>
      <trkpt lat="46.952" lon="7.26651">
        <ele>623.6</ele>
        <time>2020-05-07T09:29:06.298Z</time>
      </trkpt>
      <trkpt lat="46.95193" lon="7.26659">
        <ele>624.5</ele>
        <time>2020-05-07T09:29:29.787Z</time>
      </trkpt>
      <trkpt lat="46.95186" lon="7.26667">
        <ele>626.3</ele>
        <time>2020-05-07T09:30:04.159Z</time>
      </trkpt>
      <trkpt lat="46.95164" lon="7.2669">
        <ele>631.5</ele>
        <time>2020-05-07T09:31:48.800Z</time>
      </trkpt>
      <trkpt lat="46.95153" lon="7.26702">
        <ele>632.1</ele>
        <time>2020-05-07T09:32:11.772Z</time>
      </trkpt>
      <trkpt lat="46.95143" lon="7.26715">
        <ele>632.5</ele>
        <time>2020-05-07T09:32:30.257Z</time>
      </trkpt>
      <trkpt lat="46.95123" lon="7.26737">
        <ele>633.5</ele>
        <time>2020-05-07T09:33:09.869Z</time>
      </trkpt>
      <trkpt lat="46.95095" lon="7.26773">
        <ele>634.9</ele>
        <time>2020-05-07T09:34:06.891Z</time>
      </trkpt>
      <trkpt lat="46.95085" lon="7.26784">
        <ele>635</ele>
        <time>2020-05-07T09:34:20.436Z</time>
      </trkpt>
      <trkpt lat="46.95078" lon="7.2679">
        <ele>637.3</ele>
        <time>2020-05-07T09:34:51.835Z</time>
      </trkpt>
      <trkpt lat="46.95074" lon="7.26792">
        <ele>637.3</ele>
        <time>2020-05-07T09:34:56.078Z</time>
      </trkpt>
      <trkpt lat="46.95069" lon="7.26794">
        <ele>637.3</ele>
        <time>2020-05-07T09:35:01.280Z</time>
      </trkpt>
      <trkpt lat="46.95065" lon="7.26794">
        <ele>637.3</ele>
        <time>2020-05-07T09:35:05.295Z</time>
      </trkpt>
      <trkpt lat="46.95061" lon="7.26793">
        <ele>637.3</ele>
        <time>2020-05-07T09:35:09.368Z</time>
      </trkpt>
      <trkpt lat="46.95054" lon="7.26798">
        <ele>637.3</ele>
        <time>2020-05-07T09:35:17.185Z</time>
      </trkpt>
      <trkpt lat="46.95048" lon="7.26805">
        <ele>637.3</ele>
        <time>2020-05-07T09:35:24.884Z</time>
      </trkpt>
      <trkpt lat="46.95039" lon="7.26817">
        <ele>637.1</ele>
        <time>2020-05-07T09:35:28.937Z</time>
      </trkpt>
      <trkpt lat="46.95031" lon="7.26827">
        <ele>637</ele>
        <time>2020-05-07T09:35:32.764Z</time>
      </trkpt>
      <trkpt lat="46.95026" lon="7.26837">
        <ele>637.5</ele>
        <time>2020-05-07T09:35:48.556Z</time>
      </trkpt>
      <trkpt lat="46.95024" lon="7.26841">
        <ele>637.5</ele>
        <time>2020-05-07T09:35:51.953Z</time>
      </trkpt>
      <trkpt lat="46.95022" lon="7.26849">
        <ele>637.6</ele>
        <time>2020-05-07T09:35:58.882Z</time>
      </trkpt>
      <trkpt lat="46.95016" lon="7.26868">
        <ele>637.9</ele>
        <time>2020-05-07T09:36:16.641Z</time>
      </trkpt>
      <trkpt lat="46.95007" lon="7.2689">
        <ele>638.2</ele>
        <time>2020-05-07T09:36:37.487Z</time>
      </trkpt>
      <trkpt lat="46.95005" lon="7.26901">
        <ele>638.2</ele>
        <time>2020-05-07T09:36:45.287Z</time>
      </trkpt>
      <trkpt lat="46.95008" lon="7.26913">
        <ele>638.2</ele>
        <time>2020-05-07T09:36:54.043Z</time>
      </trkpt>
      <trkpt lat="46.95013" lon="7.26925">
        <ele>639.3</ele>
        <time>2020-05-07T09:37:23.255Z</time>
      </trkpt>
      <trkpt lat="46.95023" lon="7.26935">
        <ele>639.9</ele>
        <time>2020-05-07T09:37:44.444Z</time>
      </trkpt>
      <trkpt lat="46.95035" lon="7.26943">
        <ele>640.4</ele>
        <time>2020-05-07T09:38:04.722Z</time>
      </trkpt>
      <trkpt lat="46.95048" lon="7.26951">
        <ele>640.9</ele>
        <time>2020-05-07T09:38:25.684Z</time>
      </trkpt>
      <trkpt lat="46.95081" lon="7.26964">
        <ele>641.7</ele>
        <time>2020-05-07T09:39:09.347Z</time>
      </trkpt>
      <trkpt lat="46.95118" lon="7.26975">
        <ele>641.5</ele>
        <time>2020-05-07T09:39:44.398Z</time>
      </trkpt>
      <trkpt lat="46.95126" lon="7.26978">
        <ele>641.3</ele>
        <time>2020-05-07T09:39:46.909Z</time>
      </trkpt>
      <trkpt lat="46.95132" lon="7.26983">
        <ele>641.2</ele>
        <time>2020-05-07T09:39:49.264Z</time>
      </trkpt>
      <trkpt lat="46.95138" lon="7.2699">
        <ele>641.2</ele>
        <time>2020-05-07T09:39:56.963Z</time>
      </trkpt>
      <trkpt lat="46.95142" lon="7.26998">
        <ele>641.2</ele>
        <time>2020-05-07T09:40:03.758Z</time>
      </trkpt>
      <trkpt lat="46.95153" lon="7.27011">
        <ele>642.3</ele>
        <time>2020-05-07T09:40:34.095Z</time>
      </trkpt>
      <trkpt lat="46.95157" lon="7.27016">
        <ele>642.4</ele>
        <time>2020-05-07T09:40:40.487Z</time>
      </trkpt>
      <trkpt lat="46.95161" lon="7.27023">
        <ele>642.6</ele>
        <time>2020-05-07T09:40:49.346Z</time>
      </trkpt>
      <trkpt lat="46.95166" lon="7.27034">
        <ele>642.9</ele>
        <time>2020-05-07T09:41:02.368Z</time>
      </trkpt>
      <trkpt lat="46.95173" lon="7.2705">
        <ele>640.8</ele>
        <time>2020-05-07T09:41:05.288Z</time>
      </trkpt>
      <trkpt lat="46.95182" lon="7.27077">
        <ele>641.8</ele>
        <time>2020-05-07T09:41:40.995Z</time>
      </trkpt>
      <trkpt lat="46.95186" lon="7.27089">
        <ele>642.9</ele>
        <time>2020-05-07T09:42:10.791Z</time>
      </trkpt>
      <trkpt lat="46.95186" lon="7.27088">
        <ele>642.9</ele>
        <time>2020-05-07T09:42:11.477Z</time>
      </trkpt>
      <trkpt lat="46.952" lon="7.27132">
        <ele>642.6</ele>
        <time>2020-05-07T09:42:23.609Z</time>
      </trkpt>
      <trkpt lat="46.95206" lon="7.2715">
        <ele>642.7</ele>
        <time>2020-05-07T09:42:38.319Z</time>
      </trkpt>
      <trkpt lat="46.95208" lon="7.27154">
        <ele>642.6</ele>
        <time>2020-05-07T09:42:39.291Z</time>
      </trkpt>
      <trkpt lat="46.95214" lon="7.27162">
        <ele>642.5</ele>
        <time>2020-05-07T09:42:42.136Z</time>
      </trkpt>
      <trkpt lat="46.95221" lon="7.27169">
        <ele>644.5</ele>
        <time>2020-05-07T09:43:14.949Z</time>
      </trkpt>
      <trkpt lat="46.95225" lon="7.27175">
        <ele>644.3</ele>
        <time>2020-05-07T09:43:16.503Z</time>
      </trkpt>
      <trkpt lat="46.95231" lon="7.27183">
        <ele>644.2</ele>
        <time>2020-05-07T09:43:19.349Z</time>
      </trkpt>
      <trkpt lat="46.95236" lon="7.27192">
        <ele>644.4</ele>
        <time>2020-05-07T09:43:29.691Z</time>
      </trkpt>
      <trkpt lat="46.95241" lon="7.27203">
        <ele>644.8</ele>
        <time>2020-05-07T09:43:44.939Z</time>
      </trkpt>
      <trkpt lat="46.95252" lon="7.27229">
        <ele>641.7</ele>
        <time>2020-05-07T09:43:49.640Z</time>
      </trkpt>
      <trkpt lat="46.95259" lon="7.27245">
        <ele>642.6</ele>
        <time>2020-05-07T09:44:15.719Z</time>
      </trkpt>
      <trkpt lat="46.95266" lon="7.27263">
        <ele>643.1</ele>
        <time>2020-05-07T09:44:36.712Z</time>
      </trkpt>
      <trkpt lat="46.95273" lon="7.27282">
        <ele>642.9</ele>
        <time>2020-05-07T09:44:41.799Z</time>
      </trkpt>
      <trkpt lat="46.95276" lon="7.27296">
        <ele>643</ele>
        <time>2020-05-07T09:44:52.865Z</time>
      </trkpt>
      <trkpt lat="46.9528" lon="7.27309">
        <ele>643.1</ele>
        <time>2020-05-07T09:45:03.650Z</time>
      </trkpt>
      <trkpt lat="46.95284" lon="7.27331">
        <ele>643.2</ele>
        <time>2020-05-07T09:45:20.226Z</time>
      </trkpt>
      <trkpt lat="46.95285" lon="7.27343">
        <ele>644.6</ele>
        <time>2020-05-07T09:45:52.175Z</time>
      </trkpt>
      <trkpt lat="46.95287" lon="7.27364">
        <ele>644.8</ele>
        <time>2020-05-07T09:46:08.808Z</time>
      </trkpt>
      <trkpt lat="46.95296" lon="7.27474">
        <ele>647.5</ele>
        <time>2020-05-07T09:48:01.602Z</time>
      </trkpt>
      <trkpt lat="46.95298" lon="7.27497">
        <ele>647.5</ele>
        <time>2020-05-07T09:48:17.488Z</time>
      </trkpt>
      <trkpt lat="46.95303" lon="7.27552">
        <ele>651.4</ele>
        <time>2020-05-07T09:49:59.299Z</time>
      </trkpt>
      <trkpt lat="46.95307" lon="7.27613">
        <ele>656.5</ele>
        <time>2020-05-07T09:52:18.146Z</time>
      </trkpt>
      <trkpt lat="46.95309" lon="7.27632">
        <ele>657.3</ele>
        <time>2020-05-07T09:52:42.960Z</time>
      </trkpt>
      <trkpt lat="46.9531" lon="7.27642">
        <ele>657.4</ele>
        <time>2020-05-07T09:52:50.945Z</time>
      </trkpt>
      <trkpt lat="46.95312" lon="7.27658">
        <ele>657</ele>
        <time>2020-05-07T09:52:53.928Z</time>
      </trkpt>
      <trkpt lat="46.95315" lon="7.27676">
        <ele>660.1</ele>
        <time>2020-05-07T09:53:42.895Z</time>
      </trkpt>
      <trkpt lat="46.95315" lon="7.27675">
        <ele>660</ele>
        <time>2020-05-07T09:53:43.048Z</time>
      </trkpt>
      <trkpt lat="46.95328" lon="7.27745">
        <ele>659.9</ele>
        <time>2020-05-07T09:54:31.261Z</time>
      </trkpt>
      <trkpt lat="46.9533" lon="7.27757">
        <ele>661.7</ele>
        <time>2020-05-07T09:55:03.905Z</time>
      </trkpt>
      <trkpt lat="46.95335" lon="7.2778">
        <ele>656.7</ele>
        <time>2020-05-07T09:55:07.615Z</time>
      </trkpt>
      <trkpt lat="46.95345" lon="7.2784">
        <ele>663.2</ele>
        <time>2020-05-07T09:57:50.837Z</time>
      </trkpt>
      <trkpt lat="46.95351" lon="7.27876">
        <ele>662.6</ele>
        <time>2020-05-07T09:57:58.572Z</time>
      </trkpt>
      <trkpt lat="46.95356" lon="7.279">
        <ele>663.5</ele>
        <time>2020-05-07T09:58:29.144Z</time>
      </trkpt>
      <trkpt lat="46.9536" lon="7.27922">
        <ele>665.3</ele>
        <time>2020-05-07T09:59:17.105Z</time>
      </trkpt>
      <trkpt lat="46.95363" lon="7.27937">
        <ele>664.8</ele>
        <time>2020-05-07T09:59:19.694Z</time>
      </trkpt>
      <trkpt lat="46.95372" lon="7.27995">
        <ele>664.6</ele>
        <time>2020-05-07T09:59:57.586Z</time>
      </trkpt>
      <trkpt lat="46.95375" lon="7.28022">
        <ele>666.2</ele>
        <time>2020-05-07T10:00:40.361Z</time>
      </trkpt>
      <trkpt lat="46.9538" lon="7.28055">
        <ele>666.3</ele>
        <time>2020-05-07T10:01:04.478Z</time>
      </trkpt>
      <trkpt lat="46.95383" lon="7.28073">
        <ele>666</ele>
        <time>2020-05-07T10:01:08.346Z</time>
      </trkpt>
      <trkpt lat="46.95384" lon="7.28083">
        <ele>665.9</ele>
        <time>2020-05-07T10:01:10.699Z</time>
      </trkpt>
      <trkpt lat="46.95387" lon="7.28112">
        <ele>667.1</ele>
        <time>2020-05-07T10:01:48.286Z</time>
      </trkpt>
      <trkpt lat="46.9539" lon="7.28145">
        <ele>666.5</ele>
        <time>2020-05-07T10:01:55.031Z</time>
      </trkpt>
      <trkpt lat="46.95393" lon="7.28167">
        <ele>666.4</ele>
        <time>2020-05-07T10:02:09.004Z</time>
      </trkpt>
      <trkpt lat="46.95395" lon="7.28178">
        <ele>666.4</ele>
        <time>2020-05-07T10:02:16.803Z</time>
      </trkpt>
      <trkpt lat="46.95401" lon="7.28196">
        <ele>666.9</ele>
        <time>2020-05-07T10:02:37.440Z</time>
      </trkpt>
      <trkpt lat="46.95406" lon="7.28212">
        <ele>667</ele>
        <time>2020-05-07T10:02:50.492Z</time>
      </trkpt>
      <trkpt lat="46.95411" lon="7.28235">
        <ele>665.1</ele>
        <time>2020-05-07T10:02:54.201Z</time>
      </trkpt>
      <trkpt lat="46.95422" lon="7.28281">
        <ele>656.8</ele>
        <time>2020-05-07T10:03:01.691Z</time>
      </trkpt>
      <trkpt lat="46.95423" lon="7.28288">
        <ele>657</ele>
        <time>2020-05-07T10:03:09.535Z</time>
      </trkpt>
      <trkpt lat="46.95429" lon="7.28315">
        <ele>660.2</ele>
        <time>2020-05-07T10:04:24.573Z</time>
      </trkpt>
      <trkpt lat="46.95444" lon="7.28378">
        <ele>661.4</ele>
        <time>2020-05-07T10:05:24.831Z</time>
      </trkpt>
      <trkpt lat="46.95448" lon="7.2841">
        <ele>662.4</ele>
        <time>2020-05-07T10:06:02.576Z</time>
      </trkpt>
      <trkpt lat="46.95452" lon="7.28446">
        <ele>663.2</ele>
        <time>2020-05-07T10:06:37.989Z</time>
      </trkpt>
      <trkpt lat="46.95452" lon="7.28445">
        <ele>663.2</ele>
        <time>2020-05-07T10:06:38.674Z</time>
      </trkpt>
      <trkpt lat="46.95456" lon="7.2848">
        <ele>662.9</ele>
        <time>2020-05-07T10:06:47.162Z</time>
      </trkpt>
      <trkpt lat="46.95457" lon="7.28493">
        <ele>662.8</ele>
        <time>2020-05-07T10:06:50.340Z</time>
      </trkpt>
      <trkpt lat="46.95457" lon="7.28501">
        <ele>663.3</ele>
        <time>2020-05-07T10:07:03.511Z</time>
      </trkpt>
      <trkpt lat="46.95457" lon="7.28522">
        <ele>663.2</ele>
        <time>2020-05-07T10:07:16.509Z</time>
      </trkpt>
      <trkpt lat="46.95456" lon="7.2853">
        <ele>663.3</ele>
        <time>2020-05-07T10:07:23.182Z</time>
      </trkpt>
      <trkpt lat="46.95452" lon="7.28555">
        <ele>663.8</ele>
        <time>2020-05-07T10:07:46.998Z</time>
      </trkpt>
      <trkpt lat="46.95448" lon="7.28584">
        <ele>663.9</ele>
        <time>2020-05-07T10:08:08.232Z</time>
      </trkpt>
      <trkpt lat="46.95446" lon="7.28593">
        <ele>664</ele>
        <time>2020-05-07T10:08:15.788Z</time>
      </trkpt>
      <trkpt lat="46.95444" lon="7.286">
        <ele>664.1</ele>
        <time>2020-05-07T10:08:22.104Z</time>
      </trkpt>
      <trkpt lat="46.95438" lon="7.28613">
        <ele>664.1</ele>
        <time>2020-05-07T10:08:32.856Z</time>
      </trkpt>
      <trkpt lat="46.95434" lon="7.28626">
        <ele>664</ele>
        <time>2020-05-07T10:08:36.362Z</time>
      </trkpt>
      <trkpt lat="46.95431" lon="7.28635">
        <ele>664.1</ele>
        <time>2020-05-07T10:08:44.286Z</time>
      </trkpt>
      <trkpt lat="46.95428" lon="7.28647">
        <ele>664.7</ele>
        <time>2020-05-07T10:09:01.745Z</time>
      </trkpt>
      <trkpt lat="46.95426" lon="7.28659">
        <ele>665.7</ele>
        <time>2020-05-07T10:09:28.626Z</time>
      </trkpt>
      <trkpt lat="46.95425" lon="7.28667">
        <ele>665.6</ele>
        <time>2020-05-07T10:09:30.440Z</time>
      </trkpt>
      <trkpt lat="46.95425" lon="7.28669">
        <ele>665.5</ele>
        <time>2020-05-07T10:09:30.747Z</time>
      </trkpt>
      <trkpt lat="46.95425" lon="7.2868">
        <ele>664.2</ele>
        <time>2020-05-07T10:09:32.438Z</time>
      </trkpt>
      <trkpt lat="46.95426" lon="7.28691">
        <ele>662.9</ele>
        <time>2020-05-07T10:09:34.143Z</time>
      </trkpt>
      <trkpt lat="46.95428" lon="7.287">
        <ele>662.2</ele>
        <time>2020-05-07T10:09:35.597Z</time>
      </trkpt>
      <trkpt lat="46.95429" lon="7.28704">
        <ele>662</ele>
        <time>2020-05-07T10:09:36.252Z</time>
      </trkpt>
      <trkpt lat="46.95431" lon="7.28725">
        <ele>661.7</ele>
        <time>2020-05-07T10:09:40.831Z</time>
      </trkpt>
      <trkpt lat="46.95433" lon="7.28766">
        <ele>660.7</ele>
        <time>2020-05-07T10:09:48.397Z</time>
      </trkpt>
      <trkpt lat="46.95435" lon="7.28785">
        <ele>659.7</ele>
        <time>2020-05-07T10:09:51.351Z</time>
      </trkpt>
      <trkpt lat="46.95436" lon="7.28804">
        <ele>659.7</ele>
        <time>2020-05-07T10:10:04.407Z</time>
      </trkpt>
      <trkpt lat="46.95439" lon="7.28829">
        <ele>660.3</ele>
        <time>2020-05-07T10:10:29.878Z</time>
      </trkpt>
      <trkpt lat="46.95441" lon="7.28844">
        <ele>659.3</ele>
        <time>2020-05-07T10:10:32.226Z</time>
      </trkpt>
      <trkpt lat="46.95431" lon="7.28852">
        <ele>660.1</ele>
        <time>2020-05-07T10:10:55.277Z</time>
      </trkpt>
      <trkpt lat="46.95426" lon="7.28856">
        <ele>660.3</ele>
        <time>2020-05-07T10:11:03.705Z</time>
      </trkpt>
      <trkpt lat="46.95422" lon="7.28864">
        <ele>660.1</ele>
        <time>2020-05-07T10:11:05.648Z</time>
      </trkpt>
      <trkpt lat="46.95415" lon="7.28878">
        <ele>673.8</ele>
        <time>2020-05-07T10:11:51.510Z</time>
      </trkpt>
      <trkpt lat="46.95412" lon="7.28887">
        <ele>673.6</ele>
        <time>2020-05-07T10:11:53.478Z</time>
      </trkpt>
      <trkpt lat="46.95409" lon="7.28894">
        <ele>673.2</ele>
        <time>2020-05-07T10:11:54.748Z</time>
      </trkpt>
      <trkpt lat="46.95402" lon="7.28914">
        <ele>671.9</ele>
        <time>2020-05-07T10:11:58.202Z</time>
      </trkpt>
      <trkpt lat="46.95398" lon="7.28928">
        <ele>672.8</ele>
        <time>2020-05-07T10:12:22.177Z</time>
      </trkpt>
      <trkpt lat="46.95396" lon="7.28937">
        <ele>673.7</ele>
        <time>2020-05-07T10:12:47.190Z</time>
      </trkpt>
      <trkpt lat="46.95392" lon="7.28959">
        <ele>674.5</ele>
        <time>2020-05-07T10:13:14.732Z</time>
      </trkpt>
      <trkpt lat="46.95391" lon="7.28972">
        <ele>674.1</ele>
        <time>2020-05-07T10:13:16.940Z</time>
      </trkpt>
      <trkpt lat="46.95387" lon="7.29018">
        <ele>671.1</ele>
        <time>2020-05-07T10:13:24.066Z</time>
      </trkpt>
      <trkpt lat="46.95384" lon="7.29078">
        <ele>669.9</ele>
        <time>2020-05-07T10:13:35.891Z</time>
      </trkpt>
      <trkpt lat="46.95381" lon="7.29109">
        <ele>667.4</ele>
        <time>2020-05-07T10:13:40.703Z</time>
      </trkpt>
      <trkpt lat="46.95379" lon="7.29117">
        <ele>667.5</ele>
        <time>2020-05-07T10:13:47.631Z</time>
      </trkpt>
      <trkpt lat="46.95372" lon="7.29138">
        <ele>667.8</ele>
        <time>2020-05-07T10:14:06.976Z</time>
      </trkpt>
      <trkpt lat="46.95368" lon="7.29152">
        <ele>668.1</ele>
        <time>2020-05-07T10:14:21.128Z</time>
      </trkpt>
      <trkpt lat="46.95368" lon="7.29186">
        <ele>665.9</ele>
        <time>2020-05-07T10:14:26.353Z</time>
      </trkpt>
      <trkpt lat="46.95367" lon="7.292">
        <ele>665.7</ele>
        <time>2020-05-07T10:14:29.390Z</time>
      </trkpt>
      <trkpt lat="46.95366" lon="7.29211">
        <ele>665.6</ele>
        <time>2020-05-07T10:14:32.017Z</time>
      </trkpt>
      <trkpt lat="46.95364" lon="7.29222">
        <ele>665.6</ele>
        <time>2020-05-07T10:14:39.816Z</time>
      </trkpt>
      <trkpt lat="46.95359" lon="7.29235">
        <ele>665.9</ele>
        <time>2020-05-07T10:14:53.817Z</time>
      </trkpt>
      <trkpt lat="46.95351" lon="7.2926">
        <ele>666.1</ele>
        <time>2020-05-07T10:15:14.771Z</time>
      </trkpt>
      <trkpt lat="46.95338" lon="7.29294">
        <ele>665.5</ele>
        <time>2020-05-07T10:15:23.013Z</time>
      </trkpt>
      <trkpt lat="46.95333" lon="7.29305">
        <ele>668.2</ele>
        <time>2020-05-07T10:15:57.939Z</time>
      </trkpt>
      <trkpt lat="46.95327" lon="7.29316">
        <ele>667.6</ele>
        <time>2020-05-07T10:15:59.987Z</time>
      </trkpt>
      <trkpt lat="46.9532" lon="7.29331">
        <ele>667.1</ele>
        <time>2020-05-07T10:16:03.183Z</time>
      </trkpt>
      <trkpt lat="46.9531" lon="7.29346">
        <ele>666</ele>
        <time>2020-05-07T10:16:06.406Z</time>
      </trkpt>
      <trkpt lat="46.95302" lon="7.29357">
        <ele>666.2</ele>
        <time>2020-05-07T10:16:19.626Z</time>
      </trkpt>
      <trkpt lat="46.95279" lon="7.2939">
        <ele>666.1</ele>
        <time>2020-05-07T10:16:50.472Z</time>
      </trkpt>
      <trkpt lat="46.95272" lon="7.29398">
        <ele>666</ele>
        <time>2020-05-07T10:16:53.628Z</time>
      </trkpt>
      <trkpt lat="46.95255" lon="7.29416">
        <ele>665.3</ele>
        <time>2020-05-07T10:16:59.415Z</time>
      </trkpt>
      <trkpt lat="46.95236" lon="7.29436">
        <ele>660.3</ele>
        <time>2020-05-07T10:17:04.682Z</time>
      </trkpt>
      <trkpt lat="46.95207" lon="7.29467">
        <ele>656.9</ele>
        <time>2020-05-07T10:17:12.764Z</time>
      </trkpt>
      <trkpt lat="46.952" lon="7.29477">
        <ele>656.1</ele>
        <time>2020-05-07T10:17:14.965Z</time>
      </trkpt>
      <trkpt lat="46.95196" lon="7.29483">
        <ele>655.4</ele>
        <time>2020-05-07T10:17:16.254Z</time>
      </trkpt>
      <trkpt lat="46.95194" lon="7.29488">
        <ele>655</ele>
        <time>2020-05-07T10:17:17.144Z</time>
      </trkpt>
      <trkpt lat="46.95192" lon="7.29493">
        <ele>654.6</ele>
        <time>2020-05-07T10:17:18.035Z</time>
      </trkpt>
      <trkpt lat="46.95189" lon="7.29501">
        <ele>651.5</ele>
        <time>2020-05-07T10:17:19.437Z</time>
      </trkpt>
      <trkpt lat="46.95186" lon="7.29521">
        <ele>651.4</ele>
        <time>2020-05-07T10:17:32.082Z</time>
      </trkpt>
      <trkpt lat="46.95184" lon="7.29533">
        <ele>651.2</ele>
        <time>2020-05-07T10:17:34.660Z</time>
      </trkpt>
      <trkpt lat="46.95183" lon="7.29549">
        <ele>650.7</ele>
        <time>2020-05-07T10:17:37.352Z</time>
      </trkpt>
      <trkpt lat="46.95181" lon="7.29568">
        <ele>649.2</ele>
        <time>2020-05-07T10:17:40.306Z</time>
      </trkpt>
      <trkpt lat="46.9518" lon="7.2958">
        <ele>648.1</ele>
        <time>2020-05-07T10:17:42.164Z</time>
      </trkpt>
      <trkpt lat="46.95178" lon="7.29592">
        <ele>645.1</ele>
        <time>2020-05-07T10:17:44.063Z</time>
      </trkpt>
      <trkpt lat="46.95177" lon="7.2961">
        <ele>644.5</ele>
        <time>2020-05-07T10:17:47.007Z</time>
      </trkpt>
      <trkpt lat="46.95177" lon="7.2962">
        <ele>644</ele>
        <time>2020-05-07T10:17:48.543Z</time>
      </trkpt>
      <trkpt lat="46.95177" lon="7.29626">
        <ele>643.6</ele>
        <time>2020-05-07T10:17:49.465Z</time>
      </trkpt>
      <trkpt lat="46.95178" lon="7.29632">
        <ele>643.2</ele>
        <time>2020-05-07T10:17:50.414Z</time>
      </trkpt>
      <trkpt lat="46.95173" lon="7.29633">
        <ele>643</ele>
        <time>2020-05-07T10:17:51.723Z</time>
      </trkpt>
      <trkpt lat="46.95166" lon="7.29636">
        <ele>643.1</ele>
        <time>2020-05-07T10:18:00.096Z</time>
      </trkpt>
      <trkpt lat="46.95163" lon="7.29639">
        <ele>642.9</ele>
        <time>2020-05-07T10:18:00.917Z</time>
      </trkpt>
      <trkpt lat="46.95158" lon="7.29642">
        <ele>642.8</ele>
        <time>2020-05-07T10:18:02.672Z</time>
      </trkpt>
      <trkpt lat="46.95153" lon="7.29646">
        <ele>642.7</ele>
        <time>2020-05-07T10:18:04.544Z</time>
      </trkpt>
      <trkpt lat="46.95148" lon="7.2965">
        <ele>642.8</ele>
        <time>2020-05-07T10:18:11.358Z</time>
      </trkpt>
      <trkpt lat="46.95142" lon="7.29656">
        <ele>643.1</ele>
        <time>2020-05-07T10:18:23.086Z</time>
      </trkpt>
      <trkpt lat="46.95136" lon="7.29663">
        <ele>643.5</ele>
        <time>2020-05-07T10:18:36.740Z</time>
      </trkpt>
      <trkpt lat="46.95132" lon="7.2967">
        <ele>641.3</ele>
        <time>2020-05-07T10:18:38.143Z</time>
      </trkpt>
      <trkpt lat="46.95128" lon="7.29675">
        <ele>641.6</ele>
        <time>2020-05-07T10:18:47.819Z</time>
      </trkpt>
      <trkpt lat="46.95125" lon="7.29681">
        <ele>641.7</ele>
        <time>2020-05-07T10:18:54.037Z</time>
      </trkpt>
      <trkpt lat="46.95122" lon="7.29687">
        <ele>641.8</ele>
        <time>2020-05-07T10:19:00.255Z</time>
      </trkpt>
      <trkpt lat="46.95119" lon="7.29693">
        <ele>641.9</ele>
        <time>2020-05-07T10:19:06.472Z</time>
      </trkpt>
      <trkpt lat="46.95116" lon="7.29698">
        <ele>641.9</ele>
        <time>2020-05-07T10:19:11.034Z</time>
      </trkpt>
      <trkpt lat="46.95111" lon="7.29711">
        <ele>641.8</ele>
        <time>2020-05-07T10:19:14.725Z</time>
      </trkpt>
      <trkpt lat="46.9511" lon="7.29716">
        <ele>641.7</ele>
        <time>2020-05-07T10:19:15.761Z</time>
      </trkpt>
      <trkpt lat="46.95107" lon="7.29725">
        <ele>641.8</ele>
        <time>2020-05-07T10:19:23.685Z</time>
      </trkpt>
      <trkpt lat="46.95103" lon="7.29746">
        <ele>642.1</ele>
        <time>2020-05-07T10:19:42.007Z</time>
      </trkpt>
      <trkpt lat="46.95102" lon="7.29754">
        <ele>640.7</ele>
        <time>2020-05-07T10:19:43.257Z</time>
      </trkpt>
      <trkpt lat="46.95102" lon="7.29761">
        <ele>640.4</ele>
        <time>2020-05-07T10:19:44.272Z</time>
      </trkpt>
      <trkpt lat="46.95102" lon="7.2977">
        <ele>640</ele>
        <time>2020-05-07T10:19:45.554Z</time>
      </trkpt>
      <trkpt lat="46.95102" lon="7.29778">
        <ele>639.7</ele>
        <time>2020-05-07T10:19:46.790Z</time>
      </trkpt>
      <trkpt lat="46.95103" lon="7.29799">
        <ele>639.3</ele>
        <time>2020-05-07T10:19:50.990Z</time>
      </trkpt>
      <trkpt lat="46.95104" lon="7.29811">
        <ele>639.5</ele>
        <time>2020-05-07T10:20:01.637Z</time>
      </trkpt>
      <trkpt lat="46.95108" lon="7.29837">
        <ele>640.2</ele>
        <time>2020-05-07T10:20:29.837Z</time>
      </trkpt>
      <trkpt lat="46.95113" lon="7.29868">
        <ele>639.9</ele>
        <time>2020-05-07T10:20:37.320Z</time>
      </trkpt>
      <trkpt lat="46.95121" lon="7.29918">
        <ele>643.4</ele>
        <time>2020-05-07T10:22:08.683Z</time>
      </trkpt>
      <trkpt lat="46.95094" lon="7.29923">
        <ele>645.8</ele>
        <time>2020-05-07T10:23:12.388Z</time>
      </trkpt>
      <trkpt lat="46.95089" lon="7.29924">
        <ele>646.2</ele>
        <time>2020-05-07T10:23:23.346Z</time>
      </trkpt>
      <trkpt lat="46.95089" lon="7.29924">
        <ele>646.2</ele>
        <time>2020-05-07T10:23:23.346Z</time>
      </trkpt>
      <trkpt lat="46.95074" lon="7.29927">
        <ele>648.9</ele>
        <time>2020-05-07T10:24:21.959Z</time>
      </trkpt>
      <trkpt lat="46.95042" lon="7.29934">
        <ele>650.7</ele>
        <time>2020-05-07T10:25:20.922Z</time>
      </trkpt>
      <trkpt lat="46.95028" lon="7.29939">
        <ele>651.1</ele>
        <time>2020-05-07T10:25:40.317Z</time>
      </trkpt>
      <trkpt lat="46.95022" lon="7.29949">
        <ele>651.5</ele>
        <time>2020-05-07T10:25:55.601Z</time>
      </trkpt>
      <trkpt lat="46.95015" lon="7.29959">
        <ele>652</ele>
        <time>2020-05-07T10:26:12.891Z</time>
      </trkpt>
      <trkpt lat="46.95006" lon="7.29969">
        <ele>652.6</ele>
        <time>2020-05-07T10:26:33.130Z</time>
      </trkpt>
      <trkpt lat="46.94998" lon="7.29979">
        <ele>653.5</ele>
        <time>2020-05-07T10:26:57.199Z</time>
      </trkpt>
      <trkpt lat="46.9497" lon="7.30009">
        <ele>654.2</ele>
        <time>2020-05-07T10:27:39.914Z</time>
      </trkpt>
      <trkpt lat="46.94959" lon="7.30022">
        <ele>653.8</ele>
        <time>2020-05-07T10:27:44.024Z</time>
      </trkpt>
      <trkpt lat="46.9495" lon="7.30033">
        <ele>653.7</ele>
        <time>2020-05-07T10:27:48.346Z</time>
      </trkpt>
      <trkpt lat="46.94927" lon="7.30058">
        <ele>653.7</ele>
        <time>2020-05-07T10:28:17.093Z</time>
      </trkpt>
      <trkpt lat="46.94913" lon="7.30074">
        <ele>650.9</ele>
        <time>2020-05-07T10:28:21.091Z</time>
      </trkpt>
      <trkpt lat="46.94897" lon="7.30091">
        <ele>651</ele>
        <time>2020-05-07T10:28:41.894Z</time>
      </trkpt>
      <trkpt lat="46.94852" lon="7.30138">
        <ele>648.6</ele>
        <time>2020-05-07T10:28:55.730Z</time>
      </trkpt>
      <trkpt lat="46.94837" lon="7.30156">
        <ele>648.4</ele>
        <time>2020-05-07T10:29:02.711Z</time>
      </trkpt>
      <trkpt lat="46.94824" lon="7.30173">
        <ele>645.1</ele>
        <time>2020-05-07T10:29:06.634Z</time>
      </trkpt>
      <trkpt lat="46.9481" lon="7.30192">
        <ele>642</ele>
        <time>2020-05-07T10:29:10.930Z</time>
      </trkpt>
      <trkpt lat="46.94795" lon="7.30209">
        <ele>640.4</ele>
        <time>2020-05-07T10:29:15.200Z</time>
      </trkpt>
      <trkpt lat="46.94778" lon="7.30226">
        <ele>638.5</ele>
        <time>2020-05-07T10:29:19.834Z</time>
      </trkpt>
      <trkpt lat="46.94768" lon="7.30237">
        <ele>636.9</ele>
        <time>2020-05-07T10:29:22.649Z</time>
      </trkpt>
      <trkpt lat="46.9476" lon="7.30251">
        <ele>635</ele>
        <time>2020-05-07T10:29:25.455Z</time>
      </trkpt>
      <trkpt lat="46.94752" lon="7.30267">
        <ele>636.1</ele>
        <time>2020-05-07T10:29:55.335Z</time>
      </trkpt>
      <trkpt lat="46.94746" lon="7.30282">
        <ele>629.5</ele>
        <time>2020-05-07T10:29:58.007Z</time>
      </trkpt>
      <trkpt lat="46.94741" lon="7.30291">
        <ele>629.3</ele>
        <time>2020-05-07T10:30:00.388Z</time>
      </trkpt>
      <trkpt lat="46.94735" lon="7.30297">
        <ele>629.2</ele>
        <time>2020-05-07T10:30:02.889Z</time>
      </trkpt>
      <trkpt lat="46.94726" lon="7.30302">
        <ele>628.8</ele>
        <time>2020-05-07T10:30:05.341Z</time>
      </trkpt>
      <trkpt lat="46.94719" lon="7.30304">
        <ele>628.4</ele>
        <time>2020-05-07T10:30:06.940Z</time>
      </trkpt>
      <trkpt lat="46.94712" lon="7.30305">
        <ele>627.9</ele>
        <time>2020-05-07T10:30:08.524Z</time>
      </trkpt>
      <trkpt lat="46.94704" lon="7.30305">
        <ele>627.3</ele>
        <time>2020-05-07T10:30:10.325Z</time>
      </trkpt>
      <trkpt lat="46.94696" lon="7.30305">
        <ele>626.8</ele>
        <time>2020-05-07T10:30:12.028Z</time>
      </trkpt>
      <trkpt lat="46.9469" lon="7.30302">
        <ele>626.4</ele>
        <time>2020-05-07T10:30:13.372Z</time>
      </trkpt>
      <trkpt lat="46.94684" lon="7.30298">
        <ele>626.1</ele>
        <time>2020-05-07T10:30:14.992Z</time>
      </trkpt>
      <trkpt lat="46.94676" lon="7.30292">
        <ele>625.7</ele>
        <time>2020-05-07T10:30:17.219Z</time>
      </trkpt>
      <trkpt lat="46.94667" lon="7.30287">
        <ele>625.3</ele>
        <time>2020-05-07T10:30:19.671Z</time>
      </trkpt>
      <trkpt lat="46.94659" lon="7.30285">
        <ele>616.2</ele>
        <time>2020-05-07T10:30:21.498Z</time>
      </trkpt>
      <trkpt lat="46.94648" lon="7.30286">
        <ele>615.5</ele>
        <time>2020-05-07T10:30:23.827Z</time>
      </trkpt>
      <trkpt lat="46.94634" lon="7.30292">
        <ele>614.2</ele>
        <time>2020-05-07T10:30:27.111Z</time>
      </trkpt>
      <trkpt lat="46.94622" lon="7.30299">
        <ele>612.9</ele>
        <time>2020-05-07T10:30:30.019Z</time>
      </trkpt>
      <trkpt lat="46.94613" lon="7.30306">
        <ele>611.9</ele>
        <time>2020-05-07T10:30:32.313Z</time>
      </trkpt>
      <trkpt lat="46.94608" lon="7.30313">
        <ele>611</ele>
        <time>2020-05-07T10:30:33.870Z</time>
      </trkpt>
      <trkpt lat="46.94605" lon="7.30321">
        <ele>610.2</ele>
        <time>2020-05-07T10:30:35.273Z</time>
      </trkpt>
      <trkpt lat="46.94603" lon="7.30329">
        <ele>609.5</ele>
        <time>2020-05-07T10:30:36.582Z</time>
      </trkpt>
      <trkpt lat="46.94601" lon="7.3034">
        <ele>609.4</ele>
        <time>2020-05-07T10:30:39.288Z</time>
      </trkpt>
      <trkpt lat="46.94601" lon="7.3034">
        <ele>609.4</ele>
        <time>2020-05-07T10:30:39.288Z</time>
      </trkpt>
      <trkpt lat="46.94601" lon="7.30342">
        <ele>609.5</ele>
        <time>2020-05-07T10:30:42.115Z</time>
      </trkpt>
      <trkpt lat="46.94597" lon="7.30376">
        <ele>611</ele>
        <time>2020-05-07T10:31:27.526Z</time>
      </trkpt>
      <trkpt lat="46.94594" lon="7.30394">
        <ele>610.1</ele>
        <time>2020-05-07T10:31:30.374Z</time>
      </trkpt>
      <trkpt lat="46.9459" lon="7.30412">
        <ele>607.4</ele>
        <time>2020-05-07T10:31:33.283Z</time>
      </trkpt>
      <trkpt lat="46.94586" lon="7.30431">
        <ele>609.6</ele>
        <time>2020-05-07T10:32:25.836Z</time>
      </trkpt>
      <trkpt lat="46.94583" lon="7.30444">
        <ele>601.8</ele>
        <time>2020-05-07T10:32:27.945Z</time>
      </trkpt>
      <trkpt lat="46.94577" lon="7.30464">
        <ele>602</ele>
        <time>2020-05-07T10:32:45.011Z</time>
      </trkpt>
      <trkpt lat="46.94572" lon="7.30481">
        <ele>603.4</ele>
        <time>2020-05-07T10:33:21.871Z</time>
      </trkpt>
      <trkpt lat="46.94564" lon="7.30505">
        <ele>604.8</ele>
        <time>2020-05-07T10:34:00.683Z</time>
      </trkpt>
      <trkpt lat="46.94558" lon="7.30522">
        <ele>603.2</ele>
        <time>2020-05-07T10:34:03.625Z</time>
      </trkpt>
      <trkpt lat="46.94554" lon="7.30535">
        <ele>602.4</ele>
        <time>2020-05-07T10:34:05.816Z</time>
      </trkpt>
      <trkpt lat="46.94551" lon="7.3054">
        <ele>602.1</ele>
        <time>2020-05-07T10:34:06.758Z</time>
      </trkpt>
      <trkpt lat="46.94545" lon="7.30547">
        <ele>601.6</ele>
        <time>2020-05-07T10:34:08.358Z</time>
      </trkpt>
      <trkpt lat="46.94534" lon="7.30559">
        <ele>600.6</ele>
        <time>2020-05-07T10:34:11.446Z</time>
      </trkpt>
      <trkpt lat="46.94526" lon="7.30566">
        <ele>599.7</ele>
        <time>2020-05-07T10:34:13.544Z</time>
      </trkpt>
      <trkpt lat="46.94515" lon="7.30574">
        <ele>598.2</ele>
        <time>2020-05-07T10:34:16.309Z</time>
      </trkpt>
      <trkpt lat="46.94499" lon="7.30581">
        <ele>594.3</ele>
        <time>2020-05-07T10:34:20.068Z</time>
      </trkpt>
      <trkpt lat="46.94493" lon="7.30582">
        <ele>593.1</ele>
        <time>2020-05-07T10:34:21.427Z</time>
      </trkpt>
      <trkpt lat="46.94487" lon="7.30583">
        <ele>591.9</ele>
        <time>2020-05-07T10:34:22.787Z</time>
      </trkpt>
      <trkpt lat="46.94449" lon="7.30583">
        <ele>587.2</ele>
        <time>2020-05-07T10:34:31.342Z</time>
      </trkpt>
      <trkpt lat="46.9444" lon="7.30584">
        <ele>588.7</ele>
        <time>2020-05-07T10:35:06.286Z</time>
      </trkpt>
      <trkpt lat="46.94429" lon="7.30586">
        <ele>587</ele>
        <time>2020-05-07T10:35:08.782Z</time>
      </trkpt>
      <trkpt lat="46.94421" lon="7.30589">
        <ele>585.9</ele>
        <time>2020-05-07T10:35:10.641Z</time>
      </trkpt>
      <trkpt lat="46.94409" lon="7.30593">
        <ele>583.9</ele>
        <time>2020-05-07T10:35:13.411Z</time>
      </trkpt>
      <trkpt lat="46.94399" lon="7.30597">
        <ele>583.7</ele>
        <time>2020-05-07T10:35:16.747Z</time>
      </trkpt>
      <trkpt lat="46.94383" lon="7.30606">
        <ele>583.3</ele>
        <time>2020-05-07T10:35:22.010Z</time>
      </trkpt>
      <trkpt lat="46.94375" lon="7.30611">
        <ele>583.1</ele>
        <time>2020-05-07T10:35:24.692Z</time>
      </trkpt>
      <trkpt lat="46.94365" lon="7.30614">
        <ele>582.7</ele>
        <time>2020-05-07T10:35:27.351Z</time>
      </trkpt>
      <trkpt lat="46.94356" lon="7.30614">
        <ele>582.3</ele>
        <time>2020-05-07T10:35:29.583Z</time>
      </trkpt>
      <trkpt lat="46.94345" lon="7.30612">
        <ele>581.8</ele>
        <time>2020-05-07T10:35:32.315Z</time>
      </trkpt>
      <trkpt lat="46.94331" lon="7.30608">
        <ele>576.6</ele>
        <time>2020-05-07T10:35:35.527Z</time>
      </trkpt>
      <trkpt lat="46.94315" lon="7.30604">
        <ele>576</ele>
        <time>2020-05-07T10:35:39.847Z</time>
      </trkpt>
      <trkpt lat="46.94287" lon="7.30597">
        <ele>574.4</ele>
        <time>2020-05-07T10:35:46.203Z</time>
      </trkpt>
      <trkpt lat="46.94255" lon="7.3059">
        <ele>572</ele>
        <time>2020-05-07T10:35:53.487Z</time>
      </trkpt>
      <trkpt lat="46.94238" lon="7.30588">
        <ele>569.3</ele>
        <time>2020-05-07T10:35:57.326Z</time>
      </trkpt>
      <trkpt lat="46.94228" lon="7.30588">
        <ele>568.5</ele>
        <time>2020-05-07T10:35:59.578Z</time>
      </trkpt>
      <trkpt lat="46.9422" lon="7.30589">
        <ele>568</ele>
        <time>2020-05-07T10:36:01.291Z</time>
      </trkpt>
      <trkpt lat="46.94213" lon="7.30592">
        <ele>567.6</ele>
        <time>2020-05-07T10:36:02.943Z</time>
      </trkpt>
      <trkpt lat="46.942" lon="7.30599">
        <ele>566.9</ele>
        <time>2020-05-07T10:36:06.197Z</time>
      </trkpt>
      <trkpt lat="46.9418" lon="7.3061">
        <ele>566.3</ele>
        <time>2020-05-07T10:36:12.424Z</time>
      </trkpt>
      <trkpt lat="46.94156" lon="7.30622">
        <ele>564.7</ele>
        <time>2020-05-07T10:36:17.800Z</time>
      </trkpt>
      <trkpt lat="46.94107" lon="7.30648">
        <ele>564.8</ele>
        <time>2020-05-07T10:37:11.048Z</time>
      </trkpt>
      <trkpt lat="46.94107" lon="7.30648">
        <ele>564.8</ele>
        <time>2020-05-07T10:37:11.048Z</time>
      </trkpt>
      <trkpt lat="46.9406" lon="7.30673">
        <ele>568.5</ele>
        <time>2020-05-07T10:38:55.181Z</time>
      </trkpt>
      <trkpt lat="46.94048" lon="7.30679">
        <ele>569.7</ele>
        <time>2020-05-07T10:39:26.636Z</time>
      </trkpt>
      <trkpt lat="46.94036" lon="7.30683">
        <ele>570.6</ele>
        <time>2020-05-07T10:39:52.094Z</time>
      </trkpt>
      <trkpt lat="46.94024" lon="7.30684">
        <ele>571.5</ele>
        <time>2020-05-07T10:40:17.298Z</time>
      </trkpt>
      <trkpt lat="46.9401" lon="7.30684">
        <ele>572.3</ele>
        <time>2020-05-07T10:40:43.076Z</time>
      </trkpt>
      <trkpt lat="46.93999" lon="7.30681">
        <ele>577.1</ele>
        <time>2020-05-07T10:41:26.396Z</time>
      </trkpt>
      <trkpt lat="46.93986" lon="7.30677">
        <ele>577.8</ele>
        <time>2020-05-07T10:41:50.130Z</time>
      </trkpt>
      <trkpt lat="46.93975" lon="7.30674">
        <ele>579.1</ele>
        <time>2020-05-07T10:42:24.805Z</time>
      </trkpt>
      <trkpt lat="46.93966" lon="7.3067">
        <ele>580.1</ele>
        <time>2020-05-07T10:42:50.967Z</time>
      </trkpt>
      <trkpt lat="46.93956" lon="7.30665">
        <ele>578.1</ele>
        <time>2020-05-07T10:42:53.346Z</time>
      </trkpt>
      <trkpt lat="46.93949" lon="7.30662">
        <ele>578.8</ele>
        <time>2020-05-07T10:43:11.665Z</time>
      </trkpt>
      <trkpt lat="46.93941" lon="7.30662">
        <ele>579.9</ele>
        <time>2020-05-07T10:43:42.638Z</time>
      </trkpt>
      <trkpt lat="46.93934" lon="7.30665">
        <ele>581.2</ele>
        <time>2020-05-07T10:44:10.876Z</time>
      </trkpt>
      <trkpt lat="46.93923" lon="7.30674">
        <ele>584.5</ele>
        <time>2020-05-07T10:44:59.658Z</time>
      </trkpt>
      <trkpt lat="46.93912" lon="7.30684">
        <ele>588.2</ele>
        <time>2020-05-07T10:45:49.783Z</time>
      </trkpt>
      <trkpt lat="46.93899" lon="7.30697">
        <ele>589.3</ele>
        <time>2020-05-07T10:46:21.548Z</time>
      </trkpt>
      <trkpt lat="46.93886" lon="7.30711">
        <ele>590.1</ele>
        <time>2020-05-07T10:46:49.791Z</time>
      </trkpt>
      <trkpt lat="46.93871" lon="7.3073">
        <ele>591</ele>
        <time>2020-05-07T10:47:23.576Z</time>
      </trkpt>
      <trkpt lat="46.93856" lon="7.30746">
        <ele>592.2</ele>
        <time>2020-05-07T10:47:59.607Z</time>
      </trkpt>
      <trkpt lat="46.93828" lon="7.30777">
        <ele>597</ele>
        <time>2020-05-07T10:50:15.501Z</time>
      </trkpt>
      <trkpt lat="46.93818" lon="7.30786">
        <ele>597.4</ele>
        <time>2020-05-07T10:50:32.629Z</time>
      </trkpt>
      <trkpt lat="46.93813" lon="7.30791">
        <ele>597.5</ele>
        <time>2020-05-07T10:50:39.789Z</time>
      </trkpt>
      <trkpt lat="46.93807" lon="7.30796">
        <ele>597.8</ele>
        <time>2020-05-07T10:50:51.301Z</time>
      </trkpt>
      <trkpt lat="46.93802" lon="7.30799">
        <ele>597.9</ele>
        <time>2020-05-07T10:50:57.831Z</time>
      </trkpt>
      <trkpt lat="46.93796" lon="7.30802">
        <ele>598.2</ele>
        <time>2020-05-07T10:51:08.767Z</time>
      </trkpt>
      <trkpt lat="46.93791" lon="7.30804">
        <ele>598.5</ele>
        <time>2020-05-07T10:51:18.359Z</time>
      </trkpt>
      <trkpt lat="46.93758" lon="7.30814">
        <ele>600.2</ele>
        <time>2020-05-07T10:52:17.678Z</time>
      </trkpt>
      <trkpt lat="46.93755" lon="7.30815">
        <ele>600.3</ele>
        <time>2020-05-07T10:52:22.076Z</time>
      </trkpt>
      <trkpt lat="46.9374" lon="7.30819">
        <ele>604.7</ele>
        <time>2020-05-07T10:53:21.105Z</time>
      </trkpt>
      <trkpt lat="46.93725" lon="7.30823">
        <ele>605.9</ele>
        <time>2020-05-07T10:53:54.063Z</time>
      </trkpt>
      <trkpt lat="46.93687" lon="7.30831">
        <ele>609.3</ele>
        <time>2020-05-07T10:55:24.225Z</time>
      </trkpt>
      <trkpt lat="46.93667" lon="7.30834">
        <ele>611.8</ele>
        <time>2020-05-07T10:56:33.028Z</time>
      </trkpt>
      <trkpt lat="46.93647" lon="7.30837">
        <ele>610.7</ele>
        <time>2020-05-07T10:56:37.588Z</time>
      </trkpt>
      <trkpt lat="46.93628" lon="7.30838">
        <ele>609.9</ele>
        <time>2020-05-07T10:56:42.407Z</time>
      </trkpt>
      <trkpt lat="46.93613" lon="7.30838">
        <ele>609.4</ele>
        <time>2020-05-07T10:56:46.546Z</time>
      </trkpt>
      <trkpt lat="46.93599" lon="7.30836">
        <ele>608.9</ele>
        <time>2020-05-07T10:56:50.343Z</time>
      </trkpt>
      <trkpt lat="46.9358" lon="7.30833">
        <ele>608</ele>
        <time>2020-05-07T10:56:54.971Z</time>
      </trkpt>
      <trkpt lat="46.93567" lon="7.30831">
        <ele>608.1</ele>
        <time>2020-05-07T10:57:09.080Z</time>
      </trkpt>
      <trkpt lat="46.93545" lon="7.30824">
        <ele>608</ele>
        <time>2020-05-07T10:57:30.238Z</time>
      </trkpt>
      <trkpt lat="46.93524" lon="7.30819">
        <ele>607.8</ele>
        <time>2020-05-07T10:57:37.991Z</time>
      </trkpt>
      <trkpt lat="46.93512" lon="7.30818">
        <ele>607.7</ele>
        <time>2020-05-07T10:57:42.435Z</time>
      </trkpt>
      <trkpt lat="46.93496" lon="7.30816">
        <ele>607.6</ele>
        <time>2020-05-07T10:57:57.150Z</time>
      </trkpt>
      <trkpt lat="46.93478" lon="7.30816">
        <ele>607.8</ele>
        <time>2020-05-07T10:58:17.264Z</time>
      </trkpt>
      <trkpt lat="46.93463" lon="7.30816">
        <ele>607.9</ele>
        <time>2020-05-07T10:58:33.300Z</time>
      </trkpt>
      <trkpt lat="46.93455" lon="7.30818">
        <ele>607.9</ele>
        <time>2020-05-07T10:58:41.446Z</time>
      </trkpt>
      <trkpt lat="46.93447" lon="7.30821">
        <ele>607.9</ele>
        <time>2020-05-07T10:58:49.735Z</time>
      </trkpt>
      <trkpt lat="46.93414" lon="7.30841">
        <ele>607</ele>
        <time>2020-05-07T10:59:00.477Z</time>
      </trkpt>
      <trkpt lat="46.93396" lon="7.3085">
        <ele>607.1</ele>
        <time>2020-05-07T10:59:20.534Z</time>
      </trkpt>
      <trkpt lat="46.93359" lon="7.30867">
        <ele>607.8</ele>
        <time>2020-05-07T11:00:07.169Z</time>
      </trkpt>
      <trkpt lat="46.93291" lon="7.309">
        <ele>616.6</ele>
        <time>2020-05-07T11:04:07.697Z</time>
      </trkpt>
      <trkpt lat="46.93275" lon="7.30907">
        <ele>618.5</ele>
        <time>2020-05-07T11:04:58.047Z</time>
      </trkpt>
      <trkpt lat="46.93257" lon="7.30914">
        <ele>621.4</ele>
        <time>2020-05-07T11:06:10.151Z</time>
      </trkpt>
      <trkpt lat="46.93242" lon="7.30919">
        <ele>623.5</ele>
        <time>2020-05-07T11:07:09.711Z</time>
      </trkpt>
      <trkpt lat="46.9321" lon="7.30929">
        <ele>625.2</ele>
        <time>2020-05-07T11:08:07.884Z</time>
      </trkpt>
      <trkpt lat="46.93198" lon="7.30934">
        <ele>625.8</ele>
        <time>2020-05-07T11:08:29.511Z</time>
      </trkpt>
      <trkpt lat="46.93187" lon="7.30939">
        <ele>626.3</ele>
        <time>2020-05-07T11:08:48.704Z</time>
      </trkpt>
      <trkpt lat="46.93175" lon="7.30944">
        <ele>626.6</ele>
        <time>2020-05-07T11:09:04.764Z</time>
      </trkpt>
      <trkpt lat="46.93157" lon="7.30952">
        <ele>629.3</ele>
        <time>2020-05-07T11:10:17.592Z</time>
      </trkpt>
      <trkpt lat="46.9312" lon="7.30966">
        <ele>629.5</ele>
        <time>2020-05-07T11:10:57.882Z</time>
      </trkpt>
      <trkpt lat="46.93103" lon="7.30972">
        <ele>629.6</ele>
        <time>2020-05-07T11:11:16.405Z</time>
      </trkpt>
      <trkpt lat="46.93066" lon="7.30984">
        <ele>627.8</ele>
        <time>2020-05-07T11:11:25.549Z</time>
      </trkpt>
      <trkpt lat="46.93048" lon="7.3099">
        <ele>626.9</ele>
        <time>2020-05-07T11:11:29.955Z</time>
      </trkpt>
      <trkpt lat="46.93035" lon="7.30996">
        <ele>626.1</ele>
        <time>2020-05-07T11:11:32.947Z</time>
      </trkpt>
      <trkpt lat="46.93023" lon="7.31003">
        <ele>626.2</ele>
        <time>2020-05-07T11:11:46.902Z</time>
      </trkpt>
      <trkpt lat="46.93005" lon="7.31015">
        <ele>625.6</ele>
        <time>2020-05-07T11:11:52.531Z</time>
      </trkpt>
      <trkpt lat="46.92987" lon="7.31028">
        <ele>622.1</ele>
        <time>2020-05-07T11:11:57.049Z</time>
      </trkpt>
      <trkpt lat="46.9297" lon="7.31042">
        <ele>621.5</ele>
        <time>2020-05-07T11:12:02.575Z</time>
      </trkpt>
      <trkpt lat="46.92959" lon="7.31053">
        <ele>621.2</ele>
        <time>2020-05-07T11:12:06.704Z</time>
      </trkpt>
      <trkpt lat="46.92944" lon="7.31043">
        <ele>620.4</ele>
        <time>2020-05-07T11:12:10.644Z</time>
      </trkpt>
      <trkpt lat="46.92938" lon="7.31039">
        <ele>620.1</ele>
        <time>2020-05-07T11:12:12.264Z</time>
      </trkpt>
      <trkpt lat="46.92933" lon="7.31035">
        <ele>619.9</ele>
        <time>2020-05-07T11:12:13.808Z</time>
      </trkpt>
      <trkpt lat="46.92925" lon="7.31027">
        <ele>619.3</ele>
        <time>2020-05-07T11:12:15.880Z</time>
      </trkpt>
      <trkpt lat="46.92914" lon="7.31016">
        <ele>616.7</ele>
        <time>2020-05-07T11:12:18.879Z</time>
      </trkpt>
      <trkpt lat="46.92903" lon="7.31004">
        <ele>616.6</ele>
        <time>2020-05-07T11:12:24.023Z</time>
      </trkpt>
      <trkpt lat="46.92904" lon="7.30981">
        <ele>616.9</ele>
        <time>2020-05-07T11:12:43.163Z</time>
      </trkpt>
      <trkpt lat="46.92905" lon="7.30958">
        <ele>617.3</ele>
        <time>2020-05-07T11:13:03.754Z</time>
      </trkpt>
      <trkpt lat="46.92905" lon="7.30939">
        <ele>617.6</ele>
        <time>2020-05-07T11:13:20.277Z</time>
      </trkpt>
      <trkpt lat="46.92906" lon="7.30921">
        <ele>617.8</ele>
        <time>2020-05-07T11:13:34.816Z</time>
      </trkpt>
      <trkpt lat="46.92907" lon="7.30907">
        <ele>619.5</ele>
        <time>2020-05-07T11:14:12.033Z</time>
      </trkpt>
      <trkpt lat="46.92908" lon="7.30892">
        <ele>620.4</ele>
        <time>2020-05-07T11:14:35.970Z</time>
      </trkpt>
      <trkpt lat="46.92911" lon="7.30879">
        <ele>621.1</ele>
        <time>2020-05-07T11:14:55.592Z</time>
      </trkpt>
      <trkpt lat="46.9292" lon="7.30855">
        <ele>621.1</ele>
        <time>2020-05-07T11:15:14.361Z</time>
      </trkpt>
      <trkpt lat="46.92929" lon="7.30831">
        <ele>622.6</ele>
        <time>2020-05-07T11:15:55.281Z</time>
      </trkpt>
      <trkpt lat="46.92933" lon="7.3082">
        <ele>622.1</ele>
        <time>2020-05-07T11:15:57.148Z</time>
      </trkpt>
      <trkpt lat="46.92933" lon="7.3082">
        <ele>622.1</ele>
        <time>2020-05-07T11:15:57.148Z</time>
      </trkpt>
      <trkpt lat="46.92938" lon="7.30806">
        <ele>621.7</ele>
        <time>2020-05-07T11:16:00.017Z</time>
      </trkpt>
      <trkpt lat="46.92942" lon="7.30794">
        <ele>621.7</ele>
        <time>2020-05-07T11:16:09.170Z</time>
      </trkpt>
      <trkpt lat="46.92944" lon="7.30782">
        <ele>621.9</ele>
        <time>2020-05-07T11:16:19.986Z</time>
      </trkpt>
      <trkpt lat="46.92946" lon="7.30768">
        <ele>622.3</ele>
        <time>2020-05-07T11:16:35.675Z</time>
      </trkpt>
      <trkpt lat="46.92947" lon="7.30751">
        <ele>622.6</ele>
        <time>2020-05-07T11:16:50.981Z</time>
      </trkpt>
      <trkpt lat="46.92947" lon="7.30726">
        <ele>620.7</ele>
        <time>2020-05-07T11:16:54.824Z</time>
      </trkpt>
      <trkpt lat="46.92948" lon="7.30706">
        <ele>619.8</ele>
        <time>2020-05-07T11:16:57.669Z</time>
      </trkpt>
      <trkpt lat="46.92949" lon="7.30683">
        <ele>619.4</ele>
        <time>2020-05-07T11:17:02.391Z</time>
      </trkpt>
      <trkpt lat="46.92951" lon="7.30657">
        <ele>616.8</ele>
        <time>2020-05-07T11:17:06.414Z</time>
      </trkpt>
      <trkpt lat="46.92951" lon="7.30628">
        <ele>616.2</ele>
        <time>2020-05-07T11:17:12.053Z</time>
      </trkpt>
      <trkpt lat="46.92951" lon="7.30607">
        <ele>616.2</ele>
        <time>2020-05-07T11:17:26.447Z</time>
      </trkpt>
      <trkpt lat="46.9295" lon="7.30588">
        <ele>616.7</ele>
        <time>2020-05-07T11:17:46.603Z</time>
      </trkpt>
      <trkpt lat="46.92948" lon="7.30564">
        <ele>616.3</ele>
        <time>2020-05-07T11:17:51.623Z</time>
      </trkpt>
      <trkpt lat="46.92945" lon="7.30536">
        <ele>616.2</ele>
        <time>2020-05-07T11:18:09.626Z</time>
      </trkpt>
      <trkpt lat="46.9294" lon="7.30495">
        <ele>617.3</ele>
        <time>2020-05-07T11:18:53.836Z</time>
      </trkpt>
      <trkpt lat="46.92937" lon="7.30472">
        <ele>616.2</ele>
        <time>2020-05-07T11:18:57.436Z</time>
      </trkpt>
      <trkpt lat="46.92933" lon="7.30448">
        <ele>615.9</ele>
        <time>2020-05-07T11:19:02.964Z</time>
      </trkpt>
      <trkpt lat="46.92923" lon="7.30392">
        <ele>613.4</ele>
        <time>2020-05-07T11:19:11.333Z</time>
      </trkpt>
      <trkpt lat="46.92918" lon="7.30368">
        <ele>611.6</ele>
        <time>2020-05-07T11:19:15.190Z</time>
      </trkpt>
      <trkpt lat="46.92908" lon="7.30332">
        <ele>615.3</ele>
        <time>2020-05-07T11:20:57.945Z</time>
      </trkpt>
      <trkpt lat="46.92904" lon="7.30317">
        <ele>615.2</ele>
        <time>2020-05-07T11:21:01.969Z</time>
      </trkpt>
      <trkpt lat="46.92899" lon="7.30302">
        <ele>614.8</ele>
        <time>2020-05-07T11:21:05.059Z</time>
      </trkpt>
      <trkpt lat="46.92892" lon="7.30285">
        <ele>614</ele>
        <time>2020-05-07T11:21:08.027Z</time>
      </trkpt>
      <trkpt lat="46.92883" lon="7.30268">
        <ele>613.6</ele>
        <time>2020-05-07T11:21:12.349Z</time>
      </trkpt>
      <trkpt lat="46.92874" lon="7.3025">
        <ele>614.1</ele>
        <time>2020-05-07T11:21:34.214Z</time>
      </trkpt>
      <trkpt lat="46.92866" lon="7.30235">
        <ele>609.5</ele>
        <time>2020-05-07T11:21:37.140Z</time>
      </trkpt>
      <trkpt lat="46.92856" lon="7.30219">
        <ele>609.5</ele>
        <time>2020-05-07T11:21:52.007Z</time>
      </trkpt>
      <trkpt lat="46.92847" lon="7.30206">
        <ele>609.1</ele>
        <time>2020-05-07T11:21:55.557Z</time>
      </trkpt>
      <trkpt lat="46.92842" lon="7.30193">
        <ele>608.7</ele>
        <time>2020-05-07T11:21:58.209Z</time>
      </trkpt>
      <trkpt lat="46.92836" lon="7.30179">
        <ele>608.6</ele>
        <time>2020-05-07T11:22:02.353Z</time>
      </trkpt>
      <trkpt lat="46.92831" lon="7.30159">
        <ele>611.7</ele>
        <time>2020-05-07T11:22:58.664Z</time>
      </trkpt>
      <trkpt lat="46.92827" lon="7.30138">
        <ele>615</ele>
        <time>2020-05-07T11:23:56.307Z</time>
      </trkpt>
      <trkpt lat="46.92821" lon="7.30112">
        <ele>614.9</ele>
        <time>2020-05-07T11:24:13.697Z</time>
      </trkpt>
      <trkpt lat="46.92817" lon="7.30092">
        <ele>613.3</ele>
        <time>2020-05-07T11:24:16.901Z</time>
      </trkpt>
      <trkpt lat="46.92812" lon="7.30069">
        <ele>612.1</ele>
        <time>2020-05-07T11:24:20.612Z</time>
      </trkpt>
      <trkpt lat="46.92809" lon="7.30053">
        <ele>612.8</ele>
        <time>2020-05-07T11:24:42.163Z</time>
      </trkpt>
      <trkpt lat="46.92807" lon="7.30041">
        <ele>612.8</ele>
        <time>2020-05-07T11:24:50.630Z</time>
      </trkpt>
      <trkpt lat="46.92806" lon="7.30032">
        <ele>612.5</ele>
        <time>2020-05-07T11:24:52.123Z</time>
      </trkpt>
      <trkpt lat="46.92806" lon="7.30021">
        <ele>612</ele>
        <time>2020-05-07T11:24:53.674Z</time>
      </trkpt>
      <trkpt lat="46.92812" lon="7.3002">
        <ele>611.3</ele>
        <time>2020-05-07T11:24:55.033Z</time>
      </trkpt>
      <trkpt lat="46.92818" lon="7.30018">
        <ele>610.5</ele>
        <time>2020-05-07T11:24:56.419Z</time>
      </trkpt>
      <trkpt lat="46.92822" lon="7.30014">
        <ele>609.6</ele>
        <time>2020-05-07T11:24:57.509Z</time>
      </trkpt>
      <trkpt lat="46.92825" lon="7.30011">
        <ele>608.8</ele>
        <time>2020-05-07T11:24:58.327Z</time>
      </trkpt>
      <trkpt lat="46.92827" lon="7.30005">
        <ele>607.5</ele>
        <time>2020-05-07T11:24:59.353Z</time>
      </trkpt>
      <trkpt lat="46.92828" lon="7.29996">
        <ele>606.2</ele>
        <time>2020-05-07T11:25:00.755Z</time>
      </trkpt>
      <trkpt lat="46.92827" lon="7.29985">
        <ele>607.3</ele>
        <time>2020-05-07T11:25:30.096Z</time>
      </trkpt>
      <trkpt lat="46.92823" lon="7.29963">
        <ele>608.2</ele>
        <time>2020-05-07T11:25:58.870Z</time>
      </trkpt>
      <trkpt lat="46.92818" lon="7.29941">
        <ele>608</ele>
        <time>2020-05-07T11:26:04.401Z</time>
      </trkpt>
      <trkpt lat="46.92812" lon="7.29923">
        <ele>607.7</ele>
        <time>2020-05-07T11:26:08.670Z</time>
      </trkpt>
      <trkpt lat="46.92805" lon="7.29904">
        <ele>608</ele>
        <time>2020-05-07T11:26:26.858Z</time>
      </trkpt>
      <trkpt lat="46.92797" lon="7.29883">
        <ele>608.7</ele>
        <time>2020-05-07T11:26:53.900Z</time>
      </trkpt>
      <trkpt lat="46.92789" lon="7.29866">
        <ele>608.8</ele>
        <time>2020-05-07T11:27:09.035Z</time>
      </trkpt>
      <trkpt lat="46.9278" lon="7.29848">
        <ele>608.3</ele>
        <time>2020-05-07T11:27:13.261Z</time>
      </trkpt>
      <trkpt lat="46.92772" lon="7.29833">
        <ele>608.6</ele>
        <time>2020-05-07T11:27:29.805Z</time>
      </trkpt>
      <trkpt lat="46.92763" lon="7.29818">
        <ele>608.4</ele>
        <time>2020-05-07T11:27:34.447Z</time>
      </trkpt>
      <trkpt lat="46.92753" lon="7.29802">
        <ele>609.2</ele>
        <time>2020-05-07T11:28:01.145Z</time>
      </trkpt>
      <trkpt lat="46.9273" lon="7.29771">
        <ele>609.3</ele>
        <time>2020-05-07T11:28:33.470Z</time>
      </trkpt>
      <trkpt lat="46.92704" lon="7.29738">
        <ele>612.1</ele>
        <time>2020-05-07T11:29:49.488Z</time>
      </trkpt>
      <trkpt lat="46.92704" lon="7.29737">
        <ele>612.2</ele>
        <time>2020-05-07T11:29:52.132Z</time>
      </trkpt>
      <trkpt lat="46.92702" lon="7.29736">
        <ele>612.2</ele>
        <time>2020-05-07T11:29:54.253Z</time>
      </trkpt>
      <trkpt lat="46.92693" lon="7.29725">
        <ele>612.3</ele>
        <time>2020-05-07T11:30:07.018Z</time>
      </trkpt>
      <trkpt lat="46.92683" lon="7.29714">
        <ele>612.7</ele>
        <time>2020-05-07T11:30:24.773Z</time>
      </trkpt>
      <trkpt lat="46.92672" lon="7.29702">
        <ele>613.1</ele>
        <time>2020-05-07T11:30:43.560Z</time>
      </trkpt>
      <trkpt lat="46.92645" lon="7.29671">
        <ele>612.9</ele>
        <time>2020-05-07T11:31:15.176Z</time>
      </trkpt>
      <trkpt lat="46.92629" lon="7.29652">
        <ele>614.4</ele>
        <time>2020-05-07T11:31:57.686Z</time>
      </trkpt>
      <trkpt lat="46.92616" lon="7.29635">
        <ele>614.4</ele>
        <time>2020-05-07T11:32:15.181Z</time>
      </trkpt>
      <trkpt lat="46.9259" lon="7.29597">
        <ele>613.9</ele>
        <time>2020-05-07T11:32:27.854Z</time>
      </trkpt>
      <trkpt lat="46.92578" lon="7.2958">
        <ele>612.9</ele>
        <time>2020-05-07T11:32:31.484Z</time>
      </trkpt>
      <trkpt lat="46.92564" lon="7.2956">
        <ele>612.6</ele>
        <time>2020-05-07T11:32:38.086Z</time>
      </trkpt>
      <trkpt lat="46.92551" lon="7.29544">
        <ele>612.4</ele>
        <time>2020-05-07T11:32:44.084Z</time>
      </trkpt>
      <trkpt lat="46.92537" lon="7.29523">
        <ele>612.2</ele>
        <time>2020-05-07T11:32:51.332Z</time>
      </trkpt>
      <trkpt lat="46.92524" lon="7.29502">
        <ele>611.6</ele>
        <time>2020-05-07T11:32:56.803Z</time>
      </trkpt>
      <trkpt lat="46.92514" lon="7.29481">
        <ele>611.7</ele>
        <time>2020-05-07T11:33:15.323Z</time>
      </trkpt>
      <trkpt lat="46.92508" lon="7.29469">
        <ele>611.9</ele>
        <time>2020-05-07T11:33:27.762Z</time>
      </trkpt>
      <trkpt lat="46.92502" lon="7.29456">
        <ele>612.1</ele>
        <time>2020-05-07T11:33:40.735Z</time>
      </trkpt>
      <trkpt lat="46.92501" lon="7.29447">
        <ele>612.2</ele>
        <time>2020-05-07T11:33:48.064Z</time>
      </trkpt>
      <trkpt lat="46.925" lon="7.29439">
        <ele>610.8</ele>
        <time>2020-05-07T11:33:49.315Z</time>
      </trkpt>
      <trkpt lat="46.92501" lon="7.29419">
        <ele>612.1</ele>
        <time>2020-05-07T11:34:23.378Z</time>
      </trkpt>
      <trkpt lat="46.92501" lon="7.294">
        <ele>612.9</ele>
        <time>2020-05-07T11:34:48.035Z</time>
      </trkpt>
      <trkpt lat="46.92503" lon="7.29383">
        <ele>613.5</ele>
        <time>2020-05-07T11:35:08.839Z</time>
      </trkpt>
      <trkpt lat="46.92507" lon="7.29364">
        <ele>613.9</ele>
        <time>2020-05-07T11:35:27.505Z</time>
      </trkpt>
      <trkpt lat="46.92514" lon="7.29366">
        <ele>613.9</ele>
        <time>2020-05-07T11:35:34.664Z</time>
      </trkpt>
      <trkpt lat="46.9252" lon="7.29369">
        <ele>613.8</ele>
        <time>2020-05-07T11:35:36.793Z</time>
      </trkpt>
      <trkpt lat="46.92524" lon="7.29345">
        <ele>614.1</ele>
        <time>2020-05-07T11:35:57.023Z</time>
      </trkpt>
      <trkpt lat="46.92528" lon="7.29318">
        <ele>616.5</ele>
        <time>2020-05-07T11:37:04.033Z</time>
      </trkpt>
      <trkpt lat="46.9253" lon="7.29298">
        <ele>617.1</ele>
        <time>2020-05-07T11:37:27.055Z</time>
      </trkpt>
      <trkpt lat="46.92532" lon="7.29283">
        <ele>617.6</ele>
        <time>2020-05-07T11:37:45.126Z</time>
      </trkpt>
      <trkpt lat="46.92532" lon="7.29272">
        <ele>617.9</ele>
        <time>2020-05-07T11:37:57.015Z</time>
      </trkpt>
      <trkpt lat="46.92531" lon="7.29262">
        <ele>618.2</ele>
        <time>2020-05-07T11:38:08.526Z</time>
      </trkpt>
      <trkpt lat="46.92529" lon="7.29251">
        <ele>618.4</ele>
        <time>2020-05-07T11:38:18.735Z</time>
      </trkpt>
      <trkpt lat="46.92525" lon="7.29233">
        <ele>621.4</ele>
        <time>2020-05-07T11:39:08.786Z</time>
      </trkpt>
      <trkpt lat="46.92518" lon="7.29202">
        <ele>622.2</ele>
        <time>2020-05-07T11:39:42.124Z</time>
      </trkpt>
      <trkpt lat="46.92514" lon="7.29182">
        <ele>622.9</ele>
        <time>2020-05-07T11:40:06.971Z</time>
      </trkpt>
      <trkpt lat="46.92514" lon="7.29181">
        <ele>622.9</ele>
        <time>2020-05-07T11:40:07.656Z</time>
      </trkpt>
      <trkpt lat="46.92512" lon="7.29172">
        <ele>623.2</ele>
        <time>2020-05-07T11:40:18.740Z</time>
      </trkpt>
      <trkpt lat="46.92506" lon="7.29147">
        <ele>624.2</ele>
        <time>2020-05-07T11:40:51.636Z</time>
      </trkpt>
      <trkpt lat="46.92504" lon="7.29134">
        <ele>624.4</ele>
        <time>2020-05-07T11:41:03.074Z</time>
      </trkpt>
      <trkpt lat="46.92503" lon="7.29124">
        <ele>624.5</ele>
        <time>2020-05-07T11:41:11.062Z</time>
      </trkpt>
      <trkpt lat="46.92503" lon="7.29114">
        <ele>624.7</ele>
        <time>2020-05-07T11:41:20.430Z</time>
      </trkpt>
      <trkpt lat="46.92506" lon="7.29051">
        <ele>625.9</ele>
        <time>2020-05-07T11:42:18.529Z</time>
      </trkpt>
      <trkpt lat="46.92511" lon="7.28962">
        <ele>629.8</ele>
        <time>2020-05-07T11:44:16.335Z</time>
      </trkpt>
      <trkpt lat="46.92513" lon="7.28932">
        <ele>631.1</ele>
        <time>2020-05-07T11:44:55.873Z</time>
      </trkpt>
      <trkpt lat="46.92514" lon="7.28913">
        <ele>633.5</ele>
        <time>2020-05-07T11:45:46.260Z</time>
      </trkpt>
      <trkpt lat="46.92514" lon="7.28901">
        <ele>633.9</ele>
        <time>2020-05-07T11:46:00.533Z</time>
      </trkpt>
      <trkpt lat="46.92513" lon="7.2889">
        <ele>634.4</ele>
        <time>2020-05-07T11:46:15.389Z</time>
      </trkpt>
      <trkpt lat="46.92512" lon="7.28878">
        <ele>634.8</ele>
        <time>2020-05-07T11:46:29.734Z</time>
      </trkpt>
      <trkpt lat="46.92505" lon="7.28831">
        <ele>635.5</ele>
        <time>2020-05-07T11:47:10.707Z</time>
      </trkpt>
      <trkpt lat="46.92502" lon="7.28811">
        <ele>636.4</ele>
        <time>2020-05-07T11:47:37.800Z</time>
      </trkpt>
      <trkpt lat="46.925" lon="7.28798">
        <ele>633.3</ele>
        <time>2020-05-07T11:47:39.849Z</time>
      </trkpt>
      <trkpt lat="46.925" lon="7.28787">
        <ele>633.2</ele>
        <time>2020-05-07T11:47:42.451Z</time>
      </trkpt>
      <trkpt lat="46.92501" lon="7.28777">
        <ele>636.2</ele>
        <time>2020-05-07T11:48:09.174Z</time>
      </trkpt>
      <trkpt lat="46.92503" lon="7.28768">
        <ele>635.9</ele>
        <time>2020-05-07T11:48:10.749Z</time>
      </trkpt>
      <trkpt lat="46.92506" lon="7.28757">
        <ele>635.2</ele>
        <time>2020-05-07T11:48:12.570Z</time>
      </trkpt>
      <trkpt lat="46.92515" lon="7.28734">
        <ele>635.3</ele>
        <time>2020-05-07T11:48:31.710Z</time>
      </trkpt>
      <trkpt lat="46.92523" lon="7.28714">
        <ele>635.6</ele>
        <time>2020-05-07T11:48:50.936Z</time>
      </trkpt>
      <trkpt lat="46.92536" lon="7.2868">
        <ele>635.4</ele>
        <time>2020-05-07T11:49:00.885Z</time>
      </trkpt>
      <trkpt lat="46.92547" lon="7.2865">
        <ele>632.8</ele>
        <time>2020-05-07T11:49:06.120Z</time>
      </trkpt>
      <trkpt lat="46.92558" lon="7.28623">
        <ele>632.2</ele>
        <time>2020-05-07T11:49:12.388Z</time>
      </trkpt>
      <trkpt lat="46.92568" lon="7.28596">
        <ele>631.4</ele>
        <time>2020-05-07T11:49:17.908Z</time>
      </trkpt>
      <trkpt lat="46.92573" lon="7.28579">
        <ele>629.9</ele>
        <time>2020-05-07T11:49:20.754Z</time>
      </trkpt>
      <trkpt lat="46.92574" lon="7.2857">
        <ele>629.5</ele>
        <time>2020-05-07T11:49:22.062Z</time>
      </trkpt>
      <trkpt lat="46.92575" lon="7.2856">
        <ele>629</ele>
        <time>2020-05-07T11:49:23.616Z</time>
      </trkpt>
      <trkpt lat="46.92574" lon="7.28549">
        <ele>628.6</ele>
        <time>2020-05-07T11:49:25.363Z</time>
      </trkpt>
      <trkpt lat="46.92572" lon="7.28529">
        <ele>628</ele>
        <time>2020-05-07T11:49:28.818Z</time>
      </trkpt>
      <trkpt lat="46.92565" lon="7.2846">
        <ele>626.5</ele>
        <time>2020-05-07T11:49:42.216Z</time>
      </trkpt>
      <trkpt lat="46.92561" lon="7.2842">
        <ele>626.3</ele>
        <time>2020-05-07T11:50:07.160Z</time>
      </trkpt>
      <trkpt lat="46.92557" lon="7.28392">
        <ele>626.2</ele>
        <time>2020-05-07T11:50:25.343Z</time>
      </trkpt>
      <trkpt lat="46.92555" lon="7.28375">
        <ele>626.3</ele>
        <time>2020-05-07T11:50:38.166Z</time>
      </trkpt>
      <trkpt lat="46.92547" lon="7.28355">
        <ele>626.3</ele>
        <time>2020-05-07T11:50:54.054Z</time>
      </trkpt>
      <trkpt lat="46.92541" lon="7.28339">
        <ele>626.3</ele>
        <time>2020-05-07T11:51:06.567Z</time>
      </trkpt>
      <trkpt lat="46.92536" lon="7.28329">
        <ele>626.1</ele>
        <time>2020-05-07T11:51:09.158Z</time>
      </trkpt>
      <trkpt lat="46.9253" lon="7.2832">
        <ele>626</ele>
        <time>2020-05-07T11:51:12.197Z</time>
      </trkpt>
      <trkpt lat="46.92521" lon="7.28309">
        <ele>625.9</ele>
        <time>2020-05-07T11:51:16.520Z</time>
      </trkpt>
      <trkpt lat="46.92513" lon="7.28299">
        <ele>625.8</ele>
        <time>2020-05-07T11:51:20.347Z</time>
      </trkpt>
      <trkpt lat="46.92504" lon="7.2829">
        <ele>625.6</ele>
        <time>2020-05-07T11:51:23.894Z</time>
      </trkpt>
      <trkpt lat="46.92498" lon="7.28284">
        <ele>624.1</ele>
        <time>2020-05-07T11:51:25.529Z</time>
      </trkpt>
      <trkpt lat="46.92491" lon="7.28278">
        <ele>624</ele>
        <time>2020-05-07T11:51:28.374Z</time>
      </trkpt>
      <trkpt lat="46.9248" lon="7.2827">
        <ele>623.9</ele>
        <time>2020-05-07T11:51:32.926Z</time>
      </trkpt>
      <trkpt lat="46.9247" lon="7.28262">
        <ele>623.7</ele>
        <time>2020-05-07T11:51:36.670Z</time>
      </trkpt>
      <trkpt lat="46.92465" lon="7.28257">
        <ele>623.6</ele>
        <time>2020-05-07T11:51:38.685Z</time>
      </trkpt>
      <trkpt lat="46.9246" lon="7.2825">
        <ele>622.7</ele>
        <time>2020-05-07T11:51:40.242Z</time>
      </trkpt>
      <trkpt lat="46.92454" lon="7.2824">
        <ele>622.6</ele>
        <time>2020-05-07T11:51:43.485Z</time>
      </trkpt>
      <trkpt lat="46.9245" lon="7.28234">
        <ele>622.5</ele>
        <time>2020-05-07T11:51:45.369Z</time>
      </trkpt>
      <trkpt lat="46.92445" lon="7.28229">
        <ele>622.4</ele>
        <time>2020-05-07T11:51:47.383Z</time>
      </trkpt>
      <trkpt lat="46.9244" lon="7.28223">
        <ele>622.4</ele>
        <time>2020-05-07T11:51:53.872Z</time>
      </trkpt>
      <trkpt lat="46.92432" lon="7.28217">
        <ele>622.3</ele>
        <time>2020-05-07T11:51:57.074Z</time>
      </trkpt>
      <trkpt lat="46.92424" lon="7.28211">
        <ele>622.2</ele>
        <time>2020-05-07T11:52:00.275Z</time>
      </trkpt>
      <trkpt lat="46.92417" lon="7.28203">
        <ele>622.1</ele>
        <time>2020-05-07T11:52:03.433Z</time>
      </trkpt>
      <trkpt lat="46.92412" lon="7.28196">
        <ele>620.2</ele>
        <time>2020-05-07T11:52:04.990Z</time>
      </trkpt>
      <trkpt lat="46.92412" lon="7.28195">
        <ele>620.2</ele>
        <time>2020-05-07T11:52:05.676Z</time>
      </trkpt>
      <trkpt lat="46.92409" lon="7.28192">
        <ele>620.2</ele>
        <time>2020-05-07T11:52:09.322Z</time>
      </trkpt>
      <trkpt lat="46.92397" lon="7.28175">
        <ele>620.1</ele>
        <time>2020-05-07T11:52:24.673Z</time>
      </trkpt>
      <trkpt lat="46.92382" lon="7.28156">
        <ele>618.9</ele>
        <time>2020-05-07T11:52:28.964Z</time>
      </trkpt>
      <trkpt lat="46.92369" lon="7.28138">
        <ele>618.4</ele>
        <time>2020-05-07T11:52:34.187Z</time>
      </trkpt>
      <trkpt lat="46.92343" lon="7.28105">
        <ele>617.5</ele>
        <time>2020-05-07T11:52:44.428Z</time>
      </trkpt>
      <trkpt lat="46.92321" lon="7.28076">
        <ele>616.1</ele>
        <time>2020-05-07T11:52:51.584Z</time>
      </trkpt>
      <trkpt lat="46.9231" lon="7.28063">
        <ele>616.2</ele>
        <time>2020-05-07T11:53:06.757Z</time>
      </trkpt>
      <trkpt lat="46.92299" lon="7.2805">
        <ele>616.2</ele>
        <time>2020-05-07T11:53:20.946Z</time>
      </trkpt>
      <trkpt lat="46.92285" lon="7.28035">
        <ele>616.3</ele>
        <time>2020-05-07T11:53:39.330Z</time>
      </trkpt>
      <trkpt lat="46.92268" lon="7.28017">
        <ele>616.5</ele>
        <time>2020-05-07T11:54:02.403Z</time>
      </trkpt>
      <trkpt lat="46.92256" lon="7.28005">
        <ele>616.8</ele>
        <time>2020-05-07T11:54:20.390Z</time>
      </trkpt>
      <trkpt lat="46.92247" lon="7.27997">
        <ele>616.5</ele>
        <time>2020-05-07T11:54:23.446Z</time>
      </trkpt>
      <trkpt lat="46.92239" lon="7.27991">
        <ele>615.6</ele>
        <time>2020-05-07T11:54:25.469Z</time>
      </trkpt>
      <trkpt lat="46.92231" lon="7.27985">
        <ele>615</ele>
        <time>2020-05-07T11:54:27.493Z</time>
      </trkpt>
      <trkpt lat="46.92212" lon="7.27975">
        <ele>614.2</ele>
        <time>2020-05-07T11:54:32.730Z</time>
      </trkpt>
      <trkpt lat="46.92198" lon="7.27969">
        <ele>613.8</ele>
        <time>2020-05-07T11:54:37.013Z</time>
      </trkpt>
      <trkpt lat="46.92196" lon="7.27965">
        <ele>613.7</ele>
        <time>2020-05-07T11:54:37.985Z</time>
      </trkpt>
      <trkpt lat="46.92194" lon="7.27963">
        <ele>613.6</ele>
        <time>2020-05-07T11:54:38.603Z</time>
      </trkpt>
      <trkpt lat="46.92194" lon="7.27938">
        <ele>613.1</ele>
        <time>2020-05-07T11:54:43.517Z</time>
      </trkpt>
      <trkpt lat="46.92192" lon="7.27904">
        <ele>611.1</ele>
        <time>2020-05-07T11:54:48.764Z</time>
      </trkpt>
      <trkpt lat="46.9219" lon="7.27873">
        <ele>610.8</ele>
        <time>2020-05-07T11:54:56.055Z</time>
      </trkpt>
      <trkpt lat="46.92185" lon="7.27808">
        <ele>609.4</ele>
        <time>2020-05-07T11:55:08.638Z</time>
      </trkpt>
      <trkpt lat="46.92184" lon="7.27794">
        <ele>609.4</ele>
        <time>2020-05-07T11:55:18.288Z</time>
      </trkpt>
      <trkpt lat="46.92185" lon="7.27781">
        <ele>609.3</ele>
        <time>2020-05-07T11:55:21.468Z</time>
      </trkpt>
      <trkpt lat="46.92187" lon="7.27769">
        <ele>609.3</ele>
        <time>2020-05-07T11:55:29.936Z</time>
      </trkpt>
      <trkpt lat="46.92191" lon="7.27754">
        <ele>609.3</ele>
        <time>2020-05-07T11:55:40.976Z</time>
      </trkpt>
      <trkpt lat="46.92197" lon="7.27737">
        <ele>608.8</ele>
        <time>2020-05-07T11:55:44.411Z</time>
      </trkpt>
      <trkpt lat="46.92204" lon="7.2772">
        <ele>608.8</ele>
        <time>2020-05-07T11:55:58.019Z</time>
      </trkpt>
      <trkpt lat="46.92213" lon="7.277">
        <ele>608.7</ele>
        <time>2020-05-07T11:56:13.033Z</time>
      </trkpt>
      <trkpt lat="46.92225" lon="7.27675">
        <ele>608.8</ele>
        <time>2020-05-07T11:56:34.942Z</time>
      </trkpt>
      <trkpt lat="46.92239" lon="7.27646">
        <ele>608.8</ele>
        <time>2020-05-07T11:56:59.288Z</time>
      </trkpt>
      <trkpt lat="46.92255" lon="7.27616">
        <ele>610.1</ele>
        <time>2020-05-07T11:57:44.917Z</time>
      </trkpt>
      <trkpt lat="46.92261" lon="7.27603">
        <ele>609.9</ele>
        <time>2020-05-07T11:57:48.392Z</time>
      </trkpt>
      <trkpt lat="46.92261" lon="7.27603">
        <ele>609.9</ele>
        <time>2020-05-07T11:57:48.392Z</time>
      </trkpt>
      <trkpt lat="46.9227" lon="7.27586">
        <ele>609.9</ele>
        <time>2020-05-07T11:58:03.137Z</time>
      </trkpt>
      <trkpt lat="46.92299" lon="7.2753">
        <ele>609.2</ele>
        <time>2020-05-07T11:58:19.493Z</time>
      </trkpt>
      <trkpt lat="46.92311" lon="7.27506">
        <ele>609.1</ele>
        <time>2020-05-07T11:58:38.454Z</time>
      </trkpt>
      <trkpt lat="46.92319" lon="7.27491">
        <ele>608.3</ele>
        <time>2020-05-07T11:58:41.243Z</time>
      </trkpt>
      <trkpt lat="46.92337" lon="7.27452">
        <ele>608.7</ele>
        <time>2020-05-07T11:59:17.662Z</time>
      </trkpt>
      <trkpt lat="46.92344" lon="7.27435">
        <ele>608.3</ele>
        <time>2020-05-07T11:59:21.554Z</time>
      </trkpt>
      <trkpt lat="46.92351" lon="7.27418">
        <ele>608.1</ele>
        <time>2020-05-07T11:59:26.164Z</time>
      </trkpt>
      <trkpt lat="46.92361" lon="7.27388">
        <ele>607.2</ele>
        <time>2020-05-07T11:59:32.087Z</time>
      </trkpt>
      <trkpt lat="46.92371" lon="7.27355">
        <ele>607</ele>
        <time>2020-05-07T11:59:41.230Z</time>
      </trkpt>
      <trkpt lat="46.92377" lon="7.27334">
        <ele>607</ele>
        <time>2020-05-07T11:59:56.836Z</time>
      </trkpt>
      <trkpt lat="46.92382" lon="7.27312">
        <ele>605.6</ele>
        <time>2020-05-07T12:00:00.401Z</time>
      </trkpt>
      <trkpt lat="46.92385" lon="7.27291">
        <ele>605.3</ele>
        <time>2020-05-07T12:00:05.051Z</time>
      </trkpt>
      <trkpt lat="46.92388" lon="7.27268">
        <ele>605.1</ele>
        <time>2020-05-07T12:00:10.646Z</time>
      </trkpt>
      <trkpt lat="46.92391" lon="7.27216">
        <ele>603.8</ele>
        <time>2020-05-07T12:00:20.178Z</time>
      </trkpt>
      <trkpt lat="46.92393" lon="7.27195">
        <ele>603.8</ele>
        <time>2020-05-07T12:00:34.713Z</time>
      </trkpt>
      <trkpt lat="46.92397" lon="7.27164">
        <ele>603.5</ele>
        <time>2020-05-07T12:00:42.116Z</time>
      </trkpt>
      <trkpt lat="46.924" lon="7.27133">
        <ele>602.9</ele>
        <time>2020-05-07T12:00:48.351Z</time>
      </trkpt>
      <trkpt lat="46.92402" lon="7.27108">
        <ele>602.6</ele>
        <time>2020-05-07T12:00:54.006Z</time>
      </trkpt>
      <trkpt lat="46.92404" lon="7.27089">
        <ele>602.7</ele>
        <time>2020-05-07T12:01:08.173Z</time>
      </trkpt>
      <trkpt lat="46.92405" lon="7.27068">
        <ele>601.4</ele>
        <time>2020-05-07T12:01:11.410Z</time>
      </trkpt>
      <trkpt lat="46.92407" lon="7.27035">
        <ele>600.3</ele>
        <time>2020-05-07T12:01:16.816Z</time>
      </trkpt>
      <trkpt lat="46.92408" lon="7.27007">
        <ele>600</ele>
        <time>2020-05-07T12:01:23.254Z</time>
      </trkpt>
      <trkpt lat="46.92413" lon="7.26949">
        <ele>598.1</ele>
        <time>2020-05-07T12:01:32.880Z</time>
      </trkpt>
      <trkpt lat="46.92415" lon="7.26927">
        <ele>598</ele>
        <time>2020-05-07T12:01:46.698Z</time>
      </trkpt>
      <trkpt lat="46.92416" lon="7.26905">
        <ele>597.5</ele>
        <time>2020-05-07T12:01:50.859Z</time>
      </trkpt>
      <trkpt lat="46.92415" lon="7.26889">
        <ele>597.2</ele>
        <time>2020-05-07T12:01:54.083Z</time>
      </trkpt>
      <trkpt lat="46.92412" lon="7.26856">
        <ele>596.9</ele>
        <time>2020-05-07T12:02:01.968Z</time>
      </trkpt>
      <trkpt lat="46.92411" lon="7.26837">
        <ele>596.9</ele>
        <time>2020-05-07T12:02:15.032Z</time>
      </trkpt>
      <trkpt lat="46.92411" lon="7.26815">
        <ele>596.4</ele>
        <time>2020-05-07T12:02:19.181Z</time>
      </trkpt>
      <trkpt lat="46.92411" lon="7.2679">
        <ele>596</ele>
        <time>2020-05-07T12:02:24.419Z</time>
      </trkpt>
      <trkpt lat="46.92411" lon="7.2679">
        <ele>596</ele>
        <time>2020-05-07T12:02:24.419Z</time>
      </trkpt>
      <trkpt lat="46.92411" lon="7.26786">
        <ele>596</ele>
        <time>2020-05-07T12:02:27.161Z</time>
      </trkpt>
      <trkpt lat="46.92413" lon="7.26739">
        <ele>595.3</ele>
        <time>2020-05-07T12:02:37.216Z</time>
      </trkpt>
      <trkpt lat="46.9241" lon="7.26676">
        <ele>594</ele>
        <time>2020-05-07T12:02:49.517Z</time>
      </trkpt>
      <trkpt lat="46.92407" lon="7.2667">
        <ele>594</ele>
        <time>2020-05-07T12:02:54.615Z</time>
      </trkpt>
      <trkpt lat="46.92413" lon="7.26652">
        <ele>593.5</ele>
        <time>2020-05-07T12:02:58.270Z</time>
      </trkpt>
      <trkpt lat="46.9242" lon="7.26631">
        <ele>594</ele>
        <time>2020-05-07T12:03:20.737Z</time>
      </trkpt>
      <trkpt lat="46.92435" lon="7.26578">
        <ele>594</ele>
        <time>2020-05-07T12:04:00.066Z</time>
      </trkpt>
      <trkpt lat="46.92439" lon="7.26564">
        <ele>594</ele>
        <time>2020-05-07T12:04:10.469Z</time>
      </trkpt>
      <trkpt lat="46.92443" lon="7.26554">
        <ele>593.9</ele>
        <time>2020-05-07T12:04:13.234Z</time>
      </trkpt>
      <trkpt lat="46.92448" lon="7.26545">
        <ele>593.9</ele>
        <time>2020-05-07T12:04:21.187Z</time>
      </trkpt>
      <trkpt lat="46.92458" lon="7.26531">
        <ele>594</ele>
        <time>2020-05-07T12:04:36.059Z</time>
      </trkpt>
      <trkpt lat="46.92473" lon="7.26511">
        <ele>594.2</ele>
        <time>2020-05-07T12:04:58.444Z</time>
      </trkpt>
      <trkpt lat="46.9249" lon="7.26486">
        <ele>594.8</ele>
        <time>2020-05-07T12:05:29.775Z</time>
      </trkpt>
      <trkpt lat="46.92503" lon="7.26467">
        <ele>595</ele>
        <time>2020-05-07T12:05:50.254Z</time>
      </trkpt>
      <trkpt lat="46.92515" lon="7.26447">
        <ele>595.1</ele>
        <time>2020-05-07T12:06:09.472Z</time>
      </trkpt>
      <trkpt lat="46.92526" lon="7.26426">
        <ele>595.1</ele>
        <time>2020-05-07T12:06:27.615Z</time>
      </trkpt>
      <trkpt lat="46.92534" lon="7.26409">
        <ele>595.1</ele>
        <time>2020-05-07T12:06:41.767Z</time>
      </trkpt>
      <trkpt lat="46.9255" lon="7.26362">
        <ele>595</ele>
        <time>2020-05-07T12:07:16.292Z</time>
      </trkpt>
      <trkpt lat="46.9255" lon="7.26305">
        <ele>594.4</ele>
        <time>2020-05-07T12:07:29.421Z</time>
      </trkpt>
      <trkpt lat="46.92549" lon="7.2629">
        <ele>594.2</ele>
        <time>2020-05-07T12:07:32.727Z</time>
      </trkpt>
      <trkpt lat="46.92546" lon="7.26268">
        <ele>594</ele>
        <time>2020-05-07T12:07:38.050Z</time>
      </trkpt>
      <trkpt lat="46.92544" lon="7.26256">
        <ele>594</ele>
        <time>2020-05-07T12:07:46.518Z</time>
      </trkpt>
      <trkpt lat="46.92541" lon="7.26249">
        <ele>592.4</ele>
        <time>2020-05-07T12:07:47.789Z</time>
      </trkpt>
      <trkpt lat="46.92555" lon="7.26242">
        <ele>592.3</ele>
        <time>2020-05-07T12:08:01.244Z</time>
      </trkpt>
      <trkpt lat="46.9257" lon="7.26235">
        <ele>592.3</ele>
        <time>2020-05-07T12:08:17.047Z</time>
      </trkpt>
      <trkpt lat="46.92578" lon="7.26233">
        <ele>592.3</ele>
        <time>2020-05-07T12:08:25.193Z</time>
      </trkpt>
      <trkpt lat="46.92584" lon="7.26232">
        <ele>591.6</ele>
        <time>2020-05-07T12:08:26.552Z</time>
      </trkpt>
      <trkpt lat="46.9259" lon="7.26234">
        <ele>591.6</ele>
        <time>2020-05-07T12:08:32.729Z</time>
      </trkpt>
      <trkpt lat="46.92603" lon="7.26238">
        <ele>591.4</ele>
        <time>2020-05-07T12:08:37.229Z</time>
      </trkpt>
      <trkpt lat="46.92653" lon="7.26258">
        <ele>592.1</ele>
        <time>2020-05-07T12:09:36.600Z</time>
      </trkpt>
      <trkpt lat="46.92691" lon="7.26274">
        <ele>590.4</ele>
        <time>2020-05-07T12:09:46.538Z</time>
      </trkpt>
      <trkpt lat="46.92707" lon="7.26275">
        <ele>590</ele>
        <time>2020-05-07T12:09:51.366Z</time>
      </trkpt>
      <trkpt lat="46.92714" lon="7.26276">
        <ele>589.7</ele>
        <time>2020-05-07T12:09:53.140Z</time>
      </trkpt>
      <trkpt lat="46.92722" lon="7.26277">
        <ele>589.5</ele>
        <time>2020-05-07T12:09:55.562Z</time>
      </trkpt>
      <trkpt lat="46.92731" lon="7.2628">
        <ele>589.3</ele>
        <time>2020-05-07T12:09:58.451Z</time>
      </trkpt>
      <trkpt lat="46.92746" lon="7.26287">
        <ele>589.3</ele>
        <time>2020-05-07T12:10:14.254Z</time>
      </trkpt>
      <trkpt lat="46.9276" lon="7.26291">
        <ele>587.8</ele>
        <time>2020-05-07T12:10:17.465Z</time>
      </trkpt>
      <trkpt lat="46.9277" lon="7.26292">
        <ele>587.8</ele>
        <time>2020-05-07T12:10:27.526Z</time>
      </trkpt>
      <trkpt lat="46.92773" lon="7.26293">
        <ele>587.8</ele>
        <time>2020-05-07T12:10:30.614Z</time>
      </trkpt>
      <trkpt lat="46.92784" lon="7.26291">
        <ele>587.8</ele>
        <time>2020-05-07T12:10:41.740Z</time>
      </trkpt>
      <trkpt lat="46.92795" lon="7.26287">
        <ele>587.6</ele>
        <time>2020-05-07T12:10:45.460Z</time>
      </trkpt>
      <trkpt lat="46.92796" lon="7.26286">
        <ele>587.6</ele>
        <time>2020-05-07T12:10:46.675Z</time>
      </trkpt>
      <trkpt lat="46.92796" lon="7.26286">
        <ele>587.6</ele>
        <time>2020-05-07T12:10:46.675Z</time>
      </trkpt>
      <trkpt lat="46.92813" lon="7.26278">
        <ele>587.2</ele>
        <time>2020-05-07T12:10:52.217Z</time>
      </trkpt>
      <trkpt lat="46.92822" lon="7.26275">
        <ele>587</ele>
        <time>2020-05-07T12:10:55.106Z</time>
      </trkpt>
      <trkpt lat="46.92832" lon="7.26272">
        <ele>586.7</ele>
        <time>2020-05-07T12:10:58.041Z</time>
      </trkpt>
      <trkpt lat="46.92836" lon="7.26269">
        <ele>585.7</ele>
        <time>2020-05-07T12:10:59.052Z</time>
      </trkpt>
      <trkpt lat="46.92839" lon="7.26263">
        <ele>585.5</ele>
        <time>2020-05-07T12:11:00.373Z</time>
      </trkpt>
      <trkpt lat="46.9284" lon="7.26253">
        <ele>585.2</ele>
        <time>2020-05-07T12:11:02.100Z</time>
      </trkpt>
      <trkpt lat="46.92838" lon="7.26241">
        <ele>583.8</ele>
        <time>2020-05-07T12:11:03.999Z</time>
      </trkpt>
      <trkpt lat="46.92833" lon="7.26228">
        <ele>583.9</ele>
        <time>2020-05-07T12:11:15.237Z</time>
      </trkpt>
      <trkpt lat="46.92827" lon="7.26213">
        <ele>583.3</ele>
        <time>2020-05-07T12:11:18.026Z</time>
      </trkpt>
      <trkpt lat="46.92817" lon="7.26187">
        <ele>582.5</ele>
        <time>2020-05-07T12:11:23.331Z</time>
      </trkpt>
      <trkpt lat="46.928" lon="7.26137">
        <ele>580.1</ele>
        <time>2020-05-07T12:11:31.427Z</time>
      </trkpt>
      <trkpt lat="46.92796" lon="7.26125">
        <ele>580</ele>
        <time>2020-05-07T12:11:34.682Z</time>
      </trkpt>
      <trkpt lat="46.92794" lon="7.26116">
        <ele>579.9</ele>
        <time>2020-05-07T12:11:36.860Z</time>
      </trkpt>
      <trkpt lat="46.92794" lon="7.26107">
        <ele>579.8</ele>
        <time>2020-05-07T12:11:38.911Z</time>
      </trkpt>
      <trkpt lat="46.928" lon="7.26084">
        <ele>579.6</ele>
        <time>2020-05-07T12:11:44.841Z</time>
      </trkpt>
      <trkpt lat="46.928" lon="7.26072">
        <ele>578</ele>
        <time>2020-05-07T12:11:46.686Z</time>
      </trkpt>
      <trkpt lat="46.92796" lon="7.26018">
        <ele>577.1</ele>
        <time>2020-05-07T12:11:57.959Z</time>
      </trkpt>
      <trkpt lat="46.92793" lon="7.25975">
        <ele>574.8</ele>
        <time>2020-05-07T12:12:04.605Z</time>
      </trkpt>
      <trkpt lat="46.92792" lon="7.25955">
        <ele>574.4</ele>
        <time>2020-05-07T12:12:08.549Z</time>
      </trkpt>
      <trkpt lat="46.92792" lon="7.25954">
        <ele>574.4</ele>
        <time>2020-05-07T12:12:09.234Z</time>
      </trkpt>
      <trkpt lat="46.92787" lon="7.25865">
        <ele>572.4</ele>
        <time>2020-05-07T12:12:26.156Z</time>
      </trkpt>
      <trkpt lat="46.92785" lon="7.2585">
        <ele>572.3</ele>
        <time>2020-05-07T12:12:29.951Z</time>
      </trkpt>
      <trkpt lat="46.92779" lon="7.25818">
        <ele>571.6</ele>
        <time>2020-05-07T12:12:36.363Z</time>
      </trkpt>
      <trkpt lat="46.92772" lon="7.2578">
        <ele>571</ele>
        <time>2020-05-07T12:12:44.713Z</time>
      </trkpt>
      <trkpt lat="46.92768" lon="7.25751">
        <ele>570.1</ele>
        <time>2020-05-07T12:12:49.720Z</time>
      </trkpt>
      <trkpt lat="46.92765" lon="7.25723">
        <ele>570.6</ele>
        <time>2020-05-07T12:13:15.170Z</time>
      </trkpt>
      <trkpt lat="46.92763" lon="7.25697">
        <ele>570.5</ele>
        <time>2020-05-07T12:13:31.689Z</time>
      </trkpt>
      <trkpt lat="46.92761" lon="7.25658">
        <ele>569.6</ele>
        <time>2020-05-07T12:13:39.032Z</time>
      </trkpt>
      <trkpt lat="46.92761" lon="7.25626">
        <ele>571.1</ele>
        <time>2020-05-07T12:14:22.724Z</time>
      </trkpt>
      <trkpt lat="46.92762" lon="7.25594">
        <ele>569.9</ele>
        <time>2020-05-07T12:14:27.679Z</time>
      </trkpt>
      <trkpt lat="46.92764" lon="7.25567">
        <ele>569.6</ele>
        <time>2020-05-07T12:14:33.876Z</time>
      </trkpt>
      <trkpt lat="46.92767" lon="7.25544">
        <ele>570.1</ele>
        <time>2020-05-07T12:14:56.369Z</time>
      </trkpt>
      <trkpt lat="46.9277" lon="7.25528">
        <ele>569.7</ele>
        <time>2020-05-07T12:14:59.435Z</time>
      </trkpt>
      <trkpt lat="46.92775" lon="7.25513">
        <ele>569.5</ele>
        <time>2020-05-07T12:15:03.180Z</time>
      </trkpt>
      <trkpt lat="46.92783" lon="7.25493">
        <ele>565.8</ele>
        <time>2020-05-07T12:15:06.743Z</time>
      </trkpt>
      <trkpt lat="46.92789" lon="7.25477">
        <ele>565.6</ele>
        <time>2020-05-07T12:15:10.915Z</time>
      </trkpt>
      <trkpt lat="46.92795" lon="7.25455">
        <ele>564.7</ele>
        <time>2020-05-07T12:15:14.556Z</time>
      </trkpt>
      <trkpt lat="46.928" lon="7.25443">
        <ele>564.2</ele>
        <time>2020-05-07T12:15:16.782Z</time>
      </trkpt>
      <trkpt lat="46.92805" lon="7.25436">
        <ele>563.9</ele>
        <time>2020-05-07T12:15:18.515Z</time>
      </trkpt>
      <trkpt lat="46.92811" lon="7.25435">
        <ele>563.9</ele>
        <time>2020-05-07T12:15:24.576Z</time>
      </trkpt>
      <trkpt lat="46.9282" lon="7.25435">
        <ele>563.9</ele>
        <time>2020-05-07T12:15:33.610Z</time>
      </trkpt>
      <trkpt lat="46.92835" lon="7.25438">
        <ele>563.7</ele>
        <time>2020-05-07T12:15:38.859Z</time>
      </trkpt>
      <trkpt lat="46.92851" lon="7.25441">
        <ele>563.7</ele>
        <time>2020-05-07T12:15:55.050Z</time>
      </trkpt>
      <trkpt lat="46.92869" lon="7.25444">
        <ele>563.4</ele>
        <time>2020-05-07T12:16:01.074Z</time>
      </trkpt>
      <trkpt lat="46.92889" lon="7.25447">
        <ele>562.5</ele>
        <time>2020-05-07T12:16:06.046Z</time>
      </trkpt>
      <trkpt lat="46.92899" lon="7.25448">
        <ele>562</ele>
        <time>2020-05-07T12:16:08.414Z</time>
      </trkpt>
      <trkpt lat="46.92909" lon="7.25448">
        <ele>561.6</ele>
        <time>2020-05-07T12:16:10.999Z</time>
      </trkpt>
      <trkpt lat="46.92933" lon="7.25443">
        <ele>555.1</ele>
        <time>2020-05-07T12:16:16.457Z</time>
      </trkpt>
      <trkpt lat="46.92963" lon="7.25437">
        <ele>552.8</ele>
        <time>2020-05-07T12:16:23.273Z</time>
      </trkpt>
      <trkpt lat="46.92987" lon="7.25431">
        <ele>549</ele>
        <time>2020-05-07T12:16:28.754Z</time>
      </trkpt>
      <trkpt lat="46.93" lon="7.25425">
        <ele>545.6</ele>
        <time>2020-05-07T12:16:31.823Z</time>
      </trkpt>
      <trkpt lat="46.93011" lon="7.25419">
        <ele>541.7</ele>
        <time>2020-05-07T12:16:34.466Z</time>
      </trkpt>
      <trkpt lat="46.93022" lon="7.25409">
        <ele>539.1</ele>
        <time>2020-05-07T12:16:37.380Z</time>
      </trkpt>
      <trkpt lat="46.93033" lon="7.25395">
        <ele>538.2</ele>
        <time>2020-05-07T12:16:40.502Z</time>
      </trkpt>
      <trkpt lat="46.93044" lon="7.25379">
        <ele>537.8</ele>
        <time>2020-05-07T12:16:45.135Z</time>
      </trkpt>
      <trkpt lat="46.93057" lon="7.25364">
        <ele>537.7</ele>
        <time>2020-05-07T12:17:00.340Z</time>
      </trkpt>
      <trkpt lat="46.93073" lon="7.25346">
        <ele>537.8</ele>
        <time>2020-05-07T12:17:21.555Z</time>
      </trkpt>
      <trkpt lat="46.93086" lon="7.25346">
        <ele>533.6</ele>
        <time>2020-05-07T12:17:24.482Z</time>
      </trkpt>
      <trkpt lat="46.93099" lon="7.25347">
        <ele>531.7</ele>
        <time>2020-05-07T12:17:27.413Z</time>
      </trkpt>
      <trkpt lat="46.93106" lon="7.2535">
        <ele>530.3</ele>
        <time>2020-05-07T12:17:29.055Z</time>
      </trkpt>
      <trkpt lat="46.93108" lon="7.25351">
        <ele>530</ele>
        <time>2020-05-07T12:17:29.531Z</time>
      </trkpt>
      <trkpt lat="46.93107" lon="7.25351">
        <ele>530.1</ele>
        <time>2020-05-07T12:17:32.141Z</time>
      </trkpt>
      <trkpt lat="46.9312" lon="7.25359">
        <ele>528.1</ele>
        <time>2020-05-07T12:17:35.315Z</time>
      </trkpt>
      <trkpt lat="46.93126" lon="7.25359">
        <ele>527.5</ele>
        <time>2020-05-07T12:17:36.666Z</time>
      </trkpt>
      <trkpt lat="46.93134" lon="7.25357">
        <ele>526.6</ele>
        <time>2020-05-07T12:17:38.493Z</time>
      </trkpt>
      <trkpt lat="46.93141" lon="7.25351">
        <ele>525.7</ele>
        <time>2020-05-07T12:17:40.319Z</time>
      </trkpt>
      <trkpt lat="46.93148" lon="7.25342">
        <ele>524.5</ele>
        <time>2020-05-07T12:17:42.416Z</time>
      </trkpt>
      <trkpt lat="46.93159" lon="7.25327">
        <ele>523.4</ele>
        <time>2020-05-07T12:17:45.800Z</time>
      </trkpt>
      <trkpt lat="46.93164" lon="7.25321">
        <ele>523.9</ele>
        <time>2020-05-07T12:17:59.622Z</time>
      </trkpt>
      <trkpt lat="46.9317" lon="7.25317">
        <ele>521</ele>
        <time>2020-05-07T12:18:01.107Z</time>
      </trkpt>
      <trkpt lat="46.93187" lon="7.25312">
        <ele>521.6</ele>
        <time>2020-05-07T12:18:26.587Z</time>
      </trkpt>
      <trkpt lat="46.93197" lon="7.25307">
        <ele>522</ele>
        <time>2020-05-07T12:18:42.824Z</time>
      </trkpt>
      <trkpt lat="46.93204" lon="7.25301">
        <ele>522.2</ele>
        <time>2020-05-07T12:18:53.340Z</time>
      </trkpt>
      <trkpt lat="46.93208" lon="7.25296">
        <ele>522.2</ele>
        <time>2020-05-07T12:18:58.619Z</time>
      </trkpt>
      <trkpt lat="46.93213" lon="7.25284">
        <ele>521.8</ele>
        <time>2020-05-07T12:19:01.062Z</time>
      </trkpt>
      <trkpt lat="46.93219" lon="7.25266">
        <ele>521.2</ele>
        <time>2020-05-07T12:19:04.472Z</time>
      </trkpt>
      <trkpt lat="46.93223" lon="7.25253">
        <ele>520.8</ele>
        <time>2020-05-07T12:19:06.963Z</time>
      </trkpt>
      <trkpt lat="46.93229" lon="7.25241">
        <ele>518.9</ele>
        <time>2020-05-07T12:19:09.249Z</time>
      </trkpt>
      <trkpt lat="46.93234" lon="7.25232">
        <ele>518.8</ele>
        <time>2020-05-07T12:19:12.017Z</time>
      </trkpt>
      <trkpt lat="46.93242" lon="7.2522">
        <ele>518.5</ele>
        <time>2020-05-07T12:19:15.424Z</time>
      </trkpt>
      <trkpt lat="46.93251" lon="7.2521">
        <ele>522.9</ele>
        <time>2020-05-07T12:19:59.163Z</time>
      </trkpt>
      <trkpt lat="46.93265" lon="7.252">
        <ele>523.2</ele>
        <time>2020-05-07T12:20:18.147Z</time>
      </trkpt>
      <trkpt lat="46.93281" lon="7.25189">
        <ele>524.5</ele>
        <time>2020-05-07T12:20:54.829Z</time>
      </trkpt>
      <trkpt lat="46.93287" lon="7.25185">
        <ele>525.2</ele>
        <time>2020-05-07T12:21:13.140Z</time>
      </trkpt>
      <trkpt lat="46.93291" lon="7.25178">
        <ele>525.6</ele>
        <time>2020-05-07T12:21:25.200Z</time>
      </trkpt>
      <trkpt lat="46.93296" lon="7.25163">
        <ele>521.6</ele>
        <time>2020-05-07T12:21:27.766Z</time>
      </trkpt>
      <trkpt lat="46.933" lon="7.25154">
        <ele>522</ele>
        <time>2020-05-07T12:21:41.031Z</time>
      </trkpt>
      <trkpt lat="46.93308" lon="7.25145">
        <ele>522.7</ele>
        <time>2020-05-07T12:22:01.314Z</time>
      </trkpt>
      <trkpt lat="46.93328" lon="7.25122">
        <ele>522.5</ele>
        <time>2020-05-07T12:22:10.775Z</time>
      </trkpt>
      <trkpt lat="46.93343" lon="7.25105">
        <ele>533.6</ele>
        <time>2020-05-07T12:23:24.209Z</time>
      </trkpt>
      <trkpt lat="46.93354" lon="7.25091">
        <ele>533.6</ele>
        <time>2020-05-07T12:23:38.837Z</time>
      </trkpt>
      <trkpt lat="46.93363" lon="7.25078">
        <ele>532</ele>
        <time>2020-05-07T12:23:41.683Z</time>
      </trkpt>
      <trkpt lat="46.93364" lon="7.25077">
        <ele>532.2</ele>
        <time>2020-05-07T12:23:46.371Z</time>
      </trkpt>
      <trkpt lat="46.93364" lon="7.25077">
        <ele>532.2</ele>
        <time>2020-05-07T12:23:46.371Z</time>
      </trkpt>
      <trkpt lat="46.93372" lon="7.25064">
        <ele>533.8</ele>
        <time>2020-05-07T12:24:32.637Z</time>
      </trkpt>
      <trkpt lat="46.93379" lon="7.2505">
        <ele>534.6</ele>
        <time>2020-05-07T12:24:56.129Z</time>
      </trkpt>
      <trkpt lat="46.93383" lon="7.25039">
        <ele>534.9</ele>
        <time>2020-05-07T12:25:08.745Z</time>
      </trkpt>
      <trkpt lat="46.93386" lon="7.25027">
        <ele>535.3</ele>
        <time>2020-05-07T12:25:23.653Z</time>
      </trkpt>
      <trkpt lat="46.9339" lon="7.25017">
        <ele>536.1</ele>
        <time>2020-05-07T12:25:44.532Z</time>
      </trkpt>
      <trkpt lat="46.93395" lon="7.25009">
        <ele>537.5</ele>
        <time>2020-05-07T12:26:13.203Z</time>
      </trkpt>
      <trkpt lat="46.93403" lon="7.25002">
        <ele>539.9</ele>
        <time>2020-05-07T12:26:49.284Z</time>
      </trkpt>
      <trkpt lat="46.93411" lon="7.25">
        <ele>543.2</ele>
        <time>2020-05-07T12:27:20.705Z</time>
      </trkpt>
      <trkpt lat="46.93418" lon="7.25001">
        <ele>545.4</ele>
        <time>2020-05-07T12:27:47.935Z</time>
      </trkpt>
      <trkpt lat="46.93425" lon="7.25005">
        <ele>547.1</ele>
        <time>2020-05-07T12:28:17.026Z</time>
      </trkpt>
      <trkpt lat="46.93451" lon="7.25024">
        <ele>550.6</ele>
        <time>2020-05-07T12:29:51.751Z</time>
      </trkpt>
      <trkpt lat="46.93451" lon="7.25025">
        <ele>550.7</ele>
        <time>2020-05-07T12:29:54.394Z</time>
      </trkpt>
      <trkpt lat="46.93451" lon="7.25024">
        <ele>550.6</ele>
        <time>2020-05-07T12:29:54.548Z</time>
      </trkpt>
      <trkpt lat="46.93456" lon="7.2503">
        <ele>551.1</ele>
        <time>2020-05-07T12:30:08.370Z</time>
      </trkpt>
      <trkpt lat="46.9346" lon="7.25035">
        <ele>551.3</ele>
        <time>2020-05-07T12:30:16.471Z</time>
      </trkpt>
      <trkpt lat="46.93465" lon="7.25049">
        <ele>551.6</ele>
        <time>2020-05-07T12:30:31.001Z</time>
      </trkpt>
      <trkpt lat="46.9347" lon="7.25058">
        <ele>551.9</ele>
        <time>2020-05-07T12:30:43.176Z</time>
      </trkpt>
      <trkpt lat="46.93476" lon="7.25064">
        <ele>552.4</ele>
        <time>2020-05-07T12:30:57.721Z</time>
      </trkpt>
      <trkpt lat="46.93483" lon="7.2507">
        <ele>552.9</ele>
        <time>2020-05-07T12:31:13.132Z</time>
      </trkpt>
      <trkpt lat="46.93492" lon="7.25075">
        <ele>553.7</ele>
        <time>2020-05-07T12:31:34.707Z</time>
      </trkpt>
      <trkpt lat="46.93505" lon="7.25079">
        <ele>555.4</ele>
        <time>2020-05-07T12:32:22.376Z</time>
      </trkpt>
      <trkpt lat="46.93518" lon="7.2508">
        <ele>556</ele>
        <time>2020-05-07T12:32:44.654Z</time>
      </trkpt>
      <trkpt lat="46.93539" lon="7.25079">
        <ele>556.4</ele>
        <time>2020-05-07T12:33:10.198Z</time>
      </trkpt>
      <trkpt lat="46.93545" lon="7.25079">
        <ele>556.5</ele>
        <time>2020-05-07T12:33:17.305Z</time>
      </trkpt>
      <trkpt lat="46.93562" lon="7.25078">
        <ele>556.5</ele>
        <time>2020-05-07T12:33:34.383Z</time>
      </trkpt>
      <trkpt lat="46.93609" lon="7.25078">
        <ele>555.8</ele>
        <time>2020-05-07T12:33:50.337Z</time>
      </trkpt>
      <trkpt lat="46.93633" lon="7.25075">
        <ele>555.3</ele>
        <time>2020-05-07T12:33:57.956Z</time>
      </trkpt>
      <trkpt lat="46.93661" lon="7.2507">
        <ele>554.6</ele>
        <time>2020-05-07T12:34:06.476Z</time>
      </trkpt>
      <trkpt lat="46.93689" lon="7.25064">
        <ele>553</ele>
        <time>2020-05-07T12:34:12.797Z</time>
      </trkpt>
      <trkpt lat="46.93707" lon="7.25059">
        <ele>552.7</ele>
        <time>2020-05-07T12:34:18.903Z</time>
      </trkpt>
      <trkpt lat="46.93726" lon="7.25054">
        <ele>552.5</ele>
        <time>2020-05-07T12:34:25.849Z</time>
      </trkpt>
      <trkpt lat="46.9374" lon="7.2505">
        <ele>552.4</ele>
        <time>2020-05-07T12:34:38.777Z</time>
      </trkpt>
      <trkpt lat="46.93752" lon="7.25044">
        <ele>552</ele>
        <time>2020-05-07T12:34:42.341Z</time>
      </trkpt>
      <trkpt lat="46.93773" lon="7.25039">
        <ele>552</ele>
        <time>2020-05-07T12:35:03.697Z</time>
      </trkpt>
      <trkpt lat="46.93793" lon="7.25034">
        <ele>552.1</ele>
        <time>2020-05-07T12:35:25.025Z</time>
      </trkpt>
      <trkpt lat="46.93811" lon="7.25031">
        <ele>552.1</ele>
        <time>2020-05-07T12:35:43.209Z</time>
      </trkpt>
      <trkpt lat="46.93829" lon="7.25028">
        <ele>552.1</ele>
        <time>2020-05-07T12:36:01.393Z</time>
      </trkpt>
      <trkpt lat="46.93842" lon="7.25027">
        <ele>552.6</ele>
        <time>2020-05-07T12:36:21.552Z</time>
      </trkpt>
      <trkpt lat="46.93857" lon="7.25026">
        <ele>552.7</ele>
        <time>2020-05-07T12:36:37.603Z</time>
      </trkpt>
      <trkpt lat="46.93872" lon="7.25025">
        <ele>552.7</ele>
        <time>2020-05-07T12:36:52.675Z</time>
      </trkpt>
      <trkpt lat="46.93909" lon="7.25021">
        <ele>552.1</ele>
        <time>2020-05-07T12:37:05.071Z</time>
      </trkpt>
      <trkpt lat="46.93924" lon="7.25019">
        <ele>551.8</ele>
        <time>2020-05-07T12:37:09.882Z</time>
      </trkpt>
      <trkpt lat="46.93942" lon="7.25016">
        <ele>551.9</ele>
        <time>2020-05-07T12:37:29.035Z</time>
      </trkpt>
      <trkpt lat="46.93953" lon="7.25014">
        <ele>551.9</ele>
        <time>2020-05-07T12:37:40.161Z</time>
      </trkpt>
      <trkpt lat="46.93966" lon="7.25013">
        <ele>551.6</ele>
        <time>2020-05-07T12:37:44.172Z</time>
      </trkpt>
      <trkpt lat="46.93987" lon="7.25013">
        <ele>550.6</ele>
        <time>2020-05-07T12:37:49.233Z</time>
      </trkpt>
      <trkpt lat="46.94002" lon="7.25012">
        <ele>549.9</ele>
        <time>2020-05-07T12:37:52.885Z</time>
      </trkpt>
      <trkpt lat="46.94029" lon="7.25011">
        <ele>551</ele>
        <time>2020-05-07T12:38:36.127Z</time>
      </trkpt>
      <trkpt lat="46.94043" lon="7.25011">
        <ele>551.2</ele>
        <time>2020-05-07T12:38:52.295Z</time>
      </trkpt>
      <trkpt lat="46.94052" lon="7.25014">
        <ele>551.3</ele>
        <time>2020-05-07T12:39:02.580Z</time>
      </trkpt>
      <trkpt lat="46.9406" lon="7.25018">
        <ele>551.2</ele>
        <time>2020-05-07T12:39:05.564Z</time>
      </trkpt>
      <trkpt lat="46.94067" lon="7.25025">
        <ele>551.5</ele>
        <time>2020-05-07T12:39:18.153Z</time>
      </trkpt>
      <trkpt lat="46.94076" lon="7.25035">
        <ele>552.3</ele>
        <time>2020-05-07T12:39:41.111Z</time>
      </trkpt>
      <trkpt lat="46.94091" lon="7.25053">
        <ele>553.5</ele>
        <time>2020-05-07T12:40:18.019Z</time>
      </trkpt>
      <trkpt lat="46.94103" lon="7.25069">
        <ele>554.3</ele>
        <time>2020-05-07T12:40:46.370Z</time>
      </trkpt>
      <trkpt lat="46.94109" lon="7.25062">
        <ele>553.6</ele>
        <time>2020-05-07T12:40:48.097Z</time>
      </trkpt>
      <trkpt lat="46.94117" lon="7.25057">
        <ele>553.1</ele>
        <time>2020-05-07T12:40:50.025Z</time>
      </trkpt>
      <trkpt lat="46.94125" lon="7.25054">
        <ele>552.8</ele>
        <time>2020-05-07T12:40:52.237Z</time>
      </trkpt>
      <trkpt lat="46.94139" lon="7.2505">
        <ele>552.5</ele>
        <time>2020-05-07T12:40:56.734Z</time>
      </trkpt>
      <trkpt lat="46.94157" lon="7.25046">
        <ele>552.2</ele>
        <time>2020-05-07T12:41:02.795Z</time>
      </trkpt>
      <trkpt lat="46.94169" lon="7.25043">
        <ele>550.8</ele>
        <time>2020-05-07T12:41:05.535Z</time>
      </trkpt>
      <trkpt lat="46.94179" lon="7.25038">
        <ele>550.5</ele>
        <time>2020-05-07T12:41:08.605Z</time>
      </trkpt>
      <trkpt lat="46.94187" lon="7.25031">
        <ele>550.3</ele>
        <time>2020-05-07T12:41:11.529Z</time>
      </trkpt>
      <trkpt lat="46.94193" lon="7.25024">
        <ele>550.1</ele>
        <time>2020-05-07T12:41:13.814Z</time>
      </trkpt>
      <trkpt lat="46.94198" lon="7.25014">
        <ele>549.9</ele>
        <time>2020-05-07T12:41:16.404Z</time>
      </trkpt>
      <trkpt lat="46.94202" lon="7.25">
        <ele>549</ele>
        <time>2020-05-07T12:41:18.736Z</time>
      </trkpt>
      <trkpt lat="46.94204" lon="7.24984">
        <ele>546.3</ele>
        <time>2020-05-07T12:41:21.237Z</time>
      </trkpt>
      <trkpt lat="46.94206" lon="7.24958">
        <ele>545.2</ele>
        <time>2020-05-07T12:41:25.069Z</time>
      </trkpt>
      <trkpt lat="46.94209" lon="7.24934">
        <ele>544.3</ele>
        <time>2020-05-07T12:41:28.868Z</time>
      </trkpt>
      <trkpt lat="46.94211" lon="7.24921">
        <ele>544</ele>
        <time>2020-05-07T12:41:31.388Z</time>
      </trkpt>
      <trkpt lat="46.94216" lon="7.24909">
        <ele>538.2</ele>
        <time>2020-05-07T12:41:33.549Z</time>
      </trkpt>
      <trkpt lat="46.94221" lon="7.24898">
        <ele>537.9</ele>
        <time>2020-05-07T12:41:36.041Z</time>
      </trkpt>
      <trkpt lat="46.94229" lon="7.24888">
        <ele>537.6</ele>
        <time>2020-05-07T12:41:39.092Z</time>
      </trkpt>
      <trkpt lat="46.94236" lon="7.2488">
        <ele>537.1</ele>
        <time>2020-05-07T12:41:41.079Z</time>
      </trkpt>
      <trkpt lat="46.9425" lon="7.24864">
        <ele>537.3</ele>
        <time>2020-05-07T12:42:00.953Z</time>
      </trkpt>
      <trkpt lat="46.94259" lon="7.24856">
        <ele>536.8</ele>
        <time>2020-05-07T12:42:03.494Z</time>
      </trkpt>
      <trkpt lat="46.94267" lon="7.24851">
        <ele>536.7</ele>
        <time>2020-05-07T12:42:06.577Z</time>
      </trkpt>
      <trkpt lat="46.94276" lon="7.24848">
        <ele>536.8</ele>
        <time>2020-05-07T12:42:16.862Z</time>
      </trkpt>
      <trkpt lat="46.94287" lon="7.24846">
        <ele>537</ele>
        <time>2020-05-07T12:42:30.191Z</time>
      </trkpt>
      <trkpt lat="46.94299" lon="7.24846">
        <ele>537.1</ele>
        <time>2020-05-07T12:42:43.232Z</time>
      </trkpt>
      <trkpt lat="46.94324" lon="7.24848">
        <ele>536.9</ele>
        <time>2020-05-07T12:42:52.531Z</time>
      </trkpt>
      <trkpt lat="46.94413" lon="7.24852">
        <ele>532</ele>
        <time>2020-05-07T12:43:12.672Z</time>
      </trkpt>
      <trkpt lat="46.94421" lon="7.24853">
        <ele>526.5</ele>
        <time>2020-05-07T12:43:14.479Z</time>
      </trkpt>
      <trkpt lat="46.9443" lon="7.24855">
        <ele>525.7</ele>
        <time>2020-05-07T12:43:16.529Z</time>
      </trkpt>
      <trkpt lat="46.94438" lon="7.2486">
        <ele>524.8</ele>
        <time>2020-05-07T12:43:18.487Z</time>
      </trkpt>
      <trkpt lat="46.94446" lon="7.24868">
        <ele>524</ele>
        <time>2020-05-07T12:43:20.667Z</time>
      </trkpt>
      <trkpt lat="46.94454" lon="7.2488">
        <ele>523.5</ele>
        <time>2020-05-07T12:43:23.528Z</time>
      </trkpt>
      <trkpt lat="46.94459" lon="7.24889">
        <ele>523.1</ele>
        <time>2020-05-07T12:43:25.390Z</time>
      </trkpt>
      <trkpt lat="46.94459" lon="7.24888">
        <ele>523.1</ele>
        <time>2020-05-07T12:43:26.075Z</time>
      </trkpt>
      <trkpt lat="46.94461" lon="7.24892">
        <ele>522.9</ele>
        <time>2020-05-07T12:43:26.816Z</time>
      </trkpt>
      <trkpt lat="46.94467" lon="7.24907">
        <ele>522.3</ele>
        <time>2020-05-07T12:43:29.604Z</time>
      </trkpt>
      <trkpt lat="46.94473" lon="7.24926">
        <ele>523</ele>
        <time>2020-05-07T12:43:54.521Z</time>
      </trkpt>
      <trkpt lat="46.94478" lon="7.24947">
        <ele>523.5</ele>
        <time>2020-05-07T12:44:16.344Z</time>
      </trkpt>
      <trkpt lat="46.94482" lon="7.24963">
        <ele>523.7</ele>
        <time>2020-05-07T12:44:30.203Z</time>
      </trkpt>
      <trkpt lat="46.94484" lon="7.24977">
        <ele>523.6</ele>
        <time>2020-05-07T12:44:33.722Z</time>
      </trkpt>
      <trkpt lat="46.94485" lon="7.24992">
        <ele>523.1</ele>
        <time>2020-05-07T12:44:36.181Z</time>
      </trkpt>
      <trkpt lat="46.94485" lon="7.25024">
        <ele>524.1</ele>
        <time>2020-05-07T12:45:13.491Z</time>
      </trkpt>
      <trkpt lat="46.94486" lon="7.25058">
        <ele>523.7</ele>
        <time>2020-05-07T12:45:21.155Z</time>
      </trkpt>
      <trkpt lat="46.94485" lon="7.25124">
        <ele>524.1</ele>
        <time>2020-05-07T12:46:10.397Z</time>
      </trkpt>
      <trkpt lat="46.94486" lon="7.25132">
        <ele>524.1</ele>
        <time>2020-05-07T12:46:15.970Z</time>
      </trkpt>
      <trkpt lat="46.94489" lon="7.25142">
        <ele>523.8</ele>
        <time>2020-05-07T12:46:17.893Z</time>
      </trkpt>
      <trkpt lat="46.94493" lon="7.25151">
        <ele>523.2</ele>
        <time>2020-05-07T12:46:19.544Z</time>
      </trkpt>
      <trkpt lat="46.94499" lon="7.25158">
        <ele>522.3</ele>
        <time>2020-05-07T12:46:21.271Z</time>
      </trkpt>
      <trkpt lat="46.94505" lon="7.25162">
        <ele>520.8</ele>
        <time>2020-05-07T12:46:22.755Z</time>
      </trkpt>
      <trkpt lat="46.94513" lon="7.25164">
        <ele>520.7</ele>
        <time>2020-05-07T12:46:25.601Z</time>
      </trkpt>
      <trkpt lat="46.9452" lon="7.25164">
        <ele>520.6</ele>
        <time>2020-05-07T12:46:27.995Z</time>
      </trkpt>
      <trkpt lat="46.94527" lon="7.25161">
        <ele>520.6</ele>
        <time>2020-05-07T12:46:35.316Z</time>
      </trkpt>
      <trkpt lat="46.94533" lon="7.25156">
        <ele>520.6</ele>
        <time>2020-05-07T12:46:42.245Z</time>
      </trkpt>
      <trkpt lat="46.9454" lon="7.25148">
        <ele>520.5</ele>
        <time>2020-05-07T12:46:45.402Z</time>
      </trkpt>
      <trkpt lat="46.94546" lon="7.25138">
        <ele>520.3</ele>
        <time>2020-05-07T12:46:48.235Z</time>
      </trkpt>
      <trkpt lat="46.94556" lon="7.25116">
        <ele>519.7</ele>
        <time>2020-05-07T12:46:53.219Z</time>
      </trkpt>
      <trkpt lat="46.94562" lon="7.25103">
        <ele>519.2</ele>
        <time>2020-05-07T12:46:55.823Z</time>
      </trkpt>
      <trkpt lat="46.94566" lon="7.25091">
        <ele>518.6</ele>
        <time>2020-05-07T12:46:57.715Z</time>
      </trkpt>
      <trkpt lat="46.94568" lon="7.25075">
        <ele>517.7</ele>
        <time>2020-05-07T12:47:00.215Z</time>
      </trkpt>
      <trkpt lat="46.94569" lon="7.25062">
        <ele>517.9</ele>
        <time>2020-05-07T12:47:11.493Z</time>
      </trkpt>
      <trkpt lat="46.94568" lon="7.25045">
        <ele>518.1</ele>
        <time>2020-05-07T12:47:25.368Z</time>
      </trkpt>
      <trkpt lat="46.94565" lon="7.25028">
        <ele>518.1</ele>
        <time>2020-05-07T12:47:37.400Z</time>
      </trkpt>
      <trkpt lat="46.94554" lon="7.2499">
        <ele>518</ele>
        <time>2020-05-07T12:48:04.225Z</time>
      </trkpt>
      <trkpt lat="46.94553" lon="7.24985">
        <ele>518</ele>
        <time>2020-05-07T12:48:07.795Z</time>
      </trkpt>
      <trkpt lat="46.94552" lon="7.24979">
        <ele>518</ele>
        <time>2020-05-07T12:48:12.028Z</time>
      </trkpt>
      <trkpt lat="46.94551" lon="7.24973">
        <ele>518</ele>
        <time>2020-05-07T12:48:16.260Z</time>
      </trkpt>
      <trkpt lat="46.94551" lon="7.24971">
        <ele>518</ele>
        <time>2020-05-07T12:48:17.630Z</time>
      </trkpt>
      <trkpt lat="46.94552" lon="7.24966">
        <ele>517.9</ele>
        <time>2020-05-07T12:48:18.667Z</time>
      </trkpt>
      <trkpt lat="46.94552" lon="7.24966">
        <ele>517.9</ele>
        <time>2020-05-07T12:48:18.667Z</time>
      </trkpt>
      <trkpt lat="46.94552" lon="7.24961">
        <ele>517.9</ele>
        <time>2020-05-07T12:48:22.093Z</time>
      </trkpt>
      <trkpt lat="46.94556" lon="7.24953">
        <ele>517.8</ele>
        <time>2020-05-07T12:48:24.395Z</time>
      </trkpt>
      <trkpt lat="46.94564" lon="7.24943">
        <ele>517.6</ele>
        <time>2020-05-07T12:48:27.790Z</time>
      </trkpt>
      <trkpt lat="46.94551" lon="7.24918">
        <ele>517.6</ele>
        <time>2020-05-07T12:48:49.325Z</time>
      </trkpt>
      <trkpt lat="46.94545" lon="7.24908">
        <ele>517.9</ele>
        <time>2020-05-07T12:49:02.401Z</time>
      </trkpt>
      <trkpt lat="46.9454" lon="7.24893">
        <ele>518</ele>
        <time>2020-05-07T12:49:14.840Z</time>
      </trkpt>
      <trkpt lat="46.94536" lon="7.24876">
        <ele>518.1</ele>
        <time>2020-05-07T12:49:28.155Z</time>
      </trkpt>
      <trkpt lat="46.94535" lon="7.24865">
        <ele>518.1</ele>
        <time>2020-05-07T12:49:35.759Z</time>
      </trkpt>
      <trkpt lat="46.94534" lon="7.24856">
        <ele>518.1</ele>
        <time>2020-05-07T12:49:42.008Z</time>
      </trkpt>
      <trkpt lat="46.94533" lon="7.24834">
        <ele>517.9</ele>
        <time>2020-05-07T12:49:47.222Z</time>
      </trkpt>
      <trkpt lat="46.94532" lon="7.24811">
        <ele>518.9</ele>
        <time>2020-05-07T12:50:17.529Z</time>
      </trkpt>
      <trkpt lat="46.94532" lon="7.24775">
        <ele>519</ele>
        <time>2020-05-07T12:50:43.153Z</time>
      </trkpt>
      <trkpt lat="46.94531" lon="7.24745">
        <ele>515.1</ele>
        <time>2020-05-07T12:50:47.769Z</time>
      </trkpt>
      <trkpt lat="46.94531" lon="7.24717">
        <ele>513.9</ele>
        <time>2020-05-07T12:50:51.831Z</time>
      </trkpt>
      <trkpt lat="46.94531" lon="7.24702">
        <ele>512.8</ele>
        <time>2020-05-07T12:50:54.137Z</time>
      </trkpt>
      <trkpt lat="46.94531" lon="7.24683">
        <ele>511.5</ele>
        <time>2020-05-07T12:50:57.057Z</time>
      </trkpt>
      <trkpt lat="46.9453" lon="7.24657">
        <ele>506.5</ele>
        <time>2020-05-07T12:51:01.059Z</time>
      </trkpt>
      <trkpt lat="46.94529" lon="7.24634">
        <ele>506.2</ele>
        <time>2020-05-07T12:51:06.136Z</time>
      </trkpt>
      <trkpt lat="46.94527" lon="7.24612">
        <ele>505.6</ele>
        <time>2020-05-07T12:51:10.067Z</time>
      </trkpt>
      <trkpt lat="46.94522" lon="7.24583">
        <ele>502.2</ele>
        <time>2020-05-07T12:51:14.664Z</time>
      </trkpt>
      <trkpt lat="46.94514" lon="7.24546">
        <ele>501</ele>
        <time>2020-05-07T12:51:21.186Z</time>
      </trkpt>
      <trkpt lat="46.9451" lon="7.24525">
        <ele>498.9</ele>
        <time>2020-05-07T12:51:24.536Z</time>
      </trkpt>
      <trkpt lat="46.94504" lon="7.24503">
        <ele>494</ele>
        <time>2020-05-07T12:51:28.178Z</time>
      </trkpt>
      <trkpt lat="46.94497" lon="7.2448">
        <ele>490.7</ele>
        <time>2020-05-07T12:51:32.048Z</time>
      </trkpt>
      <trkpt lat="46.94492" lon="7.24466">
        <ele>489.5</ele>
        <time>2020-05-07T12:51:34.476Z</time>
      </trkpt>
      <trkpt lat="46.94485" lon="7.24451">
        <ele>488</ele>
        <time>2020-05-07T12:51:37.269Z</time>
      </trkpt>
      <trkpt lat="46.94478" lon="7.24438">
        <ele>486.8</ele>
        <time>2020-05-07T12:51:39.814Z</time>
      </trkpt>
      <trkpt lat="46.9447" lon="7.24425">
        <ele>486.2</ele>
        <time>2020-05-07T12:51:42.629Z</time>
      </trkpt>
      <trkpt lat="46.94463" lon="7.24415">
        <ele>478.9</ele>
        <time>2020-05-07T12:51:44.830Z</time>
      </trkpt>
      <trkpt lat="46.94458" lon="7.24409">
        <ele>478.9</ele>
        <time>2020-05-07T12:51:51.318Z</time>
      </trkpt>
      <trkpt lat="46.94451" lon="7.244">
        <ele>478.7</ele>
        <time>2020-05-07T12:51:54.240Z</time>
      </trkpt>
      <trkpt lat="46.94446" lon="7.24394">
        <ele>478.6</ele>
        <time>2020-05-07T12:51:56.418Z</time>
      </trkpt>
      <trkpt lat="46.94451" lon="7.24387">
        <ele>478.4</ele>
        <time>2020-05-07T12:51:58.416Z</time>
      </trkpt>
      <trkpt lat="46.94445" lon="7.24375">
        <ele>478</ele>
        <time>2020-05-07T12:52:01.057Z</time>
      </trkpt>
      <trkpt lat="46.94387" lon="7.24267">
        <ele>473.8</ele>
        <time>2020-05-07T12:52:24.254Z</time>
      </trkpt>
      <trkpt lat="46.94385" lon="7.24262">
        <ele>473.8</ele>
        <time>2020-05-07T12:52:28.225Z</time>
      </trkpt>
      <trkpt lat="46.94383" lon="7.24257">
        <ele>473.8</ele>
        <time>2020-05-07T12:52:32.196Z</time>
      </trkpt>
      <trkpt lat="46.9438" lon="7.24247">
        <ele>473.5</ele>
        <time>2020-05-07T12:52:34.120Z</time>
      </trkpt>
      <trkpt lat="46.94379" lon="7.24237">
        <ele>473.5</ele>
        <time>2020-05-07T12:52:41.045Z</time>
      </trkpt>
      <trkpt lat="46.94378" lon="7.24229">
        <ele>473.5</ele>
        <time>2020-05-07T12:52:46.619Z</time>
      </trkpt>
      <trkpt lat="46.94379" lon="7.24216">
        <ele>473.5</ele>
        <time>2020-05-07T12:52:55.584Z</time>
      </trkpt>
      <trkpt lat="46.94381" lon="7.24197">
        <ele>473.5</ele>
        <time>2020-05-07T12:53:08.758Z</time>
      </trkpt>
      <trkpt lat="46.94383" lon="7.2418">
        <ele>473.5</ele>
        <time>2020-05-07T12:53:20.579Z</time>
      </trkpt>
      <trkpt lat="46.9439" lon="7.24153">
        <ele>473.6</ele>
        <time>2020-05-07T12:53:41.335Z</time>
      </trkpt>
      <trkpt lat="46.94392" lon="7.24145">
        <ele>473.6</ele>
        <time>2020-05-07T12:53:47.173Z</time>
      </trkpt>
      <trkpt lat="46.94394" lon="7.24135">
        <ele>473.6</ele>
        <time>2020-05-07T12:53:54.314Z</time>
      </trkpt>
      <trkpt lat="46.94395" lon="7.24126">
        <ele>473.6</ele>
        <time>2020-05-07T12:54:00.563Z</time>
      </trkpt>
      <trkpt lat="46.94395" lon="7.24115">
        <ele>473.6</ele>
        <time>2020-05-07T12:54:08.101Z</time>
      </trkpt>
      <trkpt lat="46.94396" lon="7.24107">
        <ele>473.6</ele>
        <time>2020-05-07T12:54:13.674Z</time>
      </trkpt>
      <trkpt lat="46.94395" lon="7.24096">
        <ele>473.7</ele>
        <time>2020-05-07T12:54:22.325Z</time>
      </trkpt>
      <trkpt lat="46.94395" lon="7.24091">
        <ele>473.7</ele>
        <time>2020-05-07T12:54:25.751Z</time>
      </trkpt>
      <trkpt lat="46.94395" lon="7.2409">
        <ele>473.7</ele>
        <time>2020-05-07T12:54:26.436Z</time>
      </trkpt>
      <trkpt lat="46.94395" lon="7.24084">
        <ele>473.7</ele>
        <time>2020-05-07T12:54:30.548Z</time>
      </trkpt>
      <trkpt lat="46.94393" lon="7.24067">
        <ele>473.3</ele>
        <time>2020-05-07T12:54:33.777Z</time>
      </trkpt>
      <trkpt lat="46.94391" lon="7.24053">
        <ele>473.2</ele>
        <time>2020-05-07T12:54:37.296Z</time>
      </trkpt>
      <trkpt lat="46.94387" lon="7.24011">
        <ele>472.9</ele>
        <time>2020-05-07T12:54:47.712Z</time>
      </trkpt>
      <trkpt lat="46.94385" lon="7.23998">
        <ele>472.4</ele>
        <time>2020-05-07T12:54:49.771Z</time>
      </trkpt>
      <trkpt lat="46.94383" lon="7.23989">
        <ele>472.4</ele>
        <time>2020-05-07T12:54:56.257Z</time>
      </trkpt>
      <trkpt lat="46.9438" lon="7.23976">
        <ele>472.3</ele>
        <time>2020-05-07T12:54:59.614Z</time>
      </trkpt>
      <trkpt lat="46.94376" lon="7.23961">
        <ele>472.3</ele>
        <time>2020-05-07T12:55:10.650Z</time>
      </trkpt>
      <trkpt lat="46.94369" lon="7.23944">
        <ele>472.2</ele>
        <time>2020-05-07T12:55:15.726Z</time>
      </trkpt>
      <trkpt lat="46.94365" lon="7.23934">
        <ele>472.2</ele>
        <time>2020-05-07T12:55:23.669Z</time>
      </trkpt>
      <trkpt lat="46.9436" lon="7.23922">
        <ele>472.1</ele>
        <time>2020-05-07T12:55:27.119Z</time>
      </trkpt>
      <trkpt lat="46.94348" lon="7.23898">
        <ele>471.8</ele>
        <time>2020-05-07T12:55:34.024Z</time>
      </trkpt>
      <trkpt lat="46.9434" lon="7.2388">
        <ele>471.7</ele>
        <time>2020-05-07T12:55:47.350Z</time>
      </trkpt>
      <trkpt lat="46.94337" lon="7.23874">
        <ele>471.7</ele>
        <time>2020-05-07T12:55:52.446Z</time>
      </trkpt>
      <trkpt lat="46.94331" lon="7.23865">
        <ele>471.4</ele>
        <time>2020-05-07T12:55:54.778Z</time>
      </trkpt>
      <trkpt lat="46.94334" lon="7.23853">
        <ele>471.4</ele>
        <time>2020-05-07T12:56:03.536Z</time>
      </trkpt>
      <trkpt lat="46.94341" lon="7.23856">
        <ele>471.5</ele>
        <time>2020-05-07T12:56:11.908Z</time>
      </trkpt>
      <trkpt lat="46.94352" lon="7.23803">
        <ele>472.4</ele>
        <time>2020-05-07T12:57:00.450Z</time>
      </trkpt>
      <trkpt lat="46.94364" lon="7.23748">
        <ele>474.3</ele>
        <time>2020-05-07T12:58:08.831Z</time>
      </trkpt>
      <trkpt lat="46.9437" lon="7.23716">
        <ele>474.5</ele>
        <time>2020-05-07T12:58:33.572Z</time>
      </trkpt>
      <trkpt lat="46.94375" lon="7.23695">
        <ele>474.6</ele>
        <time>2020-05-07T12:58:49.791Z</time>
      </trkpt>
      <trkpt lat="46.94379" lon="7.23672">
        <ele>474.6</ele>
        <time>2020-05-07T12:59:06.056Z</time>
      </trkpt>
      <trkpt lat="46.9438" lon="7.23653">
        <ele>475.4</ele>
        <time>2020-05-07T12:59:30.749Z</time>
      </trkpt>
      <trkpt lat="46.94381" lon="7.23613">
        <ele>475.8</ele>
        <time>2020-05-07T13:00:02.426Z</time>
      </trkpt>
      <trkpt lat="46.94381" lon="7.2359">
        <ele>475.9</ele>
        <time>2020-05-07T13:00:19.164Z</time>
      </trkpt>
      <trkpt lat="46.94382" lon="7.23574">
        <ele>477.4</ele>
        <time>2020-05-07T13:01:01.632Z</time>
      </trkpt>
      <trkpt lat="46.94383" lon="7.23556">
        <ele>477.7</ele>
        <time>2020-05-07T13:01:17.557Z</time>
      </trkpt>
      <trkpt lat="46.94384" lon="7.23542">
        <ele>477.9</ele>
        <time>2020-05-07T13:01:29.475Z</time>
      </trkpt>
      <trkpt lat="46.94385" lon="7.23527">
        <ele>478.2</ele>
        <time>2020-05-07T13:01:43.566Z</time>
      </trkpt>
      <trkpt lat="46.94295" lon="7.23519">
        <ele>480.9</ele>
        <time>2020-05-07T13:03:48.486Z</time>
      </trkpt>
      <trkpt lat="46.94252" lon="7.23516">
        <ele>482.9</ele>
        <time>2020-05-07T13:05:02.012Z</time>
      </trkpt>
      <trkpt lat="46.94191" lon="7.23529">
        <ele>487.9</ele>
        <time>2020-05-07T13:07:17.710Z</time>
      </trkpt>
    </trkseg>
  </trk>
</gpx>